﻿<?xml version="1.0" encoding="UTF-8" standalone="no"?>
<gpx xmlns="http://www.topografix.com/GPX/1/1" xmlns:gpxtpx="http://www.garmin.com/xmlschemas/TrackPointExtension/v1" xmlns:xsi="http://www.w3.org/2001/XMLSchema-instance" creator="Hribi.net" version="1.1" xsi:schemaLocation="http://www.topografix.com/GPX/1/1 http://www.topografix.com/GPX/1/1/gpx.xsd http://www.garmin.com/xmlschemas/TrackPointExtension/v1 http://www.garmin.com/xmlschemas/TrackPointExtensionv1.xsd">
  <metadata>
    <name>GPS sled</name>
    <desc>www.hribi.net</desc>
    <author>
      <name>hribi.net</name>
    </author>
    <link href="http://www.hribi.net">
      <text>Hribi.net</text>
    </link>
  </metadata>
  <trk>
    <trkseg>
      <trkpt lat="46.432793" lon="14.260082">
        <ele>1052.16955566406</ele>
        <time>2007-08-25T05:44:04Z</time>
      </trkpt>
      <trkpt lat="46.432793" lon="14.260082">
        <ele>1052.16955566406</ele>
        <time>2007-08-25T05:44:05Z</time>
      </trkpt>
      <trkpt lat="46.432793" lon="14.260082">
        <ele>1052.16955566406</ele>
        <time>2007-08-25T05:44:06Z</time>
      </trkpt>
      <trkpt lat="46.432793" lon="14.260082">
        <ele>1053.083984375</ele>
        <time>2007-08-25T05:44:22Z</time>
      </trkpt>
      <trkpt lat="46.432793" lon="14.260082">
        <ele>1053.083984375</ele>
        <time>2007-08-25T05:44:29Z</time>
      </trkpt>
      <trkpt lat="46.432793" lon="14.260082">
        <ele>1052.77917480469</ele>
        <time>2007-08-25T05:44:49Z</time>
      </trkpt>
      <trkpt lat="46.432793" lon="14.260082">
        <ele>1052.77917480469</ele>
        <time>2007-08-25T05:44:50Z</time>
      </trkpt>
      <trkpt lat="46.432793" lon="14.260082">
        <ele>1053.69360351562</ele>
        <time>2007-08-25T05:45:09Z</time>
      </trkpt>
      <trkpt lat="46.432793" lon="14.260082">
        <ele>1056.43676757813</ele>
        <time>2007-08-25T05:45:23Z</time>
      </trkpt>
      <trkpt lat="46.432793" lon="14.260082">
        <ele>1057.35119628906</ele>
        <time>2007-08-25T05:45:25Z</time>
      </trkpt>
      <trkpt lat="46.432793" lon="14.260082">
        <ele>1058.57043457031</ele>
        <time>2007-08-25T05:45:39Z</time>
      </trkpt>
      <trkpt lat="46.432793" lon="14.260082">
        <ele>1061.61840820313</ele>
        <time>2007-08-25T05:45:55Z</time>
      </trkpt>
      <trkpt lat="46.431964" lon="14.25892">
        <ele>1064.97119140625</ele>
        <time>2007-08-25T05:46:09Z</time>
      </trkpt>
      <trkpt lat="46.431964" lon="14.25892">
        <ele>1065.88562011719</ele>
        <time>2007-08-25T05:46:25Z</time>
      </trkpt>
      <trkpt lat="46.431964" lon="14.25892">
        <ele>1068.93359375</ele>
        <time>2007-08-25T05:46:39Z</time>
      </trkpt>
      <trkpt lat="46.431964" lon="14.25892">
        <ele>1070.15283203125</ele>
        <time>2007-08-25T05:46:45Z</time>
      </trkpt>
      <trkpt lat="46.431964" lon="14.25892">
        <ele>1073.20080566406</ele>
        <time>2007-08-25T05:46:57Z</time>
      </trkpt>
      <trkpt lat="46.431964" lon="14.25892">
        <ele>1075.94396972656</ele>
        <time>2007-08-25T05:47:12Z</time>
      </trkpt>
      <trkpt lat="46.431964" lon="14.25892">
        <ele>1078.99194335938</ele>
        <time>2007-08-25T05:47:25Z</time>
      </trkpt>
      <trkpt lat="46.431964" lon="14.25892">
        <ele>1081.73522949219</ele>
        <time>2007-08-25T05:47:42Z</time>
      </trkpt>
      <trkpt lat="46.431964" lon="14.25892">
        <ele>1083.56396484375</ele>
        <time>2007-08-25T05:47:55Z</time>
      </trkpt>
      <trkpt lat="46.431964" lon="14.25892">
        <ele>1086.61206054687</ele>
        <time>2007-08-25T05:48:07Z</time>
      </trkpt>
      <trkpt lat="46.431964" lon="14.25892">
        <ele>1090.26965332031</ele>
        <time>2007-08-25T05:48:24Z</time>
      </trkpt>
      <trkpt lat="46.432065" lon="14.257521">
        <ele>1092.09838867188</ele>
        <time>2007-08-25T05:48:47Z</time>
      </trkpt>
      <trkpt lat="46.432065" lon="14.257521">
        <ele>1093.01281738281</ele>
        <time>2007-08-25T05:49:03Z</time>
      </trkpt>
      <trkpt lat="46.432065" lon="14.257521">
        <ele>1093.92724609375</ele>
        <time>2007-08-25T05:49:16Z</time>
      </trkpt>
      <trkpt lat="46.432065" lon="14.257521">
        <ele>1096.06079101562</ele>
        <time>2007-08-25T05:49:27Z</time>
      </trkpt>
      <trkpt lat="46.432065" lon="14.257521">
        <ele>1098.80395507812</ele>
        <time>2007-08-25T05:49:41Z</time>
      </trkpt>
      <trkpt lat="46.432065" lon="14.257521">
        <ele>1100.6328125</ele>
        <time>2007-08-25T05:49:56Z</time>
      </trkpt>
      <trkpt lat="46.432065" lon="14.257521">
        <ele>1103.07116699219</ele>
        <time>2007-08-25T05:50:07Z</time>
      </trkpt>
      <trkpt lat="46.431897" lon="14.256145">
        <ele>1106.119140625</ele>
        <time>2007-08-25T05:50:25Z</time>
      </trkpt>
      <trkpt lat="46.431897" lon="14.256145">
        <ele>1108.5576171875</ele>
        <time>2007-08-25T05:50:40Z</time>
      </trkpt>
      <trkpt lat="46.431897" lon="14.256145">
        <ele>1110.08154296875</ele>
        <time>2007-08-25T05:50:51Z</time>
      </trkpt>
      <trkpt lat="46.431897" lon="14.256145">
        <ele>1111.60559082031</ele>
        <time>2007-08-25T05:51:04Z</time>
      </trkpt>
      <trkpt lat="46.431897" lon="14.256145">
        <ele>1114.65356445312</ele>
        <time>2007-08-25T05:51:19Z</time>
      </trkpt>
      <trkpt lat="46.431897" lon="14.256145">
        <ele>1116.78723144531</ele>
        <time>2007-08-25T05:51:33Z</time>
      </trkpt>
      <trkpt lat="46.431897" lon="14.256145">
        <ele>1118.92077636719</ele>
        <time>2007-08-25T05:51:45Z</time>
      </trkpt>
      <trkpt lat="46.431897" lon="14.256145">
        <ele>1121.66394042969</ele>
        <time>2007-08-25T05:51:58Z</time>
      </trkpt>
      <trkpt lat="46.431897" lon="14.256145">
        <ele>1123.79760742187</ele>
        <time>2007-08-25T05:52:12Z</time>
      </trkpt>
      <trkpt lat="46.431634" lon="14.25519">
        <ele>1126.54077148438</ele>
        <time>2007-08-25T05:52:27Z</time>
      </trkpt>
      <trkpt lat="46.431634" lon="14.25519">
        <ele>1126.84558105469</ele>
        <time>2007-08-25T05:52:28Z</time>
      </trkpt>
      <trkpt lat="46.431634" lon="14.25519">
        <ele>1128.36962890625</ele>
        <time>2007-08-25T05:52:36Z</time>
      </trkpt>
      <trkpt lat="46.431634" lon="14.25519">
        <ele>1130.50317382813</ele>
        <time>2007-08-25T05:52:53Z</time>
      </trkpt>
      <trkpt lat="46.431634" lon="14.25519">
        <ele>1132.33203125</ele>
        <time>2007-08-25T05:53:11Z</time>
      </trkpt>
      <trkpt lat="46.431634" lon="14.25519">
        <ele>1133.55114746094</ele>
        <time>2007-08-25T05:53:29Z</time>
      </trkpt>
      <trkpt lat="46.431634" lon="14.25519">
        <ele>1135.38000488281</ele>
        <time>2007-08-25T05:53:43Z</time>
      </trkpt>
      <trkpt lat="46.431785" lon="14.253802">
        <ele>1137.818359375</ele>
        <time>2007-08-25T05:54:00Z</time>
      </trkpt>
      <trkpt lat="46.431785" lon="14.253802">
        <ele>1141.17114257812</ele>
        <time>2007-08-25T05:54:18Z</time>
      </trkpt>
      <trkpt lat="46.431785" lon="14.253802">
        <ele>1144.21923828125</ele>
        <time>2007-08-25T05:54:34Z</time>
      </trkpt>
      <trkpt lat="46.431785" lon="14.253802">
        <ele>1147.57202148437</ele>
        <time>2007-08-25T05:54:51Z</time>
      </trkpt>
      <trkpt lat="46.431785" lon="14.253802">
        <ele>1150.61999511719</ele>
        <time>2007-08-25T05:55:07Z</time>
      </trkpt>
      <trkpt lat="46.431785" lon="14.253802">
        <ele>1153.66796875</ele>
        <time>2007-08-25T05:55:25Z</time>
      </trkpt>
      <trkpt lat="46.431785" lon="14.253802">
        <ele>1157.02075195313</ele>
        <time>2007-08-25T05:55:40Z</time>
      </trkpt>
      <trkpt lat="46.431785" lon="14.253802">
        <ele>1158.54479980469</ele>
        <time>2007-08-25T05:55:54Z</time>
      </trkpt>
      <trkpt lat="46.431785" lon="14.253802">
        <ele>1161.89758300781</ele>
        <time>2007-08-25T05:56:03Z</time>
      </trkpt>
      <trkpt lat="46.431785" lon="14.253802">
        <ele>1164.94555664062</ele>
        <time>2007-08-25T05:56:21Z</time>
      </trkpt>
      <trkpt lat="46.43138" lon="14.252497">
        <ele>1167.99365234375</ele>
        <time>2007-08-25T05:56:32Z</time>
      </trkpt>
      <trkpt lat="46.43138" lon="14.252497">
        <ele>1170.73681640625</ele>
        <time>2007-08-25T05:56:51Z</time>
      </trkpt>
      <trkpt lat="46.43138" lon="14.252497">
        <ele>1174.39440917969</ele>
        <time>2007-08-25T05:57:09Z</time>
      </trkpt>
      <trkpt lat="46.43138" lon="14.252497">
        <ele>1177.4423828125</ele>
        <time>2007-08-25T05:57:26Z</time>
      </trkpt>
      <trkpt lat="46.43138" lon="14.252497">
        <ele>1179.880859375</ele>
        <time>2007-08-25T05:57:44Z</time>
      </trkpt>
      <trkpt lat="46.43138" lon="14.252497">
        <ele>1182.92883300781</ele>
        <time>2007-08-25T05:58:02Z</time>
      </trkpt>
      <trkpt lat="46.43138" lon="14.252497">
        <ele>1186.28161621094</ele>
        <time>2007-08-25T05:58:21Z</time>
      </trkpt>
      <trkpt lat="46.43138" lon="14.252497">
        <ele>1189.02478027344</ele>
        <time>2007-08-25T05:58:35Z</time>
      </trkpt>
      <trkpt lat="46.431008" lon="14.251276">
        <ele>1191.15844726563</ele>
        <time>2007-08-25T05:58:51Z</time>
      </trkpt>
      <trkpt lat="46.431008" lon="14.251276">
        <ele>1192.98718261719</ele>
        <time>2007-08-25T05:58:58Z</time>
      </trkpt>
      <trkpt lat="46.431008" lon="14.251276">
        <ele>1195.42565917969</ele>
        <time>2007-08-25T05:59:13Z</time>
      </trkpt>
      <trkpt lat="46.431008" lon="14.251276">
        <ele>1197.55920410156</ele>
        <time>2007-08-25T05:59:32Z</time>
      </trkpt>
      <trkpt lat="46.431008" lon="14.251276">
        <ele>1200.91198730469</ele>
        <time>2007-08-25T05:59:44Z</time>
      </trkpt>
      <trkpt lat="46.431008" lon="14.251276">
        <ele>1203.9599609375</ele>
        <time>2007-08-25T06:00:02Z</time>
      </trkpt>
      <trkpt lat="46.431008" lon="14.251276">
        <ele>1206.70324707031</ele>
        <time>2007-08-25T06:00:22Z</time>
      </trkpt>
      <trkpt lat="46.430746" lon="14.250033">
        <ele>1208.53198242188</ele>
        <time>2007-08-25T06:00:41Z</time>
      </trkpt>
      <trkpt lat="46.430746" lon="14.250033">
        <ele>1211.884765625</ele>
        <time>2007-08-25T06:00:56Z</time>
      </trkpt>
      <trkpt lat="46.430746" lon="14.250033">
        <ele>1211.27514648437</ele>
        <time>2007-08-25T06:00:59Z</time>
      </trkpt>
      <trkpt lat="46.430746" lon="14.250033">
        <ele>1212.49438476562</ele>
        <time>2007-08-25T06:01:06Z</time>
      </trkpt>
      <trkpt lat="46.430746" lon="14.250033">
        <ele>1215.23754882812</ele>
        <time>2007-08-25T06:01:25Z</time>
      </trkpt>
      <trkpt lat="46.430746" lon="14.250033">
        <ele>1218.89514160156</ele>
        <time>2007-08-25T06:01:41Z</time>
      </trkpt>
      <trkpt lat="46.430746" lon="14.250033">
        <ele>1220.72399902344</ele>
        <time>2007-08-25T06:01:58Z</time>
      </trkpt>
      <trkpt lat="46.430746" lon="14.250033">
        <ele>1224.07678222656</ele>
        <time>2007-08-25T06:02:12Z</time>
      </trkpt>
      <trkpt lat="46.430622" lon="14.248724">
        <ele>1226.51525878906</ele>
        <time>2007-08-25T06:02:30Z</time>
      </trkpt>
      <trkpt lat="46.430622" lon="14.248724">
        <ele>1228.34399414063</ele>
        <time>2007-08-25T06:02:45Z</time>
      </trkpt>
      <trkpt lat="46.430622" lon="14.248724">
        <ele>1230.1728515625</ele>
        <time>2007-08-25T06:02:58Z</time>
      </trkpt>
      <trkpt lat="46.430622" lon="14.248724">
        <ele>1232.916015625</ele>
        <time>2007-08-25T06:03:14Z</time>
      </trkpt>
      <trkpt lat="46.430622" lon="14.248724">
        <ele>1235.35437011719</ele>
        <time>2007-08-25T06:03:28Z</time>
      </trkpt>
      <trkpt lat="46.430622" lon="14.248724">
        <ele>1238.40234375</ele>
        <time>2007-08-25T06:03:38Z</time>
      </trkpt>
      <trkpt lat="46.430622" lon="14.248724">
        <ele>1239.01196289062</ele>
        <time>2007-08-25T06:03:50Z</time>
      </trkpt>
      <trkpt lat="46.430622" lon="14.248724">
        <ele>1241.14562988281</ele>
        <time>2007-08-25T06:04:05Z</time>
      </trkpt>
      <trkpt lat="46.430622" lon="14.248724">
        <ele>1243.583984375</ele>
        <time>2007-08-25T06:04:19Z</time>
      </trkpt>
      <trkpt lat="46.430424" lon="14.24745">
        <ele>1244.80322265625</ele>
        <time>2007-08-25T06:04:26Z</time>
      </trkpt>
      <trkpt lat="46.430383" lon="14.247218">
        <ele>1246.0224609375</ele>
        <time>2007-08-25T06:04:41Z</time>
      </trkpt>
      <trkpt lat="46.430359" lon="14.247076">
        <ele>1249.07043457031</ele>
        <time>2007-08-25T06:04:54Z</time>
      </trkpt>
      <trkpt lat="46.430359" lon="14.247076">
        <ele>1250.28955078125</ele>
        <time>2007-08-25T06:05:10Z</time>
      </trkpt>
      <trkpt lat="46.430359" lon="14.247076">
        <ele>1252.42321777344</ele>
        <time>2007-08-25T06:05:30Z</time>
      </trkpt>
      <trkpt lat="46.430359" lon="14.247076">
        <ele>1255.47119140625</ele>
        <time>2007-08-25T06:05:46Z</time>
      </trkpt>
      <trkpt lat="46.430359" lon="14.247076">
        <ele>1257.90954589844</ele>
        <time>2007-08-25T06:06:05Z</time>
      </trkpt>
      <trkpt lat="46.430167" lon="14.245861">
        <ele>1259.73840332031</ele>
        <time>2007-08-25T06:06:24Z</time>
      </trkpt>
      <trkpt lat="46.430167" lon="14.245861">
        <ele>1261.56726074219</ele>
        <time>2007-08-25T06:06:37Z</time>
      </trkpt>
      <trkpt lat="46.4299278259277" lon="14.2453861236572">
        <ele>1242.36474609375</ele>
        <time>2007-08-25T06:07:00Z</time>
      </trkpt>
      <trkpt lat="46.429985" lon="14.245303">
        <ele>1242.97436523438</ele>
        <time>2007-08-25T06:07:08Z</time>
      </trkpt>
      <trkpt lat="46.42999" lon="14.245263">
        <ele>1245.10803222656</ele>
        <time>2007-08-25T06:07:15Z</time>
      </trkpt>
      <trkpt lat="46.430017" lon="14.245185">
        <ele>1245.71765136719</ele>
        <time>2007-08-25T06:07:22Z</time>
      </trkpt>
      <trkpt lat="46.430035" lon="14.245095">
        <ele>1248.46081542969</ele>
        <time>2007-08-25T06:07:32Z</time>
      </trkpt>
      <trkpt lat="46.430022" lon="14.244978">
        <ele>1250.59436035156</ele>
        <time>2007-08-25T06:07:43Z</time>
      </trkpt>
      <trkpt lat="46.429984" lon="14.244901">
        <ele>1252.11840820312</ele>
        <time>2007-08-25T06:07:54Z</time>
      </trkpt>
      <trkpt lat="46.429988" lon="14.24475">
        <ele>1254.86157226563</ele>
        <time>2007-08-25T06:08:08Z</time>
      </trkpt>
      <trkpt lat="46.429974" lon="14.244653">
        <ele>1256.6904296875</ele>
        <time>2007-08-25T06:08:17Z</time>
      </trkpt>
      <trkpt lat="46.429932" lon="14.244619">
        <ele>1257.30004882812</ele>
        <time>2007-08-25T06:08:20Z</time>
      </trkpt>
      <trkpt lat="46.429915" lon="14.244528">
        <ele>1257.90954589844</ele>
        <time>2007-08-25T06:08:28Z</time>
      </trkpt>
      <trkpt lat="46.429791" lon="14.244329">
        <ele>1258.21435546875</ele>
        <time>2007-08-25T06:08:48Z</time>
      </trkpt>
      <trkpt lat="46.429692" lon="14.244184">
        <ele>1260.34802246094</ele>
        <time>2007-08-25T06:09:02Z</time>
      </trkpt>
      <trkpt lat="46.4296" lon="14.244069">
        <ele>1261.87194824219</ele>
        <time>2007-08-25T06:09:14Z</time>
      </trkpt>
      <trkpt lat="46.429558" lon="14.243991">
        <ele>1262.1767578125</ele>
        <time>2007-08-25T06:09:21Z</time>
      </trkpt>
      <trkpt lat="46.429483" lon="14.243778">
        <ele>1264.00561523438</ele>
        <time>2007-08-25T06:09:37Z</time>
      </trkpt>
      <trkpt lat="46.429391" lon="14.243626">
        <ele>1266.44396972656</ele>
        <time>2007-08-25T06:09:53Z</time>
      </trkpt>
      <trkpt lat="46.429316" lon="14.243531">
        <ele>1268.57763671875</ele>
        <time>2007-08-25T06:10:07Z</time>
      </trkpt>
      <trkpt lat="46.429268" lon="14.243436">
        <ele>1271.93041992187</ele>
        <time>2007-08-25T06:10:20Z</time>
      </trkpt>
      <trkpt lat="46.429177" lon="14.243385">
        <ele>1274.06396484375</ele>
        <time>2007-08-25T06:10:33Z</time>
      </trkpt>
      <trkpt lat="46.429065" lon="14.243307">
        <ele>1277.41674804687</ele>
        <time>2007-08-25T06:10:51Z</time>
      </trkpt>
      <trkpt lat="46.428988" lon="14.243251">
        <ele>1279.55041503906</ele>
        <time>2007-08-25T06:11:04Z</time>
      </trkpt>
      <trkpt lat="46.428946" lon="14.24318">
        <ele>1280.46484375</ele>
        <time>2007-08-25T06:11:14Z</time>
      </trkpt>
      <trkpt lat="46.42882" lon="14.24315">
        <ele>1283.81762695313</ele>
        <time>2007-08-25T06:11:27Z</time>
      </trkpt>
      <trkpt lat="46.428793" lon="14.243126">
        <ele>1285.34155273437</ele>
        <time>2007-08-25T06:11:33Z</time>
      </trkpt>
      <trkpt lat="46.428694" lon="14.243067">
        <ele>1286.25598144531</ele>
        <time>2007-08-25T06:11:45Z</time>
      </trkpt>
      <trkpt lat="46.42864" lon="14.243019">
        <ele>1288.69445800781</ele>
        <time>2007-08-25T06:11:59Z</time>
      </trkpt>
      <trkpt lat="46.428592" lon="14.242977">
        <ele>1291.1328125</ele>
        <time>2007-08-25T06:12:15Z</time>
      </trkpt>
      <trkpt lat="46.42852" lon="14.242925">
        <ele>1294.79040527344</ele>
        <time>2007-08-25T06:12:31Z</time>
      </trkpt>
      <trkpt lat="46.428455" lon="14.24291">
        <ele>1296.314453125</ele>
        <time>2007-08-25T06:12:43Z</time>
      </trkpt>
      <trkpt lat="46.428413" lon="14.242863">
        <ele>1298.44799804688</ele>
        <time>2007-08-25T06:12:56Z</time>
      </trkpt>
      <trkpt lat="46.42842" lon="14.2428">
        <ele>1301.19116210938</ele>
        <time>2007-08-25T06:13:06Z</time>
      </trkpt>
      <trkpt lat="46.428434" lon="14.242709">
        <ele>1303.02001953125</ele>
        <time>2007-08-25T06:13:19Z</time>
      </trkpt>
      <trkpt lat="46.428443" lon="14.242632">
        <ele>1306.67761230469</ele>
        <time>2007-08-25T06:13:32Z</time>
      </trkpt>
      <trkpt lat="46.428457" lon="14.242567">
        <ele>1309.7255859375</ele>
        <time>2007-08-25T06:13:42Z</time>
      </trkpt>
      <trkpt lat="46.428466" lon="14.24246">
        <ele>1310.33520507813</ele>
        <time>2007-08-25T06:13:56Z</time>
      </trkpt>
      <trkpt lat="46.428432" lon="14.242418">
        <ele>1312.77355957031</ele>
        <time>2007-08-25T06:14:19Z</time>
      </trkpt>
      <trkpt lat="46.428367" lon="14.242436">
        <ele>1315.82165527344</ele>
        <time>2007-08-25T06:14:30Z</time>
      </trkpt>
      <trkpt lat="46.428285" lon="14.242426">
        <ele>1318.56481933594</ele>
        <time>2007-08-25T06:14:46Z</time>
      </trkpt>
      <trkpt lat="46.428206" lon="14.242436">
        <ele>1321.00317382813</ele>
        <time>2007-08-25T06:15:01Z</time>
      </trkpt>
      <trkpt lat="46.428184" lon="14.242335">
        <ele>1324.05114746094</ele>
        <time>2007-08-25T06:15:16Z</time>
      </trkpt>
      <trkpt lat="46.428228" lon="14.242208">
        <ele>1326.18481445313</ele>
        <time>2007-08-25T06:15:32Z</time>
      </trkpt>
      <trkpt lat="46.42824" lon="14.242167">
        <ele>1327.09924316406</ele>
        <time>2007-08-25T06:15:39Z</time>
      </trkpt>
      <trkpt lat="46.428266" lon="14.242057">
        <ele>1329.53759765625</ele>
        <time>2007-08-25T06:15:53Z</time>
      </trkpt>
      <trkpt lat="46.428276" lon="14.24201">
        <ele>1332.58557128906</ele>
        <time>2007-08-25T06:16:01Z</time>
      </trkpt>
      <trkpt lat="46.428249" lon="14.241939">
        <ele>1335.02404785156</ele>
        <time>2007-08-25T06:16:24Z</time>
      </trkpt>
      <trkpt lat="46.428159" lon="14.241927">
        <ele>1338.37683105469</ele>
        <time>2007-08-25T06:16:41Z</time>
      </trkpt>
      <trkpt lat="46.428184" lon="14.241832">
        <ele>1340.20556640625</ele>
        <time>2007-08-25T06:16:57Z</time>
      </trkpt>
      <trkpt lat="46.428225" lon="14.241759">
        <ele>1343.86315917969</ele>
        <time>2007-08-25T06:17:08Z</time>
      </trkpt>
      <trkpt lat="46.428272" lon="14.241681">
        <ele>1344.16796875</ele>
        <time>2007-08-25T06:17:19Z</time>
      </trkpt>
      <trkpt lat="46.428317" lon="14.241587">
        <ele>1346.91125488281</ele>
        <time>2007-08-25T06:17:30Z</time>
      </trkpt>
      <trkpt lat="46.428346" lon="14.241489">
        <ele>1349.04479980469</ele>
        <time>2007-08-25T06:17:41Z</time>
      </trkpt>
      <trkpt lat="46.428372" lon="14.241412">
        <ele>1350.56884765625</ele>
        <time>2007-08-25T06:17:53Z</time>
      </trkpt>
      <trkpt lat="46.42841" lon="14.241337">
        <ele>1352.70239257813</ele>
        <time>2007-08-25T06:18:07Z</time>
      </trkpt>
      <trkpt lat="46.428447" lon="14.241192">
        <ele>1355.14074707031</ele>
        <time>2007-08-25T06:18:25Z</time>
      </trkpt>
      <trkpt lat="46.428478" lon="14.241101">
        <ele>1359.10314941406</ele>
        <time>2007-08-25T06:18:35Z</time>
      </trkpt>
      <trkpt lat="46.42848" lon="14.24109">
        <ele>1358.49365234375</ele>
        <time>2007-08-25T06:18:36Z</time>
      </trkpt>
      <trkpt lat="46.428503" lon="14.240972">
        <ele>1360.32238769531</ele>
        <time>2007-08-25T06:18:48Z</time>
      </trkpt>
      <trkpt lat="46.428519" lon="14.240869">
        <ele>1362.4560546875</ele>
        <time>2007-08-25T06:19:02Z</time>
      </trkpt>
      <trkpt lat="46.428465" lon="14.240816">
        <ele>1365.19921875</ele>
        <time>2007-08-25T06:19:17Z</time>
      </trkpt>
      <trkpt lat="46.428408" lon="14.240835">
        <ele>1367.63757324219</ele>
        <time>2007-08-25T06:19:33Z</time>
      </trkpt>
      <trkpt lat="46.428341" lon="14.240805">
        <ele>1371.29516601563</ele>
        <time>2007-08-25T06:19:49Z</time>
      </trkpt>
      <trkpt lat="46.428282" lon="14.240814">
        <ele>1372.51440429688</ele>
        <time>2007-08-25T06:20:03Z</time>
      </trkpt>
      <trkpt lat="46.428227" lon="14.240826">
        <ele>1375.25756835937</ele>
        <time>2007-08-25T06:20:19Z</time>
      </trkpt>
      <trkpt lat="46.428146" lon="14.240825">
        <ele>1377.69604492188</ele>
        <time>2007-08-25T06:20:35Z</time>
      </trkpt>
      <trkpt lat="46.428154" lon="14.240725">
        <ele>1379.82958984375</ele>
        <time>2007-08-25T06:20:47Z</time>
      </trkpt>
      <trkpt lat="46.42817" lon="14.240664">
        <ele>1382.87756347656</ele>
        <time>2007-08-25T06:20:56Z</time>
      </trkpt>
      <trkpt lat="46.428218" lon="14.240522">
        <ele>1384.70642089844</ele>
        <time>2007-08-25T06:21:15Z</time>
      </trkpt>
      <trkpt lat="46.428278" lon="14.240441">
        <ele>1386.23034667969</ele>
        <time>2007-08-25T06:21:28Z</time>
      </trkpt>
      <trkpt lat="46.428235" lon="14.240415">
        <ele>1389.27844238281</ele>
        <time>2007-08-25T06:21:42Z</time>
      </trkpt>
      <trkpt lat="46.428137" lon="14.240427">
        <ele>1391.41198730469</ele>
        <time>2007-08-25T06:22:01Z</time>
      </trkpt>
      <trkpt lat="46.428054" lon="14.24043">
        <ele>1392.32641601562</ele>
        <time>2007-08-25T06:22:15Z</time>
      </trkpt>
      <trkpt lat="46.42799" lon="14.240473">
        <ele>1395.06958007813</ele>
        <time>2007-08-25T06:22:28Z</time>
      </trkpt>
      <trkpt lat="46.427907" lon="14.240492">
        <ele>1395.98400878906</ele>
        <time>2007-08-25T06:22:44Z</time>
      </trkpt>
      <trkpt lat="46.427913" lon="14.240408">
        <ele>1398.42236328125</ele>
        <time>2007-08-25T06:22:57Z</time>
      </trkpt>
      <trkpt lat="46.427961" lon="14.240267">
        <ele>1400.55603027344</ele>
        <time>2007-08-25T06:23:11Z</time>
      </trkpt>
      <trkpt lat="46.428003" lon="14.240093">
        <ele>1402.68957519531</ele>
        <time>2007-08-25T06:23:29Z</time>
      </trkpt>
      <trkpt lat="46.428046" lon="14.239939">
        <ele>1405.73754882812</ele>
        <time>2007-08-25T06:23:46Z</time>
      </trkpt>
      <trkpt lat="46.428091" lon="14.239833">
        <ele>1409.09045410156</ele>
        <time>2007-08-25T06:23:58Z</time>
      </trkpt>
      <trkpt lat="46.428117" lon="14.239792">
        <ele>1409.69995117188</ele>
        <time>2007-08-25T06:24:03Z</time>
      </trkpt>
      <trkpt lat="46.428164" lon="14.23966">
        <ele>1411.22399902344</ele>
        <time>2007-08-25T06:24:22Z</time>
      </trkpt>
      <trkpt lat="46.428081" lon="14.239616">
        <ele>1414.27197265625</ele>
        <time>2007-08-25T06:24:34Z</time>
      </trkpt>
      <trkpt lat="46.42802" lon="14.239546">
        <ele>1417.31994628906</ele>
        <time>2007-08-25T06:24:46Z</time>
      </trkpt>
      <trkpt lat="46.428024" lon="14.239345">
        <ele>1418.84399414063</ele>
        <time>2007-08-25T06:25:04Z</time>
      </trkpt>
      <trkpt lat="46.428102" lon="14.239253">
        <ele>1421.58715820312</ele>
        <time>2007-08-25T06:25:17Z</time>
      </trkpt>
      <trkpt lat="46.428231" lon="14.239199">
        <ele>1424.33044433594</ele>
        <time>2007-08-25T06:25:37Z</time>
      </trkpt>
      <trkpt lat="46.428306" lon="14.239113">
        <ele>1425.24475097656</ele>
        <time>2007-08-25T06:25:50Z</time>
      </trkpt>
      <trkpt lat="46.428336" lon="14.238995">
        <ele>1428.59765625</ele>
        <time>2007-08-25T06:26:02Z</time>
      </trkpt>
      <trkpt lat="46.428356" lon="14.2388">
        <ele>1431.3408203125</ele>
        <time>2007-08-25T06:26:22Z</time>
      </trkpt>
      <trkpt lat="46.428342" lon="14.238608">
        <ele>1433.77917480469</ele>
        <time>2007-08-25T06:26:39Z</time>
      </trkpt>
      <trkpt lat="46.428334" lon="14.238499">
        <ele>1435.91284179687</ele>
        <time>2007-08-25T06:26:48Z</time>
      </trkpt>
      <trkpt lat="46.428321" lon="14.238415">
        <ele>1436.5224609375</ele>
        <time>2007-08-25T06:26:56Z</time>
      </trkpt>
      <trkpt lat="46.428309" lon="14.23827">
        <ele>1439.57043457031</ele>
        <time>2007-08-25T06:27:11Z</time>
      </trkpt>
      <trkpt lat="46.428311" lon="14.23813">
        <ele>1440.78955078125</ele>
        <time>2007-08-25T06:27:22Z</time>
      </trkpt>
      <trkpt lat="46.428321" lon="14.237919">
        <ele>1443.53283691406</ele>
        <time>2007-08-25T06:27:38Z</time>
      </trkpt>
      <trkpt lat="46.428334" lon="14.237836">
        <ele>1445.36157226563</ele>
        <time>2007-08-25T06:27:48Z</time>
      </trkpt>
      <trkpt lat="46.428355" lon="14.237745">
        <ele>1446.58081054688</ele>
        <time>2007-08-25T06:28:00Z</time>
      </trkpt>
      <trkpt lat="46.428391" lon="14.237545">
        <ele>1449.62878417969</ele>
        <time>2007-08-25T06:28:14Z</time>
      </trkpt>
      <trkpt lat="46.428415" lon="14.237386">
        <ele>1450.23840332031</ele>
        <time>2007-08-25T06:28:24Z</time>
      </trkpt>
      <trkpt lat="46.428409" lon="14.23733">
        <ele>1450.23840332031</ele>
        <time>2007-08-25T06:28:28Z</time>
      </trkpt>
      <trkpt lat="46.428398" lon="14.237099">
        <ele>1452.37194824219</ele>
        <time>2007-08-25T06:28:43Z</time>
      </trkpt>
      <trkpt lat="46.428374" lon="14.237046">
        <ele>1455.115234375</ele>
        <time>2007-08-25T06:28:54Z</time>
      </trkpt>
      <trkpt lat="46.428377" lon="14.237005">
        <ele>1456.33435058594</ele>
        <time>2007-08-25T06:28:59Z</time>
      </trkpt>
      <trkpt lat="46.428374" lon="14.236857">
        <ele>1459.68725585938</ele>
        <time>2007-08-25T06:29:14Z</time>
      </trkpt>
      <trkpt lat="46.428337" lon="14.236715">
        <ele>1460.90637207031</ele>
        <time>2007-08-25T06:29:27Z</time>
      </trkpt>
      <trkpt lat="46.428284" lon="14.236529">
        <ele>1462.73522949219</ele>
        <time>2007-08-25T06:29:43Z</time>
      </trkpt>
      <trkpt lat="46.428239" lon="14.236373">
        <ele>1466.08801269531</ele>
        <time>2007-08-25T06:29:55Z</time>
      </trkpt>
      <trkpt lat="46.428236" lon="14.236229">
        <ele>1468.22155761719</ele>
        <time>2007-08-25T06:30:10Z</time>
      </trkpt>
      <trkpt lat="46.428253" lon="14.236088">
        <ele>1470.05041503906</ele>
        <time>2007-08-25T06:30:24Z</time>
      </trkpt>
      <trkpt lat="46.428266" lon="14.235993">
        <ele>1473.09838867188</ele>
        <time>2007-08-25T06:30:35Z</time>
      </trkpt>
      <trkpt lat="46.428276" lon="14.235844">
        <ele>1475.53674316406</ele>
        <time>2007-08-25T06:30:50Z</time>
      </trkpt>
      <trkpt lat="46.428263" lon="14.235723">
        <ele>1478.58483886719</ele>
        <time>2007-08-25T06:31:04Z</time>
      </trkpt>
      <trkpt lat="46.428285" lon="14.235633">
        <ele>1480.71838378906</ele>
        <time>2007-08-25T06:31:18Z</time>
      </trkpt>
      <trkpt lat="46.428255" lon="14.235494">
        <ele>1482.24243164062</ele>
        <time>2007-08-25T06:31:38Z</time>
      </trkpt>
      <trkpt lat="46.428269" lon="14.235456">
        <ele>1484.98559570312</ele>
        <time>2007-08-25T06:31:48Z</time>
      </trkpt>
      <trkpt lat="46.428269" lon="14.235354">
        <ele>1488.33837890625</ele>
        <time>2007-08-25T06:32:05Z</time>
      </trkpt>
      <trkpt lat="46.428277" lon="14.235271">
        <ele>1490.47204589844</ele>
        <time>2007-08-25T06:32:20Z</time>
      </trkpt>
      <trkpt lat="46.428295" lon="14.2352">
        <ele>1491.99597167969</ele>
        <time>2007-08-25T06:32:35Z</time>
      </trkpt>
      <trkpt lat="46.428319" lon="14.235096">
        <ele>1495.34875488281</ele>
        <time>2007-08-25T06:32:53Z</time>
      </trkpt>
      <trkpt lat="46.428329" lon="14.234958">
        <ele>1497.78723144531</ele>
        <time>2007-08-25T06:33:10Z</time>
      </trkpt>
      <trkpt lat="46.428327" lon="14.234909">
        <ele>1498.39685058594</ele>
        <time>2007-08-25T06:33:15Z</time>
      </trkpt>
      <trkpt lat="46.428312" lon="14.234768">
        <ele>1499.61596679687</ele>
        <time>2007-08-25T06:33:26Z</time>
      </trkpt>
      <trkpt lat="46.42832" lon="14.234716">
        <ele>1502.05444335938</ele>
        <time>2007-08-25T06:33:36Z</time>
      </trkpt>
      <trkpt lat="46.428344" lon="14.234679">
        <ele>1505.71203613281</ele>
        <time>2007-08-25T06:33:49Z</time>
      </trkpt>
      <trkpt lat="46.428364" lon="14.234634">
        <ele>1508.45520019531</ele>
        <time>2007-08-25T06:34:06Z</time>
      </trkpt>
      <trkpt lat="46.428374" lon="14.234552">
        <ele>1511.19836425781</ele>
        <time>2007-08-25T06:34:19Z</time>
      </trkpt>
      <trkpt lat="46.428368" lon="14.234476">
        <ele>1514.24645996094</ele>
        <time>2007-08-25T06:34:32Z</time>
      </trkpt>
      <trkpt lat="46.428425" lon="14.234364">
        <ele>1516.98962402344</ele>
        <time>2007-08-25T06:34:53Z</time>
      </trkpt>
      <trkpt lat="46.428474" lon="14.234256">
        <ele>1519.73278808594</ele>
        <time>2007-08-25T06:35:07Z</time>
      </trkpt>
      <trkpt lat="46.428493" lon="14.234132">
        <ele>1520.64721679688</ele>
        <time>2007-08-25T06:35:18Z</time>
      </trkpt>
      <trkpt lat="46.428563" lon="14.233961">
        <ele>1521.56164550781</ele>
        <time>2007-08-25T06:35:34Z</time>
      </trkpt>
      <trkpt lat="46.428606" lon="14.233859">
        <ele>1522.78076171875</ele>
        <time>2007-08-25T06:35:45Z</time>
      </trkpt>
      <trkpt lat="46.428624" lon="14.233826">
        <ele>1522.47595214844</ele>
        <time>2007-08-25T06:35:57Z</time>
      </trkpt>
      <trkpt lat="46.428611" lon="14.233826">
        <ele>1524</ele>
        <time>2007-08-25T06:37:14Z</time>
      </trkpt>
      <trkpt lat="46.428627" lon="14.23373">
        <ele>1524.91442871094</ele>
        <time>2007-08-25T06:37:23Z</time>
      </trkpt>
      <trkpt lat="46.428657" lon="14.233679">
        <ele>1524.91442871094</ele>
        <time>2007-08-25T06:37:28Z</time>
      </trkpt>
      <trkpt lat="46.428731" lon="14.233589">
        <ele>1523.39038085937</ele>
        <time>2007-08-25T06:37:40Z</time>
      </trkpt>
      <trkpt lat="46.428737" lon="14.233584">
        <ele>1522.78076171875</ele>
        <time>2007-08-25T06:37:41Z</time>
      </trkpt>
      <trkpt lat="46.428758" lon="14.233562">
        <ele>1522.47595214844</ele>
        <time>2007-08-25T06:37:44Z</time>
      </trkpt>
      <trkpt lat="46.428819" lon="14.233543">
        <ele>1522.47595214844</ele>
        <time>2007-08-25T06:37:52Z</time>
      </trkpt>
      <trkpt lat="46.428887" lon="14.233623">
        <ele>1522.78076171875</ele>
        <time>2007-08-25T06:38:02Z</time>
      </trkpt>
      <trkpt lat="46.4289131164551" lon="14.2336683273315">
        <ele>1523.08557128906</ele>
        <time>2007-08-25T06:38:16Z</time>
      </trkpt>
      <trkpt lat="46.428928" lon="14.233673">
        <ele>1521.56164550781</ele>
        <time>2007-08-25T06:38:52Z</time>
      </trkpt>
      <trkpt lat="46.428872" lon="14.233769">
        <ele>1537.1064453125</ele>
        <time>2007-08-25T06:50:20Z</time>
      </trkpt>
      <trkpt lat="46.428891" lon="14.233761">
        <ele>1537.41125488281</ele>
        <time>2007-08-25T06:50:42Z</time>
      </trkpt>
      <trkpt lat="46.429018" lon="14.233756">
        <ele>1538.63037109375</ele>
        <time>2007-08-25T06:59:16Z</time>
      </trkpt>
      <trkpt lat="46.429024" lon="14.233762">
        <ele>1538.63037109375</ele>
        <time>2007-08-25T06:59:17Z</time>
      </trkpt>
      <trkpt lat="46.429074" lon="14.233785">
        <ele>1538.93518066406</ele>
        <time>2007-08-25T06:59:21Z</time>
      </trkpt>
      <trkpt lat="46.429099" lon="14.233778">
        <ele>1538.32556152344</ele>
        <time>2007-08-25T06:59:25Z</time>
      </trkpt>
      <trkpt lat="46.429141" lon="14.233672">
        <ele>1539.23999023438</ele>
        <time>2007-08-25T06:59:29Z</time>
      </trkpt>
      <trkpt lat="46.429175" lon="14.233469">
        <ele>1539.54479980469</ele>
        <time>2007-08-25T06:59:42Z</time>
      </trkpt>
      <trkpt lat="46.429234" lon="14.233333">
        <ele>1541.67834472656</ele>
        <time>2007-08-25T06:59:53Z</time>
      </trkpt>
      <trkpt lat="46.429288" lon="14.233252">
        <ele>1542.89758300781</ele>
        <time>2007-08-25T07:00:04Z</time>
      </trkpt>
      <trkpt lat="46.429446" lon="14.233051">
        <ele>1545.03125</ele>
        <time>2007-08-25T07:00:19Z</time>
      </trkpt>
      <trkpt lat="46.429522" lon="14.232939">
        <ele>1547.46960449219</ele>
        <time>2007-08-25T07:00:32Z</time>
      </trkpt>
      <trkpt lat="46.429591" lon="14.232876">
        <ele>1550.517578125</ele>
        <time>2007-08-25T07:00:44Z</time>
      </trkpt>
      <trkpt lat="46.42966" lon="14.232823">
        <ele>1552.9560546875</ele>
        <time>2007-08-25T07:00:56Z</time>
      </trkpt>
      <trkpt lat="46.429691" lon="14.232771">
        <ele>1556.00402832031</ele>
        <time>2007-08-25T07:01:13Z</time>
      </trkpt>
      <trkpt lat="46.429787" lon="14.232747">
        <ele>1557.52795410156</ele>
        <time>2007-08-25T07:01:23Z</time>
      </trkpt>
      <trkpt lat="46.429909" lon="14.232774">
        <ele>1559.66162109375</ele>
        <time>2007-08-25T07:01:37Z</time>
      </trkpt>
      <trkpt lat="46.43003" lon="14.232806">
        <ele>1562.09997558594</ele>
        <time>2007-08-25T07:01:53Z</time>
      </trkpt>
      <trkpt lat="46.430093" lon="14.232715">
        <ele>1563.92883300781</ele>
        <time>2007-08-25T07:02:08Z</time>
      </trkpt>
      <trkpt lat="46.43018" lon="14.232657">
        <ele>1564.23364257812</ele>
        <time>2007-08-25T07:02:17Z</time>
      </trkpt>
      <trkpt lat="46.430205" lon="14.232648">
        <ele>1564.23364257812</ele>
        <time>2007-08-25T07:02:19Z</time>
      </trkpt>
      <trkpt lat="46.43029" lon="14.232613">
        <ele>1565.45275878906</ele>
        <time>2007-08-25T07:02:30Z</time>
      </trkpt>
      <trkpt lat="46.430329" lon="14.232513">
        <ele>1566.3671875</ele>
        <time>2007-08-25T07:02:39Z</time>
      </trkpt>
      <trkpt lat="46.430377" lon="14.232476">
        <ele>1569.1103515625</ele>
        <time>2007-08-25T07:02:49Z</time>
      </trkpt>
      <trkpt lat="46.430406" lon="14.232436">
        <ele>1569.41516113281</ele>
        <time>2007-08-25T07:02:54Z</time>
      </trkpt>
      <trkpt lat="46.43055" lon="14.232133">
        <ele>1570.32958984375</ele>
        <time>2007-08-25T07:03:14Z</time>
      </trkpt>
      <trkpt lat="46.430671" lon="14.232015">
        <ele>1570.32958984375</ele>
        <time>2007-08-25T07:03:26Z</time>
      </trkpt>
      <trkpt lat="46.430805" lon="14.231785">
        <ele>1570.93920898438</ele>
        <time>2007-08-25T07:03:42Z</time>
      </trkpt>
      <trkpt lat="46.430982" lon="14.231468">
        <ele>1569.71997070312</ele>
        <time>2007-08-25T07:04:04Z</time>
      </trkpt>
      <trkpt lat="46.431133" lon="14.231229">
        <ele>1569.71997070312</ele>
        <time>2007-08-25T07:04:22Z</time>
      </trkpt>
      <trkpt lat="46.431269" lon="14.230993">
        <ele>1569.41516113281</ele>
        <time>2007-08-25T07:04:39Z</time>
      </trkpt>
      <trkpt lat="46.43135" lon="14.230789">
        <ele>1569.1103515625</ele>
        <time>2007-08-25T07:04:54Z</time>
      </trkpt>
      <trkpt lat="46.431384" lon="14.230679">
        <ele>1567.28161621094</ele>
        <time>2007-08-25T07:05:03Z</time>
      </trkpt>
      <trkpt lat="46.431495" lon="14.23038">
        <ele>1565.45275878906</ele>
        <time>2007-08-25T07:05:19Z</time>
      </trkpt>
      <trkpt lat="46.431522" lon="14.230286">
        <ele>1565.14794921875</ele>
        <time>2007-08-25T07:05:29Z</time>
      </trkpt>
      <trkpt lat="46.431545" lon="14.230018">
        <ele>1563.6240234375</ele>
        <time>2007-08-25T07:05:41Z</time>
      </trkpt>
      <trkpt lat="46.431664" lon="14.229913">
        <ele>1562.70959472656</ele>
        <time>2007-08-25T07:05:53Z</time>
      </trkpt>
      <trkpt lat="46.431746" lon="14.229835">
        <ele>1563.6240234375</ele>
        <time>2007-08-25T07:06:02Z</time>
      </trkpt>
      <trkpt lat="46.431868" lon="14.229779">
        <ele>1565.45275878906</ele>
        <time>2007-08-25T07:06:12Z</time>
      </trkpt>
      <trkpt lat="46.431994" lon="14.229716">
        <ele>1566.3671875</ele>
        <time>2007-08-25T07:06:24Z</time>
      </trkpt>
      <trkpt lat="46.432054" lon="14.229647">
        <ele>1568.80554199219</ele>
        <time>2007-08-25T07:06:35Z</time>
      </trkpt>
      <trkpt lat="46.432075" lon="14.229558">
        <ele>1570.02478027344</ele>
        <time>2007-08-25T07:06:44Z</time>
      </trkpt>
      <trkpt lat="46.43213" lon="14.229482">
        <ele>1573.07275390625</ele>
        <time>2007-08-25T07:06:57Z</time>
      </trkpt>
      <trkpt lat="46.432203" lon="14.229357">
        <ele>1576.42565917969</ele>
        <time>2007-08-25T07:07:16Z</time>
      </trkpt>
      <trkpt lat="46.432282" lon="14.229255">
        <ele>1578.25439453125</ele>
        <time>2007-08-25T07:07:28Z</time>
      </trkpt>
      <trkpt lat="46.432377" lon="14.229003">
        <ele>1579.4736328125</ele>
        <time>2007-08-25T07:07:45Z</time>
      </trkpt>
      <trkpt lat="46.432458" lon="14.228791">
        <ele>1580.69274902344</ele>
        <time>2007-08-25T07:08:01Z</time>
      </trkpt>
      <trkpt lat="46.432518" lon="14.228736">
        <ele>1583.43603515625</ele>
        <time>2007-08-25T07:08:10Z</time>
      </trkpt>
      <trkpt lat="46.432543" lon="14.228719">
        <ele>1585.26477050781</ele>
        <time>2007-08-25T07:08:15Z</time>
      </trkpt>
      <trkpt lat="46.432597" lon="14.228656">
        <ele>1587.09362792969</ele>
        <time>2007-08-25T07:08:24Z</time>
      </trkpt>
      <trkpt lat="46.432694" lon="14.228502">
        <ele>1587.3984375</ele>
        <time>2007-08-25T07:08:40Z</time>
      </trkpt>
      <trkpt lat="46.432757" lon="14.228304">
        <ele>1586.48400878906</ele>
        <time>2007-08-25T07:08:54Z</time>
      </trkpt>
      <trkpt lat="46.432839" lon="14.228136">
        <ele>1585.87438964844</ele>
        <time>2007-08-25T07:09:10Z</time>
      </trkpt>
      <trkpt lat="46.432875" lon="14.227974">
        <ele>1585.56958007813</ele>
        <time>2007-08-25T07:09:21Z</time>
      </trkpt>
      <trkpt lat="46.432923" lon="14.227779">
        <ele>1586.48400878906</ele>
        <time>2007-08-25T07:09:33Z</time>
      </trkpt>
      <trkpt lat="46.432923" lon="14.227734">
        <ele>1586.48400878906</ele>
        <time>2007-08-25T07:09:36Z</time>
      </trkpt>
      <trkpt lat="46.432909" lon="14.227588">
        <ele>1587.70324707031</ele>
        <time>2007-08-25T07:09:48Z</time>
      </trkpt>
      <trkpt lat="46.432924" lon="14.227436">
        <ele>1590.1416015625</ele>
        <time>2007-08-25T07:10:03Z</time>
      </trkpt>
      <trkpt lat="46.432989" lon="14.227349">
        <ele>1593.49438476562</ele>
        <time>2007-08-25T07:10:16Z</time>
      </trkpt>
      <trkpt lat="46.433008" lon="14.227306">
        <ele>1595.3232421875</ele>
        <time>2007-08-25T07:10:22Z</time>
      </trkpt>
      <trkpt lat="46.433047" lon="14.227221">
        <ele>1595.3232421875</ele>
        <time>2007-08-25T07:10:29Z</time>
      </trkpt>
      <trkpt lat="46.433073" lon="14.227202">
        <ele>1593.49438476562</ele>
        <time>2007-08-25T07:10:32Z</time>
      </trkpt>
      <trkpt lat="46.433182" lon="14.22704">
        <ele>1593.49438476562</ele>
        <time>2007-08-25T07:10:44Z</time>
      </trkpt>
      <trkpt lat="46.433292" lon="14.226892">
        <ele>1594.40881347656</ele>
        <time>2007-08-25T07:10:57Z</time>
      </trkpt>
      <trkpt lat="46.433487" lon="14.226694">
        <ele>1593.49438476562</ele>
        <time>2007-08-25T07:11:23Z</time>
      </trkpt>
      <trkpt lat="46.433555" lon="14.226589">
        <ele>1595.93273925781</ele>
        <time>2007-08-25T07:11:36Z</time>
      </trkpt>
      <trkpt lat="46.433592" lon="14.226445">
        <ele>1599.28564453125</ele>
        <time>2007-08-25T07:11:54Z</time>
      </trkpt>
      <trkpt lat="46.43361" lon="14.226274">
        <ele>1601.41918945312</ele>
        <time>2007-08-25T07:12:06Z</time>
      </trkpt>
      <trkpt lat="46.433713" lon="14.226166">
        <ele>1604.46716308594</ele>
        <time>2007-08-25T07:12:18Z</time>
      </trkpt>
      <trkpt lat="46.433757" lon="14.226087">
        <ele>1606.29602050781</ele>
        <time>2007-08-25T07:12:30Z</time>
      </trkpt>
      <trkpt lat="46.433828" lon="14.226037">
        <ele>1607.81994628906</ele>
        <time>2007-08-25T07:12:42Z</time>
      </trkpt>
      <trkpt lat="46.433881" lon="14.225993">
        <ele>1609.64880371094</ele>
        <time>2007-08-25T07:12:51Z</time>
      </trkpt>
      <trkpt lat="46.433937" lon="14.225921">
        <ele>1613.30639648438</ele>
        <time>2007-08-25T07:13:05Z</time>
      </trkpt>
      <trkpt lat="46.434024" lon="14.225746">
        <ele>1613.916015625</ele>
        <time>2007-08-25T07:13:22Z</time>
      </trkpt>
      <trkpt lat="46.434052" lon="14.225673">
        <ele>1615.13525390625</ele>
        <time>2007-08-25T07:13:29Z</time>
      </trkpt>
      <trkpt lat="46.434066" lon="14.225638">
        <ele>1615.13525390625</ele>
        <time>2007-08-25T07:13:32Z</time>
      </trkpt>
      <trkpt lat="46.434137" lon="14.225524">
        <ele>1616.6591796875</ele>
        <time>2007-08-25T07:13:44Z</time>
      </trkpt>
      <trkpt lat="46.434152" lon="14.22544">
        <ele>1616.96398925781</ele>
        <time>2007-08-25T07:13:53Z</time>
      </trkpt>
      <trkpt lat="46.434159" lon="14.225211">
        <ele>1620.01196289062</ele>
        <time>2007-08-25T07:14:14Z</time>
      </trkpt>
      <trkpt lat="46.434152" lon="14.225101">
        <ele>1622.14562988281</ele>
        <time>2007-08-25T07:14:27Z</time>
      </trkpt>
      <trkpt lat="46.434209" lon="14.224856">
        <ele>1621.8408203125</ele>
        <time>2007-08-25T07:14:42Z</time>
      </trkpt>
      <trkpt lat="46.434222" lon="14.224691">
        <ele>1620.01196289062</ele>
        <time>2007-08-25T07:14:53Z</time>
      </trkpt>
      <trkpt lat="46.434289" lon="14.224593">
        <ele>1620.92639160156</ele>
        <time>2007-08-25T07:15:03Z</time>
      </trkpt>
      <trkpt lat="46.434345" lon="14.224486">
        <ele>1621.8408203125</ele>
        <time>2007-08-25T07:15:12Z</time>
      </trkpt>
      <trkpt lat="46.434412" lon="14.224363">
        <ele>1624.27917480469</ele>
        <time>2007-08-25T07:15:25Z</time>
      </trkpt>
      <trkpt lat="46.434442" lon="14.224209">
        <ele>1627.0224609375</ele>
        <time>2007-08-25T07:15:38Z</time>
      </trkpt>
      <trkpt lat="46.4345" lon="14.224047">
        <ele>1630.07043457031</ele>
        <time>2007-08-25T07:15:49Z</time>
      </trkpt>
      <trkpt lat="46.434607" lon="14.223952">
        <ele>1630.68005371094</ele>
        <time>2007-08-25T07:16:03Z</time>
      </trkpt>
      <trkpt lat="46.434648" lon="14.223811">
        <ele>1631.59436035156</ele>
        <time>2007-08-25T07:16:15Z</time>
      </trkpt>
      <trkpt lat="46.434688" lon="14.223637">
        <ele>1631.59436035156</ele>
        <time>2007-08-25T07:16:27Z</time>
      </trkpt>
      <trkpt lat="46.434699" lon="14.223505">
        <ele>1632.20397949219</ele>
        <time>2007-08-25T07:16:38Z</time>
      </trkpt>
      <trkpt lat="46.43474" lon="14.223266">
        <ele>1633.11840820312</ele>
        <time>2007-08-25T07:16:55Z</time>
      </trkpt>
      <trkpt lat="46.434802" lon="14.223065">
        <ele>1635.251953125</ele>
        <time>2007-08-25T07:17:12Z</time>
      </trkpt>
      <trkpt lat="46.43485" lon="14.222855">
        <ele>1633.72802734375</ele>
        <time>2007-08-25T07:17:27Z</time>
      </trkpt>
      <trkpt lat="46.434815" lon="14.222711">
        <ele>1636.77600097656</ele>
        <time>2007-08-25T07:18:07Z</time>
      </trkpt>
      <trkpt lat="46.434812" lon="14.22259">
        <ele>1638.60485839844</ele>
        <time>2007-08-25T07:18:17Z</time>
      </trkpt>
      <trkpt lat="46.434838" lon="14.222322">
        <ele>1638.90954589844</ele>
        <time>2007-08-25T07:18:35Z</time>
      </trkpt>
      <trkpt lat="46.434804" lon="14.222034">
        <ele>1638.90954589844</ele>
        <time>2007-08-25T07:18:52Z</time>
      </trkpt>
      <trkpt lat="46.434782" lon="14.221832">
        <ele>1639.21435546875</ele>
        <time>2007-08-25T07:19:05Z</time>
      </trkpt>
      <trkpt lat="46.434788" lon="14.221643">
        <ele>1639.51916503906</ele>
        <time>2007-08-25T07:19:17Z</time>
      </trkpt>
      <trkpt lat="46.434788" lon="14.221441">
        <ele>1640.12878417969</ele>
        <time>2007-08-25T07:19:30Z</time>
      </trkpt>
      <trkpt lat="46.434787" lon="14.221263">
        <ele>1643.1767578125</ele>
        <time>2007-08-25T07:19:44Z</time>
      </trkpt>
      <trkpt lat="46.434793" lon="14.221153">
        <ele>1645.00561523438</ele>
        <time>2007-08-25T07:19:54Z</time>
      </trkpt>
      <trkpt lat="46.43482" lon="14.221067">
        <ele>1648.05358886719</ele>
        <time>2007-08-25T07:20:04Z</time>
      </trkpt>
      <trkpt lat="46.434842" lon="14.22103">
        <ele>1648.66320800781</ele>
        <time>2007-08-25T07:20:09Z</time>
      </trkpt>
      <trkpt lat="46.434834" lon="14.220907">
        <ele>1650.18725585938</ele>
        <time>2007-08-25T07:20:22Z</time>
      </trkpt>
      <trkpt lat="46.434808" lon="14.220752">
        <ele>1652.62561035156</ele>
        <time>2007-08-25T07:20:35Z</time>
      </trkpt>
      <trkpt lat="46.434779" lon="14.22069">
        <ele>1655.06396484375</ele>
        <time>2007-08-25T07:20:44Z</time>
      </trkpt>
      <trkpt lat="46.434773" lon="14.220685">
        <ele>1655.36877441406</ele>
        <time>2007-08-25T07:20:45Z</time>
      </trkpt>
      <trkpt lat="46.434777" lon="14.22061">
        <ele>1655.97839355469</ele>
        <time>2007-08-25T07:20:51Z</time>
      </trkpt>
      <trkpt lat="46.434817" lon="14.220389">
        <ele>1657.19763183594</ele>
        <time>2007-08-25T07:21:11Z</time>
      </trkpt>
      <trkpt lat="46.434823" lon="14.220178">
        <ele>1658.41674804687</ele>
        <time>2007-08-25T07:21:29Z</time>
      </trkpt>
      <trkpt lat="46.434806" lon="14.220134">
        <ele>1658.72155761719</ele>
        <time>2007-08-25T07:21:35Z</time>
      </trkpt>
      <trkpt lat="46.434849" lon="14.219975">
        <ele>1662.37915039062</ele>
        <time>2007-08-25T07:21:54Z</time>
      </trkpt>
      <trkpt lat="46.434901" lon="14.219842">
        <ele>1664.81762695313</ele>
        <time>2007-08-25T07:22:12Z</time>
      </trkpt>
      <trkpt lat="46.434913" lon="14.219649">
        <ele>1666.34155273437</ele>
        <time>2007-08-25T07:22:30Z</time>
      </trkpt>
      <trkpt lat="46.434892" lon="14.219487">
        <ele>1666.34155273437</ele>
        <time>2007-08-25T07:22:40Z</time>
      </trkpt>
      <trkpt lat="46.43485" lon="14.219406">
        <ele>1666.64636230469</ele>
        <time>2007-08-25T07:22:48Z</time>
      </trkpt>
      <trkpt lat="46.434824" lon="14.219286">
        <ele>1666.951171875</ele>
        <time>2007-08-25T07:22:57Z</time>
      </trkpt>
      <trkpt lat="46.434821" lon="14.219271">
        <ele>1666.951171875</ele>
        <time>2007-08-25T07:22:58Z</time>
      </trkpt>
      <trkpt lat="46.434822" lon="14.2191">
        <ele>1669.69445800781</ele>
        <time>2007-08-25T07:23:10Z</time>
      </trkpt>
      <trkpt lat="46.434817" lon="14.218876">
        <ele>1672.74243164062</ele>
        <time>2007-08-25T07:23:26Z</time>
      </trkpt>
      <trkpt lat="46.434826" lon="14.218724">
        <ele>1673.65686035156</ele>
        <time>2007-08-25T07:23:38Z</time>
      </trkpt>
      <trkpt lat="46.434858" lon="14.21863">
        <ele>1674.8759765625</ele>
        <time>2007-08-25T07:23:49Z</time>
      </trkpt>
      <trkpt lat="46.4348" lon="14.218503">
        <ele>1674.57116699219</ele>
        <time>2007-08-25T07:23:59Z</time>
      </trkpt>
      <trkpt lat="46.434773" lon="14.218373">
        <ele>1676.40002441406</ele>
        <time>2007-08-25T07:24:09Z</time>
      </trkpt>
      <trkpt lat="46.434733" lon="14.218232">
        <ele>1677.619140625</ele>
        <time>2007-08-25T07:24:20Z</time>
      </trkpt>
      <trkpt lat="46.434674" lon="14.218071">
        <ele>1678.53356933594</ele>
        <time>2007-08-25T07:24:33Z</time>
      </trkpt>
      <trkpt lat="46.434665" lon="14.218044">
        <ele>1678.53356933594</ele>
        <time>2007-08-25T07:24:35Z</time>
      </trkpt>
      <trkpt lat="46.434588" lon="14.217793">
        <ele>1680.0576171875</ele>
        <time>2007-08-25T07:24:57Z</time>
      </trkpt>
      <trkpt lat="46.434586" lon="14.217596">
        <ele>1682.19116210938</ele>
        <time>2007-08-25T07:25:11Z</time>
      </trkpt>
      <trkpt lat="46.43461" lon="14.217495">
        <ele>1682.49597167969</ele>
        <time>2007-08-25T07:25:16Z</time>
      </trkpt>
      <trkpt lat="46.434638" lon="14.217303">
        <ele>1684.32482910156</ele>
        <time>2007-08-25T07:25:32Z</time>
      </trkpt>
      <trkpt lat="46.434689" lon="14.217188">
        <ele>1686.45837402344</ele>
        <time>2007-08-25T07:25:40Z</time>
      </trkpt>
      <trkpt lat="46.434738" lon="14.217057">
        <ele>1689.20166015625</ele>
        <time>2007-08-25T07:25:57Z</time>
      </trkpt>
      <trkpt lat="46.434733" lon="14.216966">
        <ele>1689.20166015625</ele>
        <time>2007-08-25T07:26:06Z</time>
      </trkpt>
      <trkpt lat="46.434695" lon="14.216795">
        <ele>1690.42077636719</ele>
        <time>2007-08-25T07:26:21Z</time>
      </trkpt>
      <trkpt lat="46.434675" lon="14.216688">
        <ele>1693.46875</ele>
        <time>2007-08-25T07:26:31Z</time>
      </trkpt>
      <trkpt lat="46.434651" lon="14.216526">
        <ele>1694.99279785156</ele>
        <time>2007-08-25T07:26:47Z</time>
      </trkpt>
      <trkpt lat="46.434641" lon="14.21626">
        <ele>1698.04077148438</ele>
        <time>2007-08-25T07:27:06Z</time>
      </trkpt>
      <trkpt lat="46.434713" lon="14.216073">
        <ele>1699.86962890625</ele>
        <time>2007-08-25T07:27:21Z</time>
      </trkpt>
      <trkpt lat="46.434735" lon="14.215984">
        <ele>1702.30798339844</ele>
        <time>2007-08-25T07:27:35Z</time>
      </trkpt>
      <trkpt lat="46.434746" lon="14.215961">
        <ele>1702.91760253906</ele>
        <time>2007-08-25T07:27:37Z</time>
      </trkpt>
      <trkpt lat="46.434788" lon="14.215842">
        <ele>1703.22241210937</ele>
        <time>2007-08-25T07:27:47Z</time>
      </trkpt>
      <trkpt lat="46.434843" lon="14.215628">
        <ele>1706.5751953125</ele>
        <time>2007-08-25T07:28:04Z</time>
      </trkpt>
      <trkpt lat="46.434851" lon="14.215604">
        <ele>1706.5751953125</ele>
        <time>2007-08-25T07:28:06Z</time>
      </trkpt>
      <trkpt lat="46.4349" lon="14.215321">
        <ele>1708.40405273437</ele>
        <time>2007-08-25T07:28:27Z</time>
      </trkpt>
      <trkpt lat="46.434942" lon="14.21509">
        <ele>1707.79443359375</ele>
        <time>2007-08-25T07:28:42Z</time>
      </trkpt>
      <trkpt lat="46.434979" lon="14.214991">
        <ele>1707.48962402344</ele>
        <time>2007-08-25T07:28:49Z</time>
      </trkpt>
      <trkpt lat="46.434985" lon="14.214942">
        <ele>1706.88000488281</ele>
        <time>2007-08-25T07:28:52Z</time>
      </trkpt>
      <trkpt lat="46.435026" lon="14.214888">
        <ele>1706.27038574219</ele>
        <time>2007-08-25T07:28:57Z</time>
      </trkpt>
      <trkpt lat="46.435033" lon="14.214817">
        <ele>1706.5751953125</ele>
        <time>2007-08-25T07:29:01Z</time>
      </trkpt>
      <trkpt lat="46.435122" lon="14.214596">
        <ele>1706.27038574219</ele>
        <time>2007-08-25T07:29:16Z</time>
      </trkpt>
      <trkpt lat="46.435131" lon="14.214544">
        <ele>1706.27038574219</ele>
        <time>2007-08-25T07:29:19Z</time>
      </trkpt>
      <trkpt lat="46.435138" lon="14.21425">
        <ele>1707.48962402344</ele>
        <time>2007-08-25T07:29:37Z</time>
      </trkpt>
      <trkpt lat="46.435164" lon="14.214153">
        <ele>1709.01354980469</ele>
        <time>2007-08-25T07:29:48Z</time>
      </trkpt>
      <trkpt lat="46.435173" lon="14.214065">
        <ele>1711.7568359375</ele>
        <time>2007-08-25T07:30:02Z</time>
      </trkpt>
      <trkpt lat="46.435172" lon="14.213948">
        <ele>1714.5</ele>
        <time>2007-08-25T07:30:16Z</time>
      </trkpt>
      <trkpt lat="46.435183" lon="14.213861">
        <ele>1716.32885742188</ele>
        <time>2007-08-25T07:30:26Z</time>
      </trkpt>
      <trkpt lat="46.43518" lon="14.213693">
        <ele>1718.46240234375</ele>
        <time>2007-08-25T07:30:42Z</time>
      </trkpt>
      <trkpt lat="46.435197" lon="14.213504">
        <ele>1720.29125976563</ele>
        <time>2007-08-25T07:30:58Z</time>
      </trkpt>
      <trkpt lat="46.435219" lon="14.21329">
        <ele>1721.51037597656</ele>
        <time>2007-08-25T07:31:17Z</time>
      </trkpt>
      <trkpt lat="46.435238" lon="14.21323">
        <ele>1722.11999511719</ele>
        <time>2007-08-25T07:31:23Z</time>
      </trkpt>
      <trkpt lat="46.435264" lon="14.213042">
        <ele>1724.25354003906</ele>
        <time>2007-08-25T07:31:40Z</time>
      </trkpt>
      <trkpt lat="46.43526" lon="14.212923">
        <ele>1724.55834960938</ele>
        <time>2007-08-25T07:31:50Z</time>
      </trkpt>
      <trkpt lat="46.435271" lon="14.212751">
        <ele>1727.91125488281</ele>
        <time>2007-08-25T07:32:08Z</time>
      </trkpt>
      <trkpt lat="46.435268" lon="14.212618">
        <ele>1730.04479980469</ele>
        <time>2007-08-25T07:32:22Z</time>
      </trkpt>
      <trkpt lat="46.435217" lon="14.212424">
        <ele>1730.65441894531</ele>
        <time>2007-08-25T07:32:38Z</time>
      </trkpt>
      <trkpt lat="46.435188" lon="14.212286">
        <ele>1730.65441894531</ele>
        <time>2007-08-25T07:32:47Z</time>
      </trkpt>
      <trkpt lat="46.435159" lon="14.212071">
        <ele>1730.04479980469</ele>
        <time>2007-08-25T07:33:00Z</time>
      </trkpt>
      <trkpt lat="46.435123" lon="14.211802">
        <ele>1728.21594238281</ele>
        <time>2007-08-25T07:33:17Z</time>
      </trkpt>
      <trkpt lat="46.435087" lon="14.211588">
        <ele>1731.26403808594</ele>
        <time>2007-08-25T07:33:33Z</time>
      </trkpt>
      <trkpt lat="46.435038" lon="14.211423">
        <ele>1733.0927734375</ele>
        <time>2007-08-25T07:33:47Z</time>
      </trkpt>
      <trkpt lat="46.435034" lon="14.211328">
        <ele>1735.53125</ele>
        <time>2007-08-25T07:33:58Z</time>
      </trkpt>
      <trkpt lat="46.43502" lon="14.211183">
        <ele>1738.88403320313</ele>
        <time>2007-08-25T07:34:12Z</time>
      </trkpt>
      <trkpt lat="46.435008" lon="14.211157">
        <ele>1738.2744140625</ele>
        <time>2007-08-25T07:35:24Z</time>
      </trkpt>
      <trkpt lat="46.435021" lon="14.211081">
        <ele>1738.88403320313</ele>
        <time>2007-08-25T07:36:07Z</time>
      </trkpt>
      <trkpt lat="46.435017" lon="14.210974">
        <ele>1741.32238769531</ele>
        <time>2007-08-25T07:36:19Z</time>
      </trkpt>
      <trkpt lat="46.435029" lon="14.210885">
        <ele>1744.67517089844</ele>
        <time>2007-08-25T07:36:33Z</time>
      </trkpt>
      <trkpt lat="46.435047" lon="14.210835">
        <ele>1746.80883789062</ele>
        <time>2007-08-25T07:36:47Z</time>
      </trkpt>
      <trkpt lat="46.435072" lon="14.210682">
        <ele>1748.9423828125</ele>
        <time>2007-08-25T07:37:01Z</time>
      </trkpt>
      <trkpt lat="46.435089" lon="14.210612">
        <ele>1750.77124023437</ele>
        <time>2007-08-25T07:37:11Z</time>
      </trkpt>
      <trkpt lat="46.435116" lon="14.210561">
        <ele>1753.20959472656</ele>
        <time>2007-08-25T07:37:22Z</time>
      </trkpt>
      <trkpt lat="46.435094" lon="14.210516">
        <ele>1754.73364257812</ele>
        <time>2007-08-25T07:37:39Z</time>
      </trkpt>
      <trkpt lat="46.435128" lon="14.210412">
        <ele>1758.08642578125</ele>
        <time>2007-08-25T07:37:55Z</time>
      </trkpt>
      <trkpt lat="46.435188" lon="14.210425">
        <ele>1759.6103515625</ele>
        <time>2007-08-25T07:38:06Z</time>
      </trkpt>
      <trkpt lat="46.435253" lon="14.210511">
        <ele>1761.74401855469</ele>
        <time>2007-08-25T07:38:18Z</time>
      </trkpt>
      <trkpt lat="46.435285" lon="14.210575">
        <ele>1764.18237304687</ele>
        <time>2007-08-25T07:38:36Z</time>
      </trkpt>
      <trkpt lat="46.435321" lon="14.210526">
        <ele>1767.53515625</ele>
        <time>2007-08-25T07:40:09Z</time>
      </trkpt>
      <trkpt lat="46.435328" lon="14.210346">
        <ele>1771.80236816406</ele>
        <time>2007-08-25T07:40:26Z</time>
      </trkpt>
      <trkpt lat="46.435329" lon="14.210341">
        <ele>1770.58325195312</ele>
        <time>2007-08-25T07:40:27Z</time>
      </trkpt>
      <trkpt lat="46.435341" lon="14.210245">
        <ele>1774.24084472656</ele>
        <time>2007-08-25T07:40:38Z</time>
      </trkpt>
      <trkpt lat="46.435343" lon="14.21012">
        <ele>1775.76477050781</ele>
        <time>2007-08-25T07:40:56Z</time>
      </trkpt>
      <trkpt lat="46.435341" lon="14.210037">
        <ele>1778.81274414062</ele>
        <time>2007-08-25T07:41:06Z</time>
      </trkpt>
      <trkpt lat="46.435295" lon="14.209962">
        <ele>1782.16564941406</ele>
        <time>2007-08-25T07:41:22Z</time>
      </trkpt>
      <trkpt lat="46.435382" lon="14.21001">
        <ele>1785.21362304688</ele>
        <time>2007-08-25T07:41:42Z</time>
      </trkpt>
      <trkpt lat="46.435415" lon="14.209943">
        <ele>1788.26159667969</ele>
        <time>2007-08-25T07:41:58Z</time>
      </trkpt>
      <trkpt lat="46.435417" lon="14.209891">
        <ele>1791.61437988281</ele>
        <time>2007-08-25T07:42:09Z</time>
      </trkpt>
      <trkpt lat="46.435439" lon="14.20975">
        <ele>1793.748046875</ele>
        <time>2007-08-25T07:42:31Z</time>
      </trkpt>
      <trkpt lat="46.435411" lon="14.209644">
        <ele>1795.57678222656</ele>
        <time>2007-08-25T07:42:47Z</time>
      </trkpt>
      <trkpt lat="46.435408" lon="14.209586">
        <ele>1798.62475585938</ele>
        <time>2007-08-25T07:42:59Z</time>
      </trkpt>
      <trkpt lat="46.435404" lon="14.209527">
        <ele>1801.06323242187</ele>
        <time>2007-08-25T07:43:14Z</time>
      </trkpt>
      <trkpt lat="46.435429" lon="14.209513">
        <ele>1804.416015625</ele>
        <time>2007-08-25T07:43:26Z</time>
      </trkpt>
      <trkpt lat="46.435427" lon="14.209442">
        <ele>1807.46398925781</ele>
        <time>2007-08-25T07:43:44Z</time>
      </trkpt>
      <trkpt lat="46.435427" lon="14.209362">
        <ele>1810.81677246094</ele>
        <time>2007-08-25T07:43:59Z</time>
      </trkpt>
      <trkpt lat="46.435469" lon="14.209326">
        <ele>1811.73120117187</ele>
        <time>2007-08-25T07:44:05Z</time>
      </trkpt>
      <trkpt lat="46.435515" lon="14.209287">
        <ele>1815.69360351562</ele>
        <time>2007-08-25T07:44:25Z</time>
      </trkpt>
      <trkpt lat="46.435493" lon="14.209165">
        <ele>1816.91284179687</ele>
        <time>2007-08-25T07:44:42Z</time>
      </trkpt>
      <trkpt lat="46.435504" lon="14.209066">
        <ele>1820.265625</ele>
        <time>2007-08-25T07:44:57Z</time>
      </trkpt>
      <trkpt lat="46.435545" lon="14.208925">
        <ele>1822.39916992188</ele>
        <time>2007-08-25T07:45:14Z</time>
      </trkpt>
      <trkpt lat="46.435585" lon="14.208844">
        <ele>1824.83764648437</ele>
        <time>2007-08-25T07:45:32Z</time>
      </trkpt>
      <trkpt lat="46.435626" lon="14.208848">
        <ele>1827.88562011719</ele>
        <time>2007-08-25T07:45:53Z</time>
      </trkpt>
      <trkpt lat="46.435644" lon="14.20886">
        <ele>1827.88562011719</ele>
        <time>2007-08-25T07:46:14Z</time>
      </trkpt>
      <trkpt lat="46.435663" lon="14.208803">
        <ele>1828.80004882812</ele>
        <time>2007-08-25T07:46:42Z</time>
      </trkpt>
      <trkpt lat="46.435683" lon="14.208746">
        <ele>1830.62878417969</ele>
        <time>2007-08-25T07:46:53Z</time>
      </trkpt>
      <trkpt lat="46.435736" lon="14.208679">
        <ele>1833.98156738281</ele>
        <time>2007-08-25T07:47:03Z</time>
      </trkpt>
      <trkpt lat="46.435783" lon="14.208723">
        <ele>1835.81042480469</ele>
        <time>2007-08-25T07:47:18Z</time>
      </trkpt>
      <trkpt lat="46.435827" lon="14.208757">
        <ele>1838.24877929687</ele>
        <time>2007-08-25T07:47:36Z</time>
      </trkpt>
      <trkpt lat="46.435877" lon="14.208704">
        <ele>1841.6015625</ele>
        <time>2007-08-25T07:47:49Z</time>
      </trkpt>
      <trkpt lat="46.435918" lon="14.208584">
        <ele>1844.0400390625</ele>
        <time>2007-08-25T07:48:06Z</time>
      </trkpt>
      <trkpt lat="46.435956" lon="14.208453">
        <ele>1846.47839355469</ele>
        <time>2007-08-25T07:48:26Z</time>
      </trkpt>
      <trkpt lat="46.435962" lon="14.20834">
        <ele>1849.5263671875</ele>
        <time>2007-08-25T07:48:39Z</time>
      </trkpt>
      <trkpt lat="46.435989" lon="14.208228">
        <ele>1852.57434082031</ele>
        <time>2007-08-25T07:48:53Z</time>
      </trkpt>
      <trkpt lat="46.43603" lon="14.208104">
        <ele>1855.62243652344</ele>
        <time>2007-08-25T07:49:10Z</time>
      </trkpt>
      <trkpt lat="46.436029" lon="14.208124">
        <ele>1855.62243652344</ele>
        <time>2007-08-25T07:49:26Z</time>
      </trkpt>
      <trkpt lat="46.436091" lon="14.208114">
        <ele>1856.53674316406</ele>
        <time>2007-08-25T07:50:07Z</time>
      </trkpt>
      <trkpt lat="46.436101" lon="14.208197">
        <ele>1856.84155273437</ele>
        <time>2007-08-25T07:50:24Z</time>
      </trkpt>
      <trkpt lat="46.436135" lon="14.208247">
        <ele>1859.58483886719</ele>
        <time>2007-08-25T07:50:35Z</time>
      </trkpt>
      <trkpt lat="46.436197" lon="14.208302">
        <ele>1862.32800292969</ele>
        <time>2007-08-25T07:50:53Z</time>
      </trkpt>
      <trkpt lat="46.436205" lon="14.208273">
        <ele>1864.15686035156</ele>
        <time>2007-08-25T07:50:58Z</time>
      </trkpt>
      <trkpt lat="46.436264" lon="14.208208">
        <ele>1867.20483398437</ele>
        <time>2007-08-25T07:51:15Z</time>
      </trkpt>
      <trkpt lat="46.436286" lon="14.208124">
        <ele>1870.25280761719</ele>
        <time>2007-08-25T07:51:31Z</time>
      </trkpt>
      <trkpt lat="46.436321" lon="14.207991">
        <ele>1872.08154296875</ele>
        <time>2007-08-25T07:51:49Z</time>
      </trkpt>
      <trkpt lat="46.436375" lon="14.207908">
        <ele>1873.60559082031</ele>
        <time>2007-08-25T07:52:03Z</time>
      </trkpt>
      <trkpt lat="46.436392" lon="14.207761">
        <ele>1875.7392578125</ele>
        <time>2007-08-25T07:52:20Z</time>
      </trkpt>
      <trkpt lat="46.436405" lon="14.207651">
        <ele>1878.78723144531</ele>
        <time>2007-08-25T07:52:35Z</time>
      </trkpt>
      <trkpt lat="46.436396" lon="14.207567">
        <ele>1881.53039550781</ele>
        <time>2007-08-25T07:52:45Z</time>
      </trkpt>
      <trkpt lat="46.436397" lon="14.20748">
        <ele>1884.57836914062</ele>
        <time>2007-08-25T07:52:57Z</time>
      </trkpt>
      <trkpt lat="46.436408" lon="14.207376">
        <ele>1888.54077148438</ele>
        <time>2007-08-25T07:53:14Z</time>
      </trkpt>
      <trkpt lat="46.436423" lon="14.207293">
        <ele>1890.67443847656</ele>
        <time>2007-08-25T07:53:28Z</time>
      </trkpt>
      <trkpt lat="46.436421" lon="14.207274">
        <ele>1892.19836425781</ele>
        <time>2007-08-25T07:53:31Z</time>
      </trkpt>
      <trkpt lat="46.436436" lon="14.207179">
        <ele>1893.11279296875</ele>
        <time>2007-08-25T07:53:44Z</time>
      </trkpt>
      <trkpt lat="46.436452" lon="14.20703">
        <ele>1896.16076660156</ele>
        <time>2007-08-25T07:54:02Z</time>
      </trkpt>
      <trkpt lat="46.436485" lon="14.206999">
        <ele>1897.98962402344</ele>
        <time>2007-08-25T07:54:19Z</time>
      </trkpt>
      <trkpt lat="46.436482" lon="14.207001">
        <ele>1897.98962402344</ele>
        <time>2007-08-25T07:54:42Z</time>
      </trkpt>
      <trkpt lat="46.436509" lon="14.207105">
        <ele>1899.818359375</ele>
        <time>2007-08-25T07:55:12Z</time>
      </trkpt>
      <trkpt lat="46.43655" lon="14.20715">
        <ele>1902.86645507813</ele>
        <time>2007-08-25T07:55:23Z</time>
      </trkpt>
      <trkpt lat="46.436572" lon="14.207056">
        <ele>1905.30480957031</ele>
        <time>2007-08-25T07:55:36Z</time>
      </trkpt>
      <trkpt lat="46.436623" lon="14.206963">
        <ele>1907.13354492188</ele>
        <time>2007-08-25T07:55:53Z</time>
      </trkpt>
      <trkpt lat="46.436649" lon="14.2069">
        <ele>1910.48645019531</ele>
        <time>2007-08-25T07:56:03Z</time>
      </trkpt>
      <trkpt lat="46.436696" lon="14.2068">
        <ele>1914.14404296875</ele>
        <time>2007-08-25T07:56:19Z</time>
      </trkpt>
      <trkpt lat="46.436762" lon="14.2067">
        <ele>1917.19201660156</ele>
        <time>2007-08-25T07:56:36Z</time>
      </trkpt>
      <trkpt lat="46.436836" lon="14.206592">
        <ele>1919.02075195313</ele>
        <time>2007-08-25T07:56:55Z</time>
      </trkpt>
      <trkpt lat="46.436869" lon="14.206533">
        <ele>1922.06884765625</ele>
        <time>2007-08-25T07:57:06Z</time>
      </trkpt>
      <trkpt lat="46.436919" lon="14.206447">
        <ele>1925.42163085938</ele>
        <time>2007-08-25T07:57:24Z</time>
      </trkpt>
      <trkpt lat="46.436963" lon="14.206384">
        <ele>1927.55517578125</ele>
        <time>2007-08-25T07:57:39Z</time>
      </trkpt>
      <trkpt lat="46.437005" lon="14.206402">
        <ele>1929.38403320313</ele>
        <time>2007-08-25T07:57:54Z</time>
      </trkpt>
      <trkpt lat="46.437049" lon="14.206423">
        <ele>1931.517578125</ele>
        <time>2007-08-25T07:58:10Z</time>
      </trkpt>
      <trkpt lat="46.437094" lon="14.20634">
        <ele>1934.87036132813</ele>
        <time>2007-08-25T07:58:26Z</time>
      </trkpt>
      <trkpt lat="46.437141" lon="14.206209">
        <ele>1937.91845703125</ele>
        <time>2007-08-25T07:58:45Z</time>
      </trkpt>
      <trkpt lat="46.437232" lon="14.206096">
        <ele>1937.91845703125</ele>
        <time>2007-08-25T07:59:03Z</time>
      </trkpt>
      <trkpt lat="46.437329" lon="14.206103">
        <ele>1939.4423828125</ele>
        <time>2007-08-25T07:59:20Z</time>
      </trkpt>
      <trkpt lat="46.437366" lon="14.205978">
        <ele>1938.22314453125</ele>
        <time>2007-08-25T07:59:35Z</time>
      </trkpt>
      <trkpt lat="46.437391" lon="14.205933">
        <ele>1937.61364746094</ele>
        <time>2007-08-25T07:59:45Z</time>
      </trkpt>
      <trkpt lat="46.437405" lon="14.205798">
        <ele>1938.83276367188</ele>
        <time>2007-08-25T07:59:59Z</time>
      </trkpt>
      <trkpt lat="46.43747" lon="14.205538">
        <ele>1939.4423828125</ele>
        <time>2007-08-25T08:00:19Z</time>
      </trkpt>
      <trkpt lat="46.437505" lon="14.205376">
        <ele>1941.57604980469</ele>
        <time>2007-08-25T08:00:35Z</time>
      </trkpt>
      <trkpt lat="46.437556" lon="14.205282">
        <ele>1944.6240234375</ele>
        <time>2007-08-25T08:00:48Z</time>
      </trkpt>
      <trkpt lat="46.437633" lon="14.2052">
        <ele>1946.75756835937</ele>
        <time>2007-08-25T08:01:04Z</time>
      </trkpt>
      <trkpt lat="46.437606" lon="14.20503">
        <ele>1948.28161621094</ele>
        <time>2007-08-25T08:01:19Z</time>
      </trkpt>
      <trkpt lat="46.437635" lon="14.204988">
        <ele>1949.19604492188</ele>
        <time>2007-08-25T08:01:28Z</time>
      </trkpt>
      <trkpt lat="46.437747" lon="14.20467">
        <ele>1949.19604492188</ele>
        <time>2007-08-25T08:01:50Z</time>
      </trkpt>
      <trkpt lat="46.437711" lon="14.204396">
        <ele>1951.02478027344</ele>
        <time>2007-08-25T08:02:07Z</time>
      </trkpt>
      <trkpt lat="46.437734" lon="14.204178">
        <ele>1952.85363769531</ele>
        <time>2007-08-25T08:02:25Z</time>
      </trkpt>
      <trkpt lat="46.437761" lon="14.204002">
        <ele>1954.98718261719</ele>
        <time>2007-08-25T08:02:39Z</time>
      </trkpt>
      <trkpt lat="46.43778" lon="14.203751">
        <ele>1956.51123046875</ele>
        <time>2007-08-25T08:02:55Z</time>
      </trkpt>
      <trkpt lat="46.4378433227539" lon="14.2035636901855">
        <ele>1959.25439453125</ele>
        <time>2007-08-25T08:09:54Z</time>
      </trkpt>
      <trkpt lat="46.437905" lon="14.203629">
        <ele>1955.59680175781</ele>
        <time>2007-08-25T08:10:10Z</time>
      </trkpt>
      <trkpt lat="46.437952" lon="14.203719">
        <ele>1954.68237304687</ele>
        <time>2007-08-25T08:10:22Z</time>
      </trkpt>
      <trkpt lat="46.438123" lon="14.20373">
        <ele>1955.2919921875</ele>
        <time>2007-08-25T08:10:37Z</time>
      </trkpt>
      <trkpt lat="46.438252" lon="14.203696">
        <ele>1957.12084960938</ele>
        <time>2007-08-25T08:10:55Z</time>
      </trkpt>
      <trkpt lat="46.438344" lon="14.203547">
        <ele>1954.98718261719</ele>
        <time>2007-08-25T08:11:12Z</time>
      </trkpt>
      <trkpt lat="46.438408" lon="14.203459">
        <ele>1951.93920898438</ele>
        <time>2007-08-25T08:11:22Z</time>
      </trkpt>
      <trkpt lat="46.438475" lon="14.203338">
        <ele>1950.41516113281</ele>
        <time>2007-08-25T08:11:37Z</time>
      </trkpt>
      <trkpt lat="46.438489" lon="14.203313">
        <ele>1949.80554199219</ele>
        <time>2007-08-25T08:11:40Z</time>
      </trkpt>
      <trkpt lat="46.438551" lon="14.20327">
        <ele>1949.80554199219</ele>
        <time>2007-08-25T08:11:47Z</time>
      </trkpt>
      <trkpt lat="46.43865" lon="14.203186">
        <ele>1947.06237792969</ele>
        <time>2007-08-25T08:12:04Z</time>
      </trkpt>
      <trkpt lat="46.438705" lon="14.203175">
        <ele>1947.06237792969</ele>
        <time>2007-08-25T08:12:12Z</time>
      </trkpt>
      <trkpt lat="46.438825" lon="14.203102">
        <ele>1945.23364257812</ele>
        <time>2007-08-25T08:12:28Z</time>
      </trkpt>
      <trkpt lat="46.438915" lon="14.20305">
        <ele>1943.70959472656</ele>
        <time>2007-08-25T08:12:44Z</time>
      </trkpt>
      <trkpt lat="46.438983" lon="14.203011">
        <ele>1941.880859375</ele>
        <time>2007-08-25T08:12:58Z</time>
      </trkpt>
      <trkpt lat="46.43901" lon="14.20293">
        <ele>1938.83276367188</ele>
        <time>2007-08-25T08:13:09Z</time>
      </trkpt>
      <trkpt lat="46.439066" lon="14.202873">
        <ele>1937.30883789062</ele>
        <time>2007-08-25T08:13:24Z</time>
      </trkpt>
      <trkpt lat="46.439112" lon="14.202839">
        <ele>1934.2607421875</ele>
        <time>2007-08-25T08:13:34Z</time>
      </trkpt>
      <trkpt lat="46.439116" lon="14.20284">
        <ele>1933.9560546875</ele>
        <time>2007-08-25T08:13:35Z</time>
      </trkpt>
      <trkpt lat="46.439195" lon="14.202822">
        <ele>1930.60314941406</ele>
        <time>2007-08-25T08:13:51Z</time>
      </trkpt>
      <trkpt lat="46.439227" lon="14.202756">
        <ele>1928.16479492188</ele>
        <time>2007-08-25T08:14:06Z</time>
      </trkpt>
      <trkpt lat="46.439219" lon="14.202636">
        <ele>1924.50720214844</ele>
        <time>2007-08-25T08:14:21Z</time>
      </trkpt>
      <trkpt lat="46.439327" lon="14.202561">
        <ele>1922.06884765625</ele>
        <time>2007-08-25T08:14:39Z</time>
      </trkpt>
      <trkpt lat="46.439327" lon="14.202421">
        <ele>1920.54479980469</ele>
        <time>2007-08-25T08:14:52Z</time>
      </trkpt>
      <trkpt lat="46.439422" lon="14.202326">
        <ele>1919.02075195313</ele>
        <time>2007-08-25T08:15:06Z</time>
      </trkpt>
      <trkpt lat="46.439456" lon="14.202194">
        <ele>1915.97277832031</ele>
        <time>2007-08-25T08:15:17Z</time>
      </trkpt>
      <trkpt lat="46.43952" lon="14.202119">
        <ele>1915.66796875</ele>
        <time>2007-08-25T08:15:30Z</time>
      </trkpt>
      <trkpt lat="46.439551" lon="14.202028">
        <ele>1913.22961425781</ele>
        <time>2007-08-25T08:15:43Z</time>
      </trkpt>
      <trkpt lat="46.439607" lon="14.201917">
        <ele>1912.01037597656</ele>
        <time>2007-08-25T08:15:57Z</time>
      </trkpt>
      <trkpt lat="46.439631" lon="14.2018">
        <ele>1908.96240234375</ele>
        <time>2007-08-25T08:16:09Z</time>
      </trkpt>
      <trkpt lat="46.439707" lon="14.201626">
        <ele>1906.52404785156</ele>
        <time>2007-08-25T08:16:26Z</time>
      </trkpt>
      <trkpt lat="46.439729" lon="14.201457">
        <ele>1904.39038085937</ele>
        <time>2007-08-25T08:16:43Z</time>
      </trkpt>
      <trkpt lat="46.439737" lon="14.20142">
        <ele>1904.08557128906</ele>
        <time>2007-08-25T08:16:46Z</time>
      </trkpt>
      <trkpt lat="46.439752" lon="14.201235">
        <ele>1902.56164550781</ele>
        <time>2007-08-25T08:17:03Z</time>
      </trkpt>
      <trkpt lat="46.439712" lon="14.201077">
        <ele>1900.42797851562</ele>
        <time>2007-08-25T08:17:20Z</time>
      </trkpt>
      <trkpt lat="46.439702" lon="14.201007">
        <ele>1898.29443359375</ele>
        <time>2007-08-25T08:17:27Z</time>
      </trkpt>
      <trkpt lat="46.439706" lon="14.200859">
        <ele>1896.46557617188</ele>
        <time>2007-08-25T08:17:42Z</time>
      </trkpt>
      <trkpt lat="46.439724" lon="14.200758">
        <ele>1894.63684082031</ele>
        <time>2007-08-25T08:17:57Z</time>
      </trkpt>
      <trkpt lat="46.43971" lon="14.200706">
        <ele>1891.58874511719</ele>
        <time>2007-08-25T08:18:05Z</time>
      </trkpt>
      <trkpt lat="46.439735" lon="14.200548">
        <ele>1889.150390625</ele>
        <time>2007-08-25T08:18:20Z</time>
      </trkpt>
      <trkpt lat="46.43974" lon="14.200494">
        <ele>1887.62634277344</ele>
        <time>2007-08-25T08:18:30Z</time>
      </trkpt>
      <trkpt lat="46.439751" lon="14.200363">
        <ele>1885.79760742187</ele>
        <time>2007-08-25T08:18:46Z</time>
      </trkpt>
      <trkpt lat="46.439775" lon="14.200131">
        <ele>1883.05444335938</ele>
        <time>2007-08-25T08:19:04Z</time>
      </trkpt>
      <trkpt lat="46.439783" lon="14.200027">
        <ele>1878.78723144531</ele>
        <time>2007-08-25T08:19:17Z</time>
      </trkpt>
      <trkpt lat="46.439781" lon="14.199923">
        <ele>1876.0439453125</ele>
        <time>2007-08-25T08:19:31Z</time>
      </trkpt>
      <trkpt lat="46.439771" lon="14.199768">
        <ele>1874.82482910156</ele>
        <time>2007-08-25T08:19:48Z</time>
      </trkpt>
      <trkpt lat="46.43974" lon="14.199634">
        <ele>1872.38635253906</ele>
        <time>2007-08-25T08:20:03Z</time>
      </trkpt>
      <trkpt lat="46.43976" lon="14.199599">
        <ele>1869.64318847656</ele>
        <time>2007-08-25T08:20:16Z</time>
      </trkpt>
      <trkpt lat="46.439751" lon="14.199581">
        <ele>1868.119140625</ele>
        <time>2007-08-25T08:20:19Z</time>
      </trkpt>
      <trkpt lat="46.439768" lon="14.19944">
        <ele>1865.3759765625</ele>
        <time>2007-08-25T08:20:37Z</time>
      </trkpt>
      <trkpt lat="46.439802" lon="14.199329">
        <ele>1862.32800292969</ele>
        <time>2007-08-25T08:20:52Z</time>
      </trkpt>
      <trkpt lat="46.439829" lon="14.19929">
        <ele>1858.67041015625</ele>
        <time>2007-08-25T08:21:03Z</time>
      </trkpt>
      <trkpt lat="46.439767" lon="14.199224">
        <ele>1856.84155273437</ele>
        <time>2007-08-25T08:21:22Z</time>
      </trkpt>
      <trkpt lat="46.439727" lon="14.199149">
        <ele>1853.48876953125</ele>
        <time>2007-08-25T08:21:31Z</time>
      </trkpt>
      <trkpt lat="46.439702" lon="14.199049">
        <ele>1850.44079589844</ele>
        <time>2007-08-25T08:21:45Z</time>
      </trkpt>
      <trkpt lat="46.43967" lon="14.198875">
        <ele>1849.5263671875</ele>
        <time>2007-08-25T08:22:01Z</time>
      </trkpt>
      <trkpt lat="46.439736" lon="14.198693">
        <ele>1849.22155761719</ele>
        <time>2007-08-25T08:22:18Z</time>
      </trkpt>
      <trkpt lat="46.439849" lon="14.198604">
        <ele>1849.22155761719</ele>
        <time>2007-08-25T08:22:36Z</time>
      </trkpt>
      <trkpt lat="46.439861" lon="14.198534">
        <ele>1848.91674804687</ele>
        <time>2007-08-25T08:22:48Z</time>
      </trkpt>
      <trkpt lat="46.439829" lon="14.198374">
        <ele>1846.47839355469</ele>
        <time>2007-08-25T08:23:01Z</time>
      </trkpt>
      <trkpt lat="46.439924" lon="14.198341">
        <ele>1847.08801269531</ele>
        <time>2007-08-25T08:23:15Z</time>
      </trkpt>
      <trkpt lat="46.439933" lon="14.198212">
        <ele>1846.17358398438</ele>
        <time>2007-08-25T08:23:28Z</time>
      </trkpt>
      <trkpt lat="46.439912" lon="14.19815">
        <ele>1842.21118164063</ele>
        <time>2007-08-25T08:23:39Z</time>
      </trkpt>
      <trkpt lat="46.439918" lon="14.198156">
        <ele>1842.21118164063</ele>
        <time>2007-08-25T08:23:40Z</time>
      </trkpt>
      <trkpt lat="46.439889" lon="14.198072">
        <ele>1838.8583984375</ele>
        <time>2007-08-25T08:23:58Z</time>
      </trkpt>
      <trkpt lat="46.43989" lon="14.197951">
        <ele>1835.50561523438</ele>
        <time>2007-08-25T08:24:17Z</time>
      </trkpt>
      <trkpt lat="46.439872" lon="14.197896">
        <ele>1833.98156738281</ele>
        <time>2007-08-25T08:24:21Z</time>
      </trkpt>
      <trkpt lat="46.439861" lon="14.197747">
        <ele>1831.23840332031</ele>
        <time>2007-08-25T08:24:34Z</time>
      </trkpt>
      <trkpt lat="46.439866" lon="14.197614">
        <ele>1828.1904296875</ele>
        <time>2007-08-25T08:24:50Z</time>
      </trkpt>
      <trkpt lat="46.439897" lon="14.197518">
        <ele>1824.83764648437</ele>
        <time>2007-08-25T08:25:07Z</time>
      </trkpt>
      <trkpt lat="46.439789" lon="14.197335">
        <ele>1823.31359863281</ele>
        <time>2007-08-25T08:25:18Z</time>
      </trkpt>
      <trkpt lat="46.439854" lon="14.197316">
        <ele>1821.48474121094</ele>
        <time>2007-08-25T08:25:31Z</time>
      </trkpt>
      <trkpt lat="46.439891" lon="14.19724">
        <ele>1822.70397949219</ele>
        <time>2007-08-25T08:25:41Z</time>
      </trkpt>
      <trkpt lat="46.439906" lon="14.197139">
        <ele>1824.83764648437</ele>
        <time>2007-08-25T08:25:51Z</time>
      </trkpt>
      <trkpt lat="46.439872" lon="14.196959">
        <ele>1827.88562011719</ele>
        <time>2007-08-25T08:26:07Z</time>
      </trkpt>
      <trkpt lat="46.439826" lon="14.196756">
        <ele>1828.1904296875</ele>
        <time>2007-08-25T08:26:19Z</time>
      </trkpt>
      <trkpt lat="46.439894" lon="14.196747">
        <ele>1829.40954589844</ele>
        <time>2007-08-25T08:26:31Z</time>
      </trkpt>
      <trkpt lat="46.439879" lon="14.196698">
        <ele>1832.45764160156</ele>
        <time>2007-08-25T08:26:43Z</time>
      </trkpt>
      <trkpt lat="46.439899" lon="14.196718">
        <ele>1832.45764160156</ele>
        <time>2007-08-25T08:26:50Z</time>
      </trkpt>
      <trkpt lat="46.439909" lon="14.196563">
        <ele>1835.50561523438</ele>
        <time>2007-08-25T08:27:20Z</time>
      </trkpt>
      <trkpt lat="46.439917" lon="14.196528">
        <ele>1838.55358886719</ele>
        <time>2007-08-25T08:27:33Z</time>
      </trkpt>
      <trkpt lat="46.43994" lon="14.196504">
        <ele>1840.07763671875</ele>
        <time>2007-08-25T08:27:52Z</time>
      </trkpt>
      <trkpt lat="46.439974" lon="14.196458">
        <ele>1840.99194335938</ele>
        <time>2007-08-25T08:28:09Z</time>
      </trkpt>
      <trkpt lat="46.439976" lon="14.19632">
        <ele>1843.12561035156</ele>
        <time>2007-08-25T08:28:25Z</time>
      </trkpt>
      <trkpt lat="46.440011" lon="14.196243">
        <ele>1843.43041992187</ele>
        <time>2007-08-25T08:28:37Z</time>
      </trkpt>
      <trkpt lat="46.440034" lon="14.196096">
        <ele>1844.34484863281</ele>
        <time>2007-08-25T08:28:51Z</time>
      </trkpt>
      <trkpt lat="46.440037" lon="14.195934">
        <ele>1841.29675292969</ele>
        <time>2007-08-25T08:29:04Z</time>
      </trkpt>
      <trkpt lat="46.440063" lon="14.195826">
        <ele>1841.90637207031</ele>
        <time>2007-08-25T08:29:14Z</time>
      </trkpt>
      <trkpt lat="46.440061" lon="14.195587">
        <ele>1840.07763671875</ele>
        <time>2007-08-25T08:29:33Z</time>
      </trkpt>
      <trkpt lat="46.440046" lon="14.195463">
        <ele>1839.16320800781</ele>
        <time>2007-08-25T08:29:43Z</time>
      </trkpt>
      <trkpt lat="46.440044" lon="14.195341">
        <ele>1839.16320800781</ele>
        <time>2007-08-25T08:29:54Z</time>
      </trkpt>
      <trkpt lat="46.440041" lon="14.195244">
        <ele>1838.55358886719</ele>
        <time>2007-08-25T08:30:07Z</time>
      </trkpt>
      <trkpt lat="46.44007" lon="14.195115">
        <ele>1837.94396972656</ele>
        <time>2007-08-25T08:30:19Z</time>
      </trkpt>
      <trkpt lat="46.440075" lon="14.194912">
        <ele>1838.8583984375</ele>
        <time>2007-08-25T08:30:34Z</time>
      </trkpt>
      <trkpt lat="46.440042" lon="14.19469">
        <ele>1839.46801757812</ele>
        <time>2007-08-25T08:30:48Z</time>
      </trkpt>
      <trkpt lat="46.440072" lon="14.194443">
        <ele>1840.68725585938</ele>
        <time>2007-08-25T08:31:05Z</time>
      </trkpt>
      <trkpt lat="46.440135" lon="14.194265">
        <ele>1840.38244628906</ele>
        <time>2007-08-25T08:31:21Z</time>
      </trkpt>
      <trkpt lat="46.440144" lon="14.194168">
        <ele>1836.72485351563</ele>
        <time>2007-08-25T08:31:31Z</time>
      </trkpt>
      <trkpt lat="46.440139" lon="14.194157">
        <ele>1842.21118164063</ele>
        <time>2007-08-25T08:31:32Z</time>
      </trkpt>
      <trkpt lat="46.440138" lon="14.19415">
        <ele>1838.8583984375</ele>
        <time>2007-08-25T08:31:34Z</time>
      </trkpt>
      <trkpt lat="46.440138" lon="14.194148">
        <ele>1840.99194335938</ele>
        <time>2007-08-25T08:31:36Z</time>
      </trkpt>
      <trkpt lat="46.440148" lon="14.194111">
        <ele>1839.46801757812</ele>
        <time>2007-08-25T08:31:43Z</time>
      </trkpt>
      <trkpt lat="46.440174" lon="14.193968">
        <ele>1839.16320800781</ele>
        <time>2007-08-25T08:31:57Z</time>
      </trkpt>
      <trkpt lat="46.440161" lon="14.193821">
        <ele>1840.99194335938</ele>
        <time>2007-08-25T08:32:12Z</time>
      </trkpt>
      <trkpt lat="46.440159" lon="14.19371">
        <ele>1837.94396972656</ele>
        <time>2007-08-25T08:32:25Z</time>
      </trkpt>
      <trkpt lat="46.44016" lon="14.1937">
        <ele>1838.24877929687</ele>
        <time>2007-08-25T08:32:26Z</time>
      </trkpt>
      <trkpt lat="46.440157" lon="14.193543">
        <ele>1836.42004394531</ele>
        <time>2007-08-25T08:32:41Z</time>
      </trkpt>
      <trkpt lat="46.44013" lon="14.193424">
        <ele>1840.07763671875</ele>
        <time>2007-08-25T08:32:54Z</time>
      </trkpt>
      <trkpt lat="46.440098" lon="14.193366">
        <ele>1840.38244628906</ele>
        <time>2007-08-25T08:33:03Z</time>
      </trkpt>
      <trkpt lat="46.440054" lon="14.19328">
        <ele>1836.72485351563</ele>
        <time>2007-08-25T08:33:16Z</time>
      </trkpt>
      <trkpt lat="46.440054" lon="14.19328">
        <ele>1840.99194335938</ele>
        <time>2007-08-25T08:33:17Z</time>
      </trkpt>
      <trkpt lat="46.440054" lon="14.193281">
        <ele>1837.63916015625</ele>
        <time>2007-08-25T08:33:19Z</time>
      </trkpt>
      <trkpt lat="46.440054" lon="14.193282">
        <ele>1841.6015625</ele>
        <time>2007-08-25T08:33:20Z</time>
      </trkpt>
      <trkpt lat="46.440054" lon="14.193284">
        <ele>1841.6015625</ele>
        <time>2007-08-25T08:33:21Z</time>
      </trkpt>
      <trkpt lat="46.440057" lon="14.193279">
        <ele>1838.24877929687</ele>
        <time>2007-08-25T08:33:24Z</time>
      </trkpt>
      <trkpt lat="46.440052" lon="14.193269">
        <ele>1838.24877929687</ele>
        <time>2007-08-25T08:33:25Z</time>
      </trkpt>
      <trkpt lat="46.440043" lon="14.193253">
        <ele>1839.77282714844</ele>
        <time>2007-08-25T08:33:27Z</time>
      </trkpt>
      <trkpt lat="46.44004" lon="14.19314">
        <ele>1841.6015625</ele>
        <time>2007-08-25T08:33:41Z</time>
      </trkpt>
      <trkpt lat="46.439989" lon="14.193045">
        <ele>1841.29675292969</ele>
        <time>2007-08-25T08:33:57Z</time>
      </trkpt>
      <trkpt lat="46.440014" lon="14.192974">
        <ele>1844.0400390625</ele>
        <time>2007-08-25T08:34:09Z</time>
      </trkpt>
      <trkpt lat="46.440071" lon="14.19289">
        <ele>1843.73522949219</ele>
        <time>2007-08-25T08:34:21Z</time>
      </trkpt>
      <trkpt lat="46.44011" lon="14.192849">
        <ele>1846.17358398438</ele>
        <time>2007-08-25T08:34:36Z</time>
      </trkpt>
      <trkpt lat="46.440119" lon="14.192793">
        <ele>1842.82080078125</ele>
        <time>2007-08-25T08:34:43Z</time>
      </trkpt>
      <trkpt lat="46.440116" lon="14.192753">
        <ele>1846.47839355469</ele>
        <time>2007-08-25T08:34:46Z</time>
      </trkpt>
      <trkpt lat="46.440116" lon="14.192741">
        <ele>1846.47839355469</ele>
        <time>2007-08-25T08:34:47Z</time>
      </trkpt>
      <trkpt lat="46.440141" lon="14.192702">
        <ele>1844.0400390625</ele>
        <time>2007-08-25T08:34:56Z</time>
      </trkpt>
      <trkpt lat="46.440112" lon="14.192627">
        <ele>1845.25915527344</ele>
        <time>2007-08-25T08:35:07Z</time>
      </trkpt>
      <trkpt lat="46.440086" lon="14.192557">
        <ele>1844.0400390625</ele>
        <time>2007-08-25T08:35:22Z</time>
      </trkpt>
      <trkpt lat="46.440132" lon="14.192514">
        <ele>1844.64965820312</ele>
        <time>2007-08-25T08:35:33Z</time>
      </trkpt>
      <trkpt lat="46.440129" lon="14.192395">
        <ele>1844.34484863281</ele>
        <time>2007-08-25T08:35:45Z</time>
      </trkpt>
      <trkpt lat="46.440096" lon="14.192319">
        <ele>1841.90637207031</ele>
        <time>2007-08-25T08:35:57Z</time>
      </trkpt>
      <trkpt lat="46.440116" lon="14.192253">
        <ele>1840.07763671875</ele>
        <time>2007-08-25T08:36:07Z</time>
      </trkpt>
      <trkpt lat="46.44016" lon="14.192202">
        <ele>1841.29675292969</ele>
        <time>2007-08-25T08:36:18Z</time>
      </trkpt>
      <trkpt lat="46.440161" lon="14.192177">
        <ele>1842.82080078125</ele>
        <time>2007-08-25T08:36:21Z</time>
      </trkpt>
      <trkpt lat="46.44019" lon="14.192075">
        <ele>1844.64965820312</ele>
        <time>2007-08-25T08:36:36Z</time>
      </trkpt>
      <trkpt lat="46.440233" lon="14.191932">
        <ele>1845.86877441406</ele>
        <time>2007-08-25T08:36:51Z</time>
      </trkpt>
      <trkpt lat="46.440248" lon="14.191778">
        <ele>1844.64965820312</ele>
        <time>2007-08-25T08:37:05Z</time>
      </trkpt>
      <trkpt lat="46.440214" lon="14.191662">
        <ele>1845.86877441406</ele>
        <time>2007-08-25T08:37:17Z</time>
      </trkpt>
      <trkpt lat="46.440168" lon="14.191491">
        <ele>1846.783203125</ele>
        <time>2007-08-25T08:37:33Z</time>
      </trkpt>
      <trkpt lat="46.440141" lon="14.191301">
        <ele>1848.91674804687</ele>
        <time>2007-08-25T08:37:50Z</time>
      </trkpt>
      <trkpt lat="46.440154" lon="14.191176">
        <ele>1848.91674804687</ele>
        <time>2007-08-25T08:37:59Z</time>
      </trkpt>
      <trkpt lat="46.440245" lon="14.190942">
        <ele>1848.30725097656</ele>
        <time>2007-08-25T08:38:18Z</time>
      </trkpt>
      <trkpt lat="46.440303" lon="14.190866">
        <ele>1847.69763183594</ele>
        <time>2007-08-25T08:38:25Z</time>
      </trkpt>
      <trkpt lat="46.440434" lon="14.190801">
        <ele>1847.39282226562</ele>
        <time>2007-08-25T08:38:37Z</time>
      </trkpt>
      <trkpt lat="46.440478" lon="14.190721">
        <ele>1847.39282226562</ele>
        <time>2007-08-25T08:38:46Z</time>
      </trkpt>
      <trkpt lat="46.440537" lon="14.190678">
        <ele>1847.39282226562</ele>
        <time>2007-08-25T08:38:52Z</time>
      </trkpt>
      <trkpt lat="46.440678" lon="14.190629">
        <ele>1846.17358398438</ele>
        <time>2007-08-25T08:39:06Z</time>
      </trkpt>
      <trkpt lat="46.440794" lon="14.190559">
        <ele>1846.17358398438</ele>
        <time>2007-08-25T08:39:18Z</time>
      </trkpt>
      <trkpt lat="46.440909" lon="14.190575">
        <ele>1844.34484863281</ele>
        <time>2007-08-25T08:39:28Z</time>
      </trkpt>
      <trkpt lat="46.44095" lon="14.190565">
        <ele>1844.0400390625</ele>
        <time>2007-08-25T08:39:32Z</time>
      </trkpt>
      <trkpt lat="46.441074" lon="14.190452">
        <ele>1843.43041992187</ele>
        <time>2007-08-25T08:39:50Z</time>
      </trkpt>
      <trkpt lat="46.441217" lon="14.190414">
        <ele>1841.6015625</ele>
        <time>2007-08-25T08:40:03Z</time>
      </trkpt>
      <trkpt lat="46.441277" lon="14.190412">
        <ele>1842.51599121094</ele>
        <time>2007-08-25T08:40:08Z</time>
      </trkpt>
      <trkpt lat="46.441479" lon="14.190451">
        <ele>1842.51599121094</ele>
        <time>2007-08-25T08:40:25Z</time>
      </trkpt>
      <trkpt lat="46.441529" lon="14.19048">
        <ele>1842.82080078125</ele>
        <time>2007-08-25T08:40:30Z</time>
      </trkpt>
      <trkpt lat="46.441652" lon="14.190521">
        <ele>1844.0400390625</ele>
        <time>2007-08-25T08:40:45Z</time>
      </trkpt>
      <trkpt lat="46.441711" lon="14.190453">
        <ele>1841.6015625</ele>
        <time>2007-08-25T08:41:01Z</time>
      </trkpt>
      <trkpt lat="46.441765" lon="14.190382">
        <ele>1837.94396972656</ele>
        <time>2007-08-25T08:41:14Z</time>
      </trkpt>
      <trkpt lat="46.441791" lon="14.190313">
        <ele>1836.42004394531</ele>
        <time>2007-08-25T08:41:29Z</time>
      </trkpt>
      <trkpt lat="46.441831" lon="14.190288">
        <ele>1834.28637695312</ele>
        <time>2007-08-25T08:41:42Z</time>
      </trkpt>
      <trkpt lat="46.441873" lon="14.190302">
        <ele>1832.45764160156</ele>
        <time>2007-08-25T08:41:46Z</time>
      </trkpt>
      <trkpt lat="46.441866" lon="14.190299">
        <ele>1830.93359375</ele>
        <time>2007-08-25T08:41:50Z</time>
      </trkpt>
      <trkpt lat="46.441942" lon="14.190319">
        <ele>1829.71435546875</ele>
        <time>2007-08-25T08:42:11Z</time>
      </trkpt>
      <trkpt lat="46.442004" lon="14.190332">
        <ele>1828.49523925781</ele>
        <time>2007-08-25T08:42:23Z</time>
      </trkpt>
      <trkpt lat="46.442015" lon="14.190336">
        <ele>1826.05676269531</ele>
        <time>2007-08-25T08:42:28Z</time>
      </trkpt>
      <trkpt lat="46.442109" lon="14.190337">
        <ele>1825.14245605469</ele>
        <time>2007-08-25T08:42:41Z</time>
      </trkpt>
      <trkpt lat="46.442227" lon="14.190346">
        <ele>1822.09436035156</ele>
        <time>2007-08-25T08:42:49Z</time>
      </trkpt>
      <trkpt lat="46.442228" lon="14.190346">
        <ele>1821.78955078125</ele>
        <time>2007-08-25T08:42:50Z</time>
      </trkpt>
      <trkpt lat="46.442196" lon="14.190299">
        <ele>1820.57043457031</ele>
        <time>2007-08-25T08:43:03Z</time>
      </trkpt>
      <trkpt lat="46.442247" lon="14.190265">
        <ele>1817.8271484375</ele>
        <time>2007-08-25T08:43:16Z</time>
      </trkpt>
      <trkpt lat="46.442378" lon="14.190263">
        <ele>1815.38879394531</ele>
        <time>2007-08-25T08:43:29Z</time>
      </trkpt>
      <trkpt lat="46.442381" lon="14.190161">
        <ele>1812.3408203125</ele>
        <time>2007-08-25T08:43:40Z</time>
      </trkpt>
      <trkpt lat="46.442441" lon="14.190112">
        <ele>1809.59765625</ele>
        <time>2007-08-25T08:43:52Z</time>
      </trkpt>
      <trkpt lat="46.442456" lon="14.190016">
        <ele>1806.24475097656</ele>
        <time>2007-08-25T08:44:03Z</time>
      </trkpt>
      <trkpt lat="46.442474" lon="14.189941">
        <ele>1803.80639648438</ele>
        <time>2007-08-25T08:44:16Z</time>
      </trkpt>
      <trkpt lat="46.442488" lon="14.189911">
        <ele>1802.58715820312</ele>
        <time>2007-08-25T08:44:20Z</time>
      </trkpt>
      <trkpt lat="46.442561" lon="14.18988">
        <ele>1800.45361328125</ele>
        <time>2007-08-25T08:44:35Z</time>
      </trkpt>
      <trkpt lat="46.442621" lon="14.189838">
        <ele>1798.62475585938</ele>
        <time>2007-08-25T08:44:45Z</time>
      </trkpt>
      <trkpt lat="46.44266" lon="14.189788">
        <ele>1795.27197265625</ele>
        <time>2007-08-25T08:44:56Z</time>
      </trkpt>
      <trkpt lat="46.442654" lon="14.189773">
        <ele>1795.27197265625</ele>
        <time>2007-08-25T08:44:57Z</time>
      </trkpt>
      <trkpt lat="46.442701" lon="14.189679">
        <ele>1792.22399902344</ele>
        <time>2007-08-25T08:45:12Z</time>
      </trkpt>
      <trkpt lat="46.442762" lon="14.189668">
        <ele>1788.87121582031</ele>
        <time>2007-08-25T08:45:23Z</time>
      </trkpt>
      <trkpt lat="46.442768" lon="14.189665">
        <ele>1788.87121582031</ele>
        <time>2007-08-25T08:45:24Z</time>
      </trkpt>
      <trkpt lat="46.442816" lon="14.189583">
        <ele>1785.8232421875</ele>
        <time>2007-08-25T08:45:37Z</time>
      </trkpt>
      <trkpt lat="46.442769" lon="14.189395">
        <ele>1782.77514648437</ele>
        <time>2007-08-25T08:45:52Z</time>
      </trkpt>
      <trkpt lat="46.442823" lon="14.189312">
        <ele>1780.33679199219</ele>
        <time>2007-08-25T08:46:04Z</time>
      </trkpt>
      <trkpt lat="46.442879" lon="14.189267">
        <ele>1776.98400878906</ele>
        <time>2007-08-25T08:46:15Z</time>
      </trkpt>
      <trkpt lat="46.442959" lon="14.18923">
        <ele>1774.24084472656</ele>
        <time>2007-08-25T08:46:31Z</time>
      </trkpt>
      <trkpt lat="46.442962" lon="14.189139">
        <ele>1772.10717773438</ele>
        <time>2007-08-25T08:46:44Z</time>
      </trkpt>
      <trkpt lat="46.443026" lon="14.189138">
        <ele>1769.66882324219</ele>
        <time>2007-08-25T08:46:53Z</time>
      </trkpt>
      <trkpt lat="46.442997" lon="14.18903">
        <ele>1766.62084960938</ele>
        <time>2007-08-25T08:47:09Z</time>
      </trkpt>
      <trkpt lat="46.443079" lon="14.188951">
        <ele>1763.26794433594</ele>
        <time>2007-08-25T08:47:21Z</time>
      </trkpt>
      <trkpt lat="46.443009" lon="14.188605">
        <ele>1761.13439941406</ele>
        <time>2007-08-25T08:47:42Z</time>
      </trkpt>
      <trkpt lat="46.443196" lon="14.188634">
        <ele>1758.39123535156</ele>
        <time>2007-08-25T08:47:58Z</time>
      </trkpt>
      <trkpt lat="46.44329" lon="14.188659">
        <ele>1755.95275878906</ele>
        <time>2007-08-25T08:48:09Z</time>
      </trkpt>
      <trkpt lat="46.443356" lon="14.188638">
        <ele>1754.1240234375</ele>
        <time>2007-08-25T08:48:20Z</time>
      </trkpt>
      <trkpt lat="46.4434432983398" lon="14.1885967254639">
        <ele>1753.20959472656</ele>
        <time>2007-08-25T08:48:32Z</time>
      </trkpt>
      <trkpt lat="46.4434661865234" lon="14.1885890960693">
        <ele>1751.380859375</ele>
        <time>2007-08-25T08:48:50Z</time>
      </trkpt>
      <trkpt lat="46.443426" lon="14.188572">
        <ele>1750.46643066406</ele>
        <time>2007-08-25T08:49:03Z</time>
      </trkpt>
      <trkpt lat="46.443492" lon="14.188552">
        <ele>1747.11364746094</ele>
        <time>2007-08-25T08:49:32Z</time>
      </trkpt>
      <trkpt lat="46.44357" lon="14.188511">
        <ele>1744.97998046875</ele>
        <time>2007-08-25T08:49:49Z</time>
      </trkpt>
      <trkpt lat="46.44364" lon="14.188481">
        <ele>1742.54162597656</ele>
        <time>2007-08-25T08:50:02Z</time>
      </trkpt>
      <trkpt lat="46.443709" lon="14.18844">
        <ele>1739.79833984375</ele>
        <time>2007-08-25T08:50:12Z</time>
      </trkpt>
      <trkpt lat="46.44377" lon="14.188413">
        <ele>1739.18884277344</ele>
        <time>2007-08-25T08:50:23Z</time>
      </trkpt>
      <trkpt lat="46.443817" lon="14.188416">
        <ele>1739.18884277344</ele>
        <time>2007-08-25T08:50:30Z</time>
      </trkpt>
      <trkpt lat="46.443834" lon="14.18839">
        <ele>1737.35998535156</ele>
        <time>2007-08-25T08:50:49Z</time>
      </trkpt>
      <trkpt lat="46.443815" lon="14.188288">
        <ele>1735.22644042969</ele>
        <time>2007-08-25T08:50:59Z</time>
      </trkpt>
      <trkpt lat="46.443846" lon="14.188157">
        <ele>1732.78796386719</ele>
        <time>2007-08-25T08:51:25Z</time>
      </trkpt>
      <trkpt lat="46.443925" lon="14.188097">
        <ele>1734.61682128906</ele>
        <time>2007-08-25T08:51:35Z</time>
      </trkpt>
      <trkpt lat="46.444003" lon="14.188027">
        <ele>1734.31201171875</ele>
        <time>2007-08-25T08:51:49Z</time>
      </trkpt>
      <trkpt lat="46.444027" lon="14.188013">
        <ele>1735.83605957031</ele>
        <time>2007-08-25T08:51:55Z</time>
      </trkpt>
      <trkpt lat="46.444098" lon="14.187997">
        <ele>1734.31201171875</ele>
        <time>2007-08-25T08:52:10Z</time>
      </trkpt>
      <trkpt lat="46.444127" lon="14.187953">
        <ele>1732.48315429687</ele>
        <time>2007-08-25T08:52:32Z</time>
      </trkpt>
      <trkpt lat="46.444176" lon="14.187931">
        <ele>1729.13037109375</ele>
        <time>2007-08-25T08:52:40Z</time>
      </trkpt>
      <trkpt lat="46.444181" lon="14.187931">
        <ele>1729.43518066406</ele>
        <time>2007-08-25T08:52:41Z</time>
      </trkpt>
      <trkpt lat="46.444164" lon="14.187823">
        <ele>1726.08239746094</ele>
        <time>2007-08-25T08:52:58Z</time>
      </trkpt>
      <trkpt lat="46.444205" lon="14.187803">
        <ele>1724.55834960938</ele>
        <time>2007-08-25T08:53:12Z</time>
      </trkpt>
      <trkpt lat="46.444223" lon="14.187708">
        <ele>1721.20556640625</ele>
        <time>2007-08-25T08:53:24Z</time>
      </trkpt>
      <trkpt lat="46.444264" lon="14.187611">
        <ele>1718.15759277344</ele>
        <time>2007-08-25T08:53:36Z</time>
      </trkpt>
      <trkpt lat="46.444396" lon="14.187656">
        <ele>1714.5</ele>
        <time>2007-08-25T08:53:50Z</time>
      </trkpt>
      <trkpt lat="46.444446" lon="14.187638">
        <ele>1711.45202636719</ele>
        <time>2007-08-25T08:54:04Z</time>
      </trkpt>
      <trkpt lat="46.444539" lon="14.187613">
        <ele>1709.01354980469</ele>
        <time>2007-08-25T08:54:18Z</time>
      </trkpt>
      <trkpt lat="46.444585" lon="14.187559">
        <ele>1705.96557617188</ele>
        <time>2007-08-25T08:54:29Z</time>
      </trkpt>
      <trkpt lat="46.444675" lon="14.18753">
        <ele>1703.83203125</ele>
        <time>2007-08-25T08:54:41Z</time>
      </trkpt>
      <trkpt lat="46.444701" lon="14.187533">
        <ele>1703.22241210937</ele>
        <time>2007-08-25T08:54:43Z</time>
      </trkpt>
      <trkpt lat="46.444791" lon="14.187505">
        <ele>1700.47924804687</ele>
        <time>2007-08-25T08:54:55Z</time>
      </trkpt>
      <trkpt lat="46.444818" lon="14.187499">
        <ele>1698.650390625</ele>
        <time>2007-08-25T08:55:00Z</time>
      </trkpt>
      <trkpt lat="46.444859" lon="14.187469">
        <ele>1696.82165527344</ele>
        <time>2007-08-25T08:55:10Z</time>
      </trkpt>
      <trkpt lat="46.444913" lon="14.187436">
        <ele>1694.38317871094</ele>
        <time>2007-08-25T08:55:22Z</time>
      </trkpt>
      <trkpt lat="46.444906" lon="14.187337">
        <ele>1691.33520507813</ele>
        <time>2007-08-25T08:55:33Z</time>
      </trkpt>
      <trkpt lat="46.445035" lon="14.187372">
        <ele>1688.28723144531</ele>
        <time>2007-08-25T08:55:45Z</time>
      </trkpt>
      <trkpt lat="46.445073" lon="14.187347">
        <ele>1686.45837402344</ele>
        <time>2007-08-25T08:55:56Z</time>
      </trkpt>
      <trkpt lat="46.445068" lon="14.187289">
        <ele>1683.10559082031</ele>
        <time>2007-08-25T08:56:10Z</time>
      </trkpt>
      <trkpt lat="46.445162" lon="14.187273">
        <ele>1680.66723632812</ele>
        <time>2007-08-25T08:56:28Z</time>
      </trkpt>
      <trkpt lat="46.445253" lon="14.187299">
        <ele>1679.14318847656</ele>
        <time>2007-08-25T08:56:41Z</time>
      </trkpt>
      <trkpt lat="46.445332" lon="14.187278">
        <ele>1676.40002441406</ele>
        <time>2007-08-25T08:57:04Z</time>
      </trkpt>
      <trkpt lat="46.445333" lon="14.187275">
        <ele>1675.18078613281</ele>
        <time>2007-08-25T08:57:06Z</time>
      </trkpt>
      <trkpt lat="46.445401" lon="14.18727">
        <ele>1672.43762207031</ele>
        <time>2007-08-25T08:57:18Z</time>
      </trkpt>
      <trkpt lat="46.445493" lon="14.187283">
        <ele>1668.17041015625</ele>
        <time>2007-08-25T08:57:30Z</time>
      </trkpt>
      <trkpt lat="46.445569" lon="14.187232">
        <ele>1667.25598144531</ele>
        <time>2007-08-25T08:57:43Z</time>
      </trkpt>
      <trkpt lat="46.445635" lon="14.187154">
        <ele>1665.12243652344</ele>
        <time>2007-08-25T08:57:58Z</time>
      </trkpt>
      <trkpt lat="46.445683" lon="14.187095">
        <ele>1661.76965332031</ele>
        <time>2007-08-25T08:58:06Z</time>
      </trkpt>
      <trkpt lat="46.445684" lon="14.187086">
        <ele>1661.76965332031</ele>
        <time>2007-08-25T08:58:07Z</time>
      </trkpt>
      <trkpt lat="46.445761" lon="14.187006">
        <ele>1660.55041503906</ele>
        <time>2007-08-25T08:58:21Z</time>
      </trkpt>
      <trkpt lat="46.445785" lon="14.187014">
        <ele>1660.55041503906</ele>
        <time>2007-08-25T08:58:24Z</time>
      </trkpt>
      <trkpt lat="46.445875" lon="14.186974">
        <ele>1659.33117675781</ele>
        <time>2007-08-25T08:58:36Z</time>
      </trkpt>
      <trkpt lat="46.445888" lon="14.186861">
        <ele>1660.24560546875</ele>
        <time>2007-08-25T08:58:48Z</time>
      </trkpt>
      <trkpt lat="46.445895" lon="14.186833">
        <ele>1659.94079589844</ele>
        <time>2007-08-25T08:58:51Z</time>
      </trkpt>
      <trkpt lat="46.445948" lon="14.18671">
        <ele>1659.94079589844</ele>
        <time>2007-08-25T08:59:03Z</time>
      </trkpt>
      <trkpt lat="46.445941" lon="14.186564">
        <ele>1659.63598632813</ele>
        <time>2007-08-25T08:59:15Z</time>
      </trkpt>
      <trkpt lat="46.445952" lon="14.186478">
        <ele>1661.76965332031</ele>
        <time>2007-08-25T08:59:22Z</time>
      </trkpt>
      <trkpt lat="46.445988" lon="14.186328">
        <ele>1661.46484375</ele>
        <time>2007-08-25T08:59:37Z</time>
      </trkpt>
      <trkpt lat="46.446038" lon="14.186225">
        <ele>1662.37915039062</ele>
        <time>2007-08-25T08:59:50Z</time>
      </trkpt>
      <trkpt lat="46.446095" lon="14.186091">
        <ele>1661.46484375</ele>
        <time>2007-08-25T09:00:02Z</time>
      </trkpt>
      <trkpt lat="46.446079" lon="14.185909">
        <ele>1662.07434082031</ele>
        <time>2007-08-25T09:00:13Z</time>
      </trkpt>
      <trkpt lat="46.446077" lon="14.18588">
        <ele>1662.37915039062</ele>
        <time>2007-08-25T09:00:15Z</time>
      </trkpt>
      <trkpt lat="46.446145" lon="14.185724">
        <ele>1659.94079589844</ele>
        <time>2007-08-25T09:00:26Z</time>
      </trkpt>
      <trkpt lat="46.446175" lon="14.185652">
        <ele>1660.24560546875</ele>
        <time>2007-08-25T09:00:37Z</time>
      </trkpt>
      <trkpt lat="46.446151" lon="14.185536">
        <ele>1662.37915039062</ele>
        <time>2007-08-25T09:00:46Z</time>
      </trkpt>
      <trkpt lat="46.446157" lon="14.185345">
        <ele>1664.51281738281</ele>
        <time>2007-08-25T09:01:00Z</time>
      </trkpt>
      <trkpt lat="46.446139" lon="14.185209">
        <ele>1665.12243652344</ele>
        <time>2007-08-25T09:01:10Z</time>
      </trkpt>
      <trkpt lat="46.44611" lon="14.185093">
        <ele>1664.81762695313</ele>
        <time>2007-08-25T09:01:22Z</time>
      </trkpt>
      <trkpt lat="46.446094" lon="14.184998">
        <ele>1663.59838867188</ele>
        <time>2007-08-25T09:01:29Z</time>
      </trkpt>
      <trkpt lat="46.44611" lon="14.184838">
        <ele>1664.51281738281</ele>
        <time>2007-08-25T09:01:41Z</time>
      </trkpt>
      <trkpt lat="46.446084" lon="14.184612">
        <ele>1665.12243652344</ele>
        <time>2007-08-25T09:01:58Z</time>
      </trkpt>
      <trkpt lat="46.446047" lon="14.184497">
        <ele>1665.42724609375</ele>
        <time>2007-08-25T09:02:07Z</time>
      </trkpt>
      <trkpt lat="46.445919" lon="14.18441">
        <ele>1664.2080078125</ele>
        <time>2007-08-25T09:02:23Z</time>
      </trkpt>
      <trkpt lat="46.445934" lon="14.184377">
        <ele>1662.98876953125</ele>
        <time>2007-08-25T09:02:42Z</time>
      </trkpt>
      <trkpt lat="46.445971" lon="14.184423">
        <ele>1662.68395996094</ele>
        <time>2007-08-25T09:03:50Z</time>
      </trkpt>
      <trkpt lat="46.445943" lon="14.184376">
        <ele>1659.63598632813</ele>
        <time>2007-08-25T09:11:28Z</time>
      </trkpt>
      <trkpt lat="46.445965" lon="14.184352">
        <ele>1659.94079589844</ele>
        <time>2007-08-25T09:15:43Z</time>
      </trkpt>
      <trkpt lat="46.44605" lon="14.184313">
        <ele>1661.76965332031</ele>
        <time>2007-08-25T09:15:55Z</time>
      </trkpt>
      <trkpt lat="46.446057" lon="14.184174">
        <ele>1662.98876953125</ele>
        <time>2007-08-25T09:16:09Z</time>
      </trkpt>
      <trkpt lat="46.446126" lon="14.183993">
        <ele>1663.59838867188</ele>
        <time>2007-08-25T09:16:29Z</time>
      </trkpt>
      <trkpt lat="46.44612" lon="14.183972">
        <ele>1663.29357910156</ele>
        <time>2007-08-25T09:16:32Z</time>
      </trkpt>
      <trkpt lat="46.446226" lon="14.183833">
        <ele>1663.29357910156</ele>
        <time>2007-08-25T09:16:45Z</time>
      </trkpt>
      <trkpt lat="46.446287" lon="14.18371">
        <ele>1663.29357910156</ele>
        <time>2007-08-25T09:16:56Z</time>
      </trkpt>
      <trkpt lat="46.446332" lon="14.183602">
        <ele>1664.51281738281</ele>
        <time>2007-08-25T09:17:09Z</time>
      </trkpt>
      <trkpt lat="46.446389" lon="14.183453">
        <ele>1665.12243652344</ele>
        <time>2007-08-25T09:17:22Z</time>
      </trkpt>
      <trkpt lat="46.446463" lon="14.183294">
        <ele>1665.73205566406</ele>
        <time>2007-08-25T09:17:38Z</time>
      </trkpt>
      <trkpt lat="46.446476" lon="14.183288">
        <ele>1665.73205566406</ele>
        <time>2007-08-25T09:17:39Z</time>
      </trkpt>
      <trkpt lat="46.446542" lon="14.183281">
        <ele>1666.64636230469</ele>
        <time>2007-08-25T09:17:47Z</time>
      </trkpt>
      <trkpt lat="46.446596" lon="14.183129">
        <ele>1666.03674316406</ele>
        <time>2007-08-25T09:18:01Z</time>
      </trkpt>
      <trkpt lat="46.446606" lon="14.1831">
        <ele>1665.73205566406</ele>
        <time>2007-08-25T09:18:03Z</time>
      </trkpt>
      <trkpt lat="46.446687" lon="14.182939">
        <ele>1665.12243652344</ele>
        <time>2007-08-25T09:18:18Z</time>
      </trkpt>
      <trkpt lat="46.446699" lon="14.18259">
        <ele>1669.99914550781</ele>
        <time>2007-08-25T09:59:05Z</time>
      </trkpt>
      <trkpt lat="46.446586" lon="14.182408">
        <ele>1668.47521972656</ele>
        <time>2007-08-25T09:59:16Z</time>
      </trkpt>
      <trkpt lat="46.446598" lon="14.182285">
        <ele>1666.951171875</ele>
        <time>2007-08-25T09:59:27Z</time>
      </trkpt>
      <trkpt lat="46.4466" lon="14.182222">
        <ele>1666.03674316406</ele>
        <time>2007-08-25T09:59:32Z</time>
      </trkpt>
      <trkpt lat="46.446625" lon="14.18206">
        <ele>1664.51281738281</ele>
        <time>2007-08-25T09:59:46Z</time>
      </trkpt>
      <trkpt lat="46.446538" lon="14.181874">
        <ele>1662.98876953125</ele>
        <time>2007-08-25T09:59:59Z</time>
      </trkpt>
      <trkpt lat="46.446545" lon="14.181791">
        <ele>1661.46484375</ele>
        <time>2007-08-25T10:00:07Z</time>
      </trkpt>
      <trkpt lat="46.446543" lon="14.181649">
        <ele>1659.94079589844</ele>
        <time>2007-08-25T10:00:19Z</time>
      </trkpt>
      <trkpt lat="46.446469" lon="14.181459">
        <ele>1658.11206054687</ele>
        <time>2007-08-25T10:00:32Z</time>
      </trkpt>
      <trkpt lat="46.446346" lon="14.181219">
        <ele>1656.283203125</ele>
        <time>2007-08-25T10:00:48Z</time>
      </trkpt>
      <trkpt lat="46.446301" lon="14.181044">
        <ele>1655.67358398438</ele>
        <time>2007-08-25T10:00:59Z</time>
      </trkpt>
      <trkpt lat="46.446336" lon="14.180841">
        <ele>1653.84484863281</ele>
        <time>2007-08-25T10:01:19Z</time>
      </trkpt>
      <trkpt lat="46.446312" lon="14.180761">
        <ele>1652.32080078125</ele>
        <time>2007-08-25T10:01:29Z</time>
      </trkpt>
      <trkpt lat="46.446296" lon="14.180649">
        <ele>1650.49194335938</ele>
        <time>2007-08-25T10:01:41Z</time>
      </trkpt>
      <trkpt lat="46.446265" lon="14.180468">
        <ele>1648.3583984375</ele>
        <time>2007-08-25T10:01:55Z</time>
      </trkpt>
      <trkpt lat="46.446188" lon="14.180287">
        <ele>1647.74877929687</ele>
        <time>2007-08-25T10:02:05Z</time>
      </trkpt>
      <trkpt lat="46.446075" lon="14.180153">
        <ele>1645.00561523438</ele>
        <time>2007-08-25T10:02:21Z</time>
      </trkpt>
      <trkpt lat="46.446047" lon="14.180139">
        <ele>1643.1767578125</ele>
        <time>2007-08-25T10:02:26Z</time>
      </trkpt>
      <trkpt lat="46.446058" lon="14.18008">
        <ele>1640.12878417969</ele>
        <time>2007-08-25T10:02:40Z</time>
      </trkpt>
      <trkpt lat="46.445975" lon="14.179904">
        <ele>1637.99523925781</ele>
        <time>2007-08-25T10:02:53Z</time>
      </trkpt>
      <trkpt lat="46.44595" lon="14.179896">
        <ele>1637.08081054688</ele>
        <time>2007-08-25T10:02:56Z</time>
      </trkpt>
      <trkpt lat="46.445847" lon="14.17993">
        <ele>1634.94714355469</ele>
        <time>2007-08-25T10:03:08Z</time>
      </trkpt>
      <trkpt lat="46.44576" lon="14.179987">
        <ele>1633.42321777344</ele>
        <time>2007-08-25T10:03:20Z</time>
      </trkpt>
      <trkpt lat="46.445719" lon="14.179998">
        <ele>1630.68005371094</ele>
        <time>2007-08-25T10:03:32Z</time>
      </trkpt>
      <trkpt lat="46.445654" lon="14.180037">
        <ele>1628.85119628906</ele>
        <time>2007-08-25T10:03:44Z</time>
      </trkpt>
      <trkpt lat="46.445638" lon="14.180031">
        <ele>1628.85119628906</ele>
        <time>2007-08-25T10:03:45Z</time>
      </trkpt>
      <trkpt lat="46.445556" lon="14.17999">
        <ele>1627.3271484375</ele>
        <time>2007-08-25T10:03:51Z</time>
      </trkpt>
      <trkpt lat="46.445413" lon="14.180038">
        <ele>1626.10803222656</ele>
        <time>2007-08-25T10:04:03Z</time>
      </trkpt>
      <trkpt lat="46.445388" lon="14.180153">
        <ele>1623.36474609375</ele>
        <time>2007-08-25T10:04:15Z</time>
      </trkpt>
      <trkpt lat="46.445319" lon="14.180248">
        <ele>1620.92639160156</ele>
        <time>2007-08-25T10:04:25Z</time>
      </trkpt>
      <trkpt lat="46.445293" lon="14.180259">
        <ele>1620.62158203125</ele>
        <time>2007-08-25T10:04:27Z</time>
      </trkpt>
      <trkpt lat="46.445202" lon="14.180163">
        <ele>1619.70715332031</ele>
        <time>2007-08-25T10:04:37Z</time>
      </trkpt>
      <trkpt lat="46.445151" lon="14.180026">
        <ele>1618.79284667969</ele>
        <time>2007-08-25T10:04:47Z</time>
      </trkpt>
      <trkpt lat="46.445058" lon="14.179834">
        <ele>1617.87841796875</ele>
        <time>2007-08-25T10:04:56Z</time>
      </trkpt>
      <trkpt lat="46.445003" lon="14.179669">
        <ele>1616.35437011719</ele>
        <time>2007-08-25T10:05:05Z</time>
      </trkpt>
      <trkpt lat="46.444853" lon="14.179357">
        <ele>1615.13525390625</ele>
        <time>2007-08-25T10:05:16Z</time>
      </trkpt>
      <trkpt lat="46.444963" lon="14.179241">
        <ele>1612.69677734375</ele>
        <time>2007-08-25T10:05:28Z</time>
      </trkpt>
      <trkpt lat="46.445002" lon="14.179236">
        <ele>1612.69677734375</ele>
        <time>2007-08-25T10:05:30Z</time>
      </trkpt>
      <trkpt lat="46.444884" lon="14.179039">
        <ele>1609.64880371094</ele>
        <time>2007-08-25T10:05:44Z</time>
      </trkpt>
      <trkpt lat="46.44482" lon="14.178872">
        <ele>1609.03918457031</ele>
        <time>2007-08-25T10:05:50Z</time>
      </trkpt>
      <trkpt lat="46.44476" lon="14.178765">
        <ele>1608.42956542969</ele>
        <time>2007-08-25T10:05:56Z</time>
      </trkpt>
      <trkpt lat="46.444861" lon="14.178614">
        <ele>1606.29602050781</ele>
        <time>2007-08-25T10:06:09Z</time>
      </trkpt>
      <trkpt lat="46.44486" lon="14.178598">
        <ele>1605.68640136719</ele>
        <time>2007-08-25T10:06:10Z</time>
      </trkpt>
      <trkpt lat="46.444901" lon="14.178552">
        <ele>1605.68640136719</ele>
        <time>2007-08-25T10:06:14Z</time>
      </trkpt>
      <trkpt lat="46.444914" lon="14.178468">
        <ele>1602.94323730469</ele>
        <time>2007-08-25T10:06:25Z</time>
      </trkpt>
      <trkpt lat="46.444861" lon="14.178331">
        <ele>1601.72399902344</ele>
        <time>2007-08-25T10:06:34Z</time>
      </trkpt>
      <trkpt lat="46.444822" lon="14.178151">
        <ele>1600.50476074219</ele>
        <time>2007-08-25T10:06:45Z</time>
      </trkpt>
      <trkpt lat="46.444965" lon="14.178113">
        <ele>1599.28564453125</ele>
        <time>2007-08-25T10:06:56Z</time>
      </trkpt>
      <trkpt lat="46.444892" lon="14.177927">
        <ele>1598.06640625</ele>
        <time>2007-08-25T10:07:07Z</time>
      </trkpt>
      <trkpt lat="46.444876" lon="14.177809">
        <ele>1596.84716796875</ele>
        <time>2007-08-25T10:07:17Z</time>
      </trkpt>
      <trkpt lat="46.444772" lon="14.177654">
        <ele>1595.01843261719</ele>
        <time>2007-08-25T10:07:27Z</time>
      </trkpt>
      <trkpt lat="46.444399" lon="14.177228">
        <ele>1591.97045898437</ele>
        <time>2007-08-25T10:07:40Z</time>
      </trkpt>
      <trkpt lat="46.44439" lon="14.17712">
        <ele>1590.1416015625</ele>
        <time>2007-08-25T10:07:49Z</time>
      </trkpt>
      <trkpt lat="46.444333" lon="14.176923">
        <ele>1588.61755371094</ele>
        <time>2007-08-25T10:07:59Z</time>
      </trkpt>
      <trkpt lat="46.444267" lon="14.176722">
        <ele>1585.87438964844</ele>
        <time>2007-08-25T10:08:12Z</time>
      </trkpt>
      <trkpt lat="46.444259" lon="14.176645">
        <ele>1584.04565429687</ele>
        <time>2007-08-25T10:08:18Z</time>
      </trkpt>
      <trkpt lat="46.444656" lon="14.176665">
        <ele>1582.216796875</ele>
        <time>2007-08-25T10:08:28Z</time>
      </trkpt>
      <trkpt lat="46.444527" lon="14.176389">
        <ele>1580.38793945313</ele>
        <time>2007-08-25T10:08:41Z</time>
      </trkpt>
      <trkpt lat="46.44453" lon="14.176378">
        <ele>1580.08325195312</ele>
        <time>2007-08-25T10:08:43Z</time>
      </trkpt>
      <trkpt lat="46.44459" lon="14.176376">
        <ele>1577.94958496094</ele>
        <time>2007-08-25T10:08:56Z</time>
      </trkpt>
      <trkpt lat="46.444737" lon="14.176452">
        <ele>1574.90161132812</ele>
        <time>2007-08-25T10:09:08Z</time>
      </trkpt>
      <trkpt lat="46.444773" lon="14.176501">
        <ele>1573.07275390625</ele>
        <time>2007-08-25T10:09:12Z</time>
      </trkpt>
      <trkpt lat="46.444611" lon="14.176429">
        <ele>1570.02478027344</ele>
        <time>2007-08-25T10:09:23Z</time>
      </trkpt>
      <trkpt lat="46.444583" lon="14.176404">
        <ele>1569.1103515625</ele>
        <time>2007-08-25T10:09:33Z</time>
      </trkpt>
      <trkpt lat="46.444691" lon="14.176277">
        <ele>1567.28161621094</ele>
        <time>2007-08-25T10:09:45Z</time>
      </trkpt>
      <trkpt lat="46.444638" lon="14.176258">
        <ele>1566.67199707031</ele>
        <time>2007-08-25T10:09:49Z</time>
      </trkpt>
      <trkpt lat="46.444547" lon="14.176192">
        <ele>1563.92883300781</ele>
        <time>2007-08-25T10:10:01Z</time>
      </trkpt>
      <trkpt lat="46.444504" lon="14.176101">
        <ele>1562.70959472656</ele>
        <time>2007-08-25T10:10:12Z</time>
      </trkpt>
      <trkpt lat="46.444605" lon="14.176112">
        <ele>1560.880859375</ele>
        <time>2007-08-25T10:10:15Z</time>
      </trkpt>
      <trkpt lat="46.444635" lon="14.175925">
        <ele>1559.66162109375</ele>
        <time>2007-08-25T10:10:28Z</time>
      </trkpt>
      <trkpt lat="46.444592" lon="14.175782">
        <ele>1556.61364746094</ele>
        <time>2007-08-25T10:10:48Z</time>
      </trkpt>
      <trkpt lat="46.444497" lon="14.17574">
        <ele>1556.30883789062</ele>
        <time>2007-08-25T10:10:55Z</time>
      </trkpt>
      <trkpt lat="46.444491" lon="14.175814">
        <ele>1554.47998046875</ele>
        <time>2007-08-25T10:11:06Z</time>
      </trkpt>
      <trkpt lat="46.444603" lon="14.175716">
        <ele>1552.9560546875</ele>
        <time>2007-08-25T10:11:14Z</time>
      </trkpt>
      <trkpt lat="46.444354" lon="14.175587">
        <ele>1550.21276855469</ele>
        <time>2007-08-25T10:11:29Z</time>
      </trkpt>
      <trkpt lat="46.444225" lon="14.175551">
        <ele>1548.07922363281</ele>
        <time>2007-08-25T10:11:35Z</time>
      </trkpt>
      <trkpt lat="46.444389" lon="14.175504">
        <ele>1545.33605957031</ele>
        <time>2007-08-25T10:11:46Z</time>
      </trkpt>
      <trkpt lat="46.444402" lon="14.175377">
        <ele>1543.81201171875</ele>
        <time>2007-08-25T10:11:54Z</time>
      </trkpt>
      <trkpt lat="46.444472" lon="14.175213">
        <ele>1540.76403808594</ele>
        <time>2007-08-25T10:12:11Z</time>
      </trkpt>
      <trkpt lat="46.444517" lon="14.175107">
        <ele>1539.54479980469</ele>
        <time>2007-08-25T10:12:23Z</time>
      </trkpt>
      <trkpt lat="46.444461" lon="14.17506">
        <ele>1537.71594238281</ele>
        <time>2007-08-25T10:12:38Z</time>
      </trkpt>
      <trkpt lat="46.444443" lon="14.174934">
        <ele>1536.49682617187</ele>
        <time>2007-08-25T10:12:48Z</time>
      </trkpt>
      <trkpt lat="46.444553" lon="14.174928">
        <ele>1534.97277832031</ele>
        <time>2007-08-25T10:12:52Z</time>
      </trkpt>
      <trkpt lat="46.444551" lon="14.174919">
        <ele>1534.66796875</ele>
        <time>2007-08-25T10:12:53Z</time>
      </trkpt>
      <trkpt lat="46.444622" lon="14.174798">
        <ele>1531.9248046875</ele>
        <time>2007-08-25T10:13:03Z</time>
      </trkpt>
      <trkpt lat="46.44457" lon="14.174715">
        <ele>1530.40075683594</ele>
        <time>2007-08-25T10:13:11Z</time>
      </trkpt>
      <trkpt lat="46.444544" lon="14.174629">
        <ele>1529.181640625</ele>
        <time>2007-08-25T10:13:21Z</time>
      </trkpt>
      <trkpt lat="46.44455" lon="14.174499">
        <ele>1527.04797363281</ele>
        <time>2007-08-25T10:13:35Z</time>
      </trkpt>
      <trkpt lat="46.444732" lon="14.174483">
        <ele>1525.52404785156</ele>
        <time>2007-08-25T10:13:42Z</time>
      </trkpt>
      <trkpt lat="46.444889" lon="14.17442">
        <ele>1523.08557128906</ele>
        <time>2007-08-25T10:13:50Z</time>
      </trkpt>
      <trkpt lat="46.444979" lon="14.174283">
        <ele>1521.86645507813</ele>
        <time>2007-08-25T10:14:04Z</time>
      </trkpt>
      <trkpt lat="46.444924" lon="14.174208">
        <ele>1519.12316894531</ele>
        <time>2007-08-25T10:14:18Z</time>
      </trkpt>
      <trkpt lat="46.445051" lon="14.174196">
        <ele>1517.59924316406</ele>
        <time>2007-08-25T10:14:25Z</time>
      </trkpt>
      <trkpt lat="46.44508" lon="14.174139">
        <ele>1516.68481445313</ele>
        <time>2007-08-25T10:14:27Z</time>
      </trkpt>
      <trkpt lat="46.444976" lon="14.174011">
        <ele>1513.94165039062</ele>
        <time>2007-08-25T10:14:41Z</time>
      </trkpt>
      <trkpt lat="46.444932" lon="14.174012">
        <ele>1513.33203125</ele>
        <time>2007-08-25T10:14:43Z</time>
      </trkpt>
      <trkpt lat="46.444926" lon="14.173994">
        <ele>1510.8935546875</ele>
        <time>2007-08-25T10:14:59Z</time>
      </trkpt>
      <trkpt lat="46.444914" lon="14.173937">
        <ele>1510.28405761719</ele>
        <time>2007-08-25T10:15:06Z</time>
      </trkpt>
      <trkpt lat="46.445004" lon="14.173875">
        <ele>1509.36962890625</ele>
        <time>2007-08-25T10:15:18Z</time>
      </trkpt>
      <trkpt lat="46.444962" lon="14.173849">
        <ele>1505.71203613281</ele>
        <time>2007-08-25T10:15:26Z</time>
      </trkpt>
      <trkpt lat="46.444806" lon="14.173844">
        <ele>1505.71203613281</ele>
        <time>2007-08-25T10:15:35Z</time>
      </trkpt>
      <trkpt lat="46.444791" lon="14.173655">
        <ele>1502.66394042969</ele>
        <time>2007-08-25T10:15:51Z</time>
      </trkpt>
      <trkpt lat="46.444546" lon="14.173459">
        <ele>1499.92077636719</ele>
        <time>2007-08-25T10:16:09Z</time>
      </trkpt>
      <trkpt lat="46.444596" lon="14.173377">
        <ele>1497.482421875</ele>
        <time>2007-08-25T10:16:21Z</time>
      </trkpt>
      <trkpt lat="46.444769" lon="14.173348">
        <ele>1494.7392578125</ele>
        <time>2007-08-25T10:16:32Z</time>
      </trkpt>
      <trkpt lat="46.44451" lon="14.173329">
        <ele>1492.60559082031</ele>
        <time>2007-08-25T10:16:49Z</time>
      </trkpt>
      <trkpt lat="46.444517" lon="14.173323">
        <ele>1492.30078125</ele>
        <time>2007-08-25T10:16:50Z</time>
      </trkpt>
      <trkpt lat="46.44439" lon="14.173392">
        <ele>1491.69116210938</ele>
        <time>2007-08-25T10:17:00Z</time>
      </trkpt>
      <trkpt lat="46.444113" lon="14.173181">
        <ele>1468.5263671875</ele>
        <time>2007-08-25T10:21:23Z</time>
      </trkpt>
      <trkpt lat="46.444353" lon="14.173169">
        <ele>1467.30725097656</ele>
        <time>2007-08-25T10:21:33Z</time>
      </trkpt>
      <trkpt lat="46.444372" lon="14.173128">
        <ele>1467.30725097656</ele>
        <time>2007-08-25T10:21:44Z</time>
      </trkpt>
      <trkpt lat="46.444524" lon="14.173116">
        <ele>1469.44079589844</ele>
        <time>2007-08-25T10:21:59Z</time>
      </trkpt>
      <trkpt lat="46.444402" lon="14.173047">
        <ele>1472.48876953125</ele>
        <time>2007-08-25T10:22:15Z</time>
      </trkpt>
      <trkpt lat="46.444277" lon="14.172992">
        <ele>1474.01281738281</ele>
        <time>2007-08-25T10:22:26Z</time>
      </trkpt>
      <trkpt lat="46.444123" lon="14.17292">
        <ele>1475.84155273437</ele>
        <time>2007-08-25T10:22:37Z</time>
      </trkpt>
      <trkpt lat="46.444121" lon="14.172817">
        <ele>1478.28002929688</ele>
        <time>2007-08-25T10:22:49Z</time>
      </trkpt>
      <trkpt lat="46.443969" lon="14.172742">
        <ele>1481.6328125</ele>
        <time>2007-08-25T10:23:08Z</time>
      </trkpt>
      <trkpt lat="46.443624" lon="14.17277">
        <ele>1483.46154785156</ele>
        <time>2007-08-25T10:23:28Z</time>
      </trkpt>
      <trkpt lat="46.443293" lon="14.172696">
        <ele>1484.68078613281</ele>
        <time>2007-08-25T10:23:40Z</time>
      </trkpt>
      <trkpt lat="46.443138" lon="14.172595">
        <ele>1485.59521484375</ele>
        <time>2007-08-25T10:23:55Z</time>
      </trkpt>
      <trkpt lat="46.443057" lon="14.172624">
        <ele>1488.03356933594</ele>
        <time>2007-08-25T10:24:10Z</time>
      </trkpt>
      <trkpt lat="46.442991" lon="14.172715">
        <ele>1491.08154296875</ele>
        <time>2007-08-25T10:24:24Z</time>
      </trkpt>
      <trkpt lat="46.442919" lon="14.172673">
        <ele>1493.21520996094</ele>
        <time>2007-08-25T10:24:39Z</time>
      </trkpt>
      <trkpt lat="46.44289" lon="14.172544">
        <ele>1494.43444824219</ele>
        <time>2007-08-25T10:24:52Z</time>
      </trkpt>
      <trkpt lat="46.442837" lon="14.172481">
        <ele>1495.34875488281</ele>
        <time>2007-08-25T10:25:03Z</time>
      </trkpt>
      <trkpt lat="46.442744" lon="14.172682">
        <ele>1498.39685058594</ele>
        <time>2007-08-25T10:25:26Z</time>
      </trkpt>
      <trkpt lat="46.442878" lon="14.172799">
        <ele>1501.44482421875</ele>
        <time>2007-08-25T10:25:49Z</time>
      </trkpt>
      <trkpt lat="46.442838" lon="14.172808">
        <ele>1502.05444335938</ele>
        <time>2007-08-25T10:25:52Z</time>
      </trkpt>
      <trkpt lat="46.44285" lon="14.172763">
        <ele>1502.96875</ele>
        <time>2007-08-25T10:26:02Z</time>
      </trkpt>
      <trkpt lat="46.442777" lon="14.172606">
        <ele>1506.01684570313</ele>
        <time>2007-08-25T10:26:20Z</time>
      </trkpt>
      <trkpt lat="46.44266" lon="14.172527">
        <ele>1506.01684570313</ele>
        <time>2007-08-25T10:26:33Z</time>
      </trkpt>
      <trkpt lat="46.442612" lon="14.172508">
        <ele>1506.01684570313</ele>
        <time>2007-08-25T10:26:36Z</time>
      </trkpt>
      <trkpt lat="46.442436" lon="14.172469">
        <ele>1508.150390625</ele>
        <time>2007-08-25T10:26:48Z</time>
      </trkpt>
      <trkpt lat="46.442506" lon="14.172439">
        <ele>1509.67443847656</ele>
        <time>2007-08-25T10:26:56Z</time>
      </trkpt>
      <trkpt lat="46.442364" lon="14.172349">
        <ele>1510.58874511719</ele>
        <time>2007-08-25T10:27:16Z</time>
      </trkpt>
      <trkpt lat="46.442283" lon="14.172346">
        <ele>1511.19836425781</ele>
        <time>2007-08-25T10:27:28Z</time>
      </trkpt>
      <trkpt lat="46.442229" lon="14.172516">
        <ele>1514.24645996094</ele>
        <time>2007-08-25T10:27:55Z</time>
      </trkpt>
      <trkpt lat="46.442227" lon="14.172551">
        <ele>1516.38000488281</ele>
        <time>2007-08-25T10:28:03Z</time>
      </trkpt>
      <trkpt lat="46.44231" lon="14.17263">
        <ele>1519.42797851562</ele>
        <time>2007-08-25T10:28:23Z</time>
      </trkpt>
      <trkpt lat="46.442222" lon="14.17265">
        <ele>1520.03759765625</ele>
        <time>2007-08-25T10:28:38Z</time>
      </trkpt>
      <trkpt lat="46.442124" lon="14.172672">
        <ele>1520.03759765625</ele>
        <time>2007-08-25T10:28:42Z</time>
      </trkpt>
      <trkpt lat="46.44202" lon="14.172676">
        <ele>1523.08557128906</ele>
        <time>2007-08-25T10:28:57Z</time>
      </trkpt>
      <trkpt lat="46.441896" lon="14.172726">
        <ele>1524.30480957031</ele>
        <time>2007-08-25T10:29:09Z</time>
      </trkpt>
      <trkpt lat="46.441864" lon="14.172748">
        <ele>1524.30480957031</ele>
        <time>2007-08-25T10:29:20Z</time>
      </trkpt>
      <trkpt lat="46.441586" lon="14.172727">
        <ele>1554.47998046875</ele>
        <time>2007-08-25T10:37:01Z</time>
      </trkpt>
      <trkpt lat="46.441535" lon="14.172621">
        <ele>1557.52795410156</ele>
        <time>2007-08-25T10:37:33Z</time>
      </trkpt>
      <trkpt lat="46.441468" lon="14.172543">
        <ele>1558.13757324219</ele>
        <time>2007-08-25T10:37:44Z</time>
      </trkpt>
      <trkpt lat="46.441502" lon="14.172372">
        <ele>1561.49035644531</ele>
        <time>2007-08-25T10:38:16Z</time>
      </trkpt>
      <trkpt lat="46.441419" lon="14.172455">
        <ele>1563.01440429688</ele>
        <time>2007-08-25T10:38:33Z</time>
      </trkpt>
      <trkpt lat="46.441388" lon="14.172499">
        <ele>1564.23364257812</ele>
        <time>2007-08-25T10:38:38Z</time>
      </trkpt>
      <trkpt lat="46.4412384033203" lon="14.1726007461548">
        <ele>1563.31921386719</ele>
        <time>2007-08-25T10:38:48Z</time>
      </trkpt>
      <trkpt lat="46.441286" lon="14.172663">
        <ele>1572.15844726563</ele>
        <time>2007-08-25T10:40:25Z</time>
      </trkpt>
      <trkpt lat="46.441239" lon="14.172637">
        <ele>1575.20642089844</ele>
        <time>2007-08-25T10:40:39Z</time>
      </trkpt>
      <trkpt lat="46.441231" lon="14.172642">
        <ele>1575.51123046875</ele>
        <time>2007-08-25T10:40:43Z</time>
      </trkpt>
      <trkpt lat="46.441209" lon="14.172622">
        <ele>1577.64477539062</ele>
        <time>2007-08-25T10:40:49Z</time>
      </trkpt>
      <trkpt lat="46.441143" lon="14.172556">
        <ele>1580.08325195312</ele>
        <time>2007-08-25T10:41:21Z</time>
      </trkpt>
      <trkpt lat="46.44099" lon="14.172514">
        <ele>1583.13122558594</ele>
        <time>2007-08-25T10:41:58Z</time>
      </trkpt>
      <trkpt lat="46.440943" lon="14.172477">
        <ele>1586.48400878906</ele>
        <time>2007-08-25T10:42:18Z</time>
      </trkpt>
      <trkpt lat="46.440981" lon="14.172541">
        <ele>1589.83679199219</ele>
        <time>2007-08-25T10:42:43Z</time>
      </trkpt>
      <trkpt lat="46.440863" lon="14.172486">
        <ele>1592.57995605469</ele>
        <time>2007-08-25T10:43:41Z</time>
      </trkpt>
      <trkpt lat="46.44081" lon="14.172447">
        <ele>1595.62805175781</ele>
        <time>2007-08-25T10:43:56Z</time>
      </trkpt>
      <trkpt lat="46.440794" lon="14.17243">
        <ele>1596.23754882812</ele>
        <time>2007-08-25T10:43:59Z</time>
      </trkpt>
      <trkpt lat="46.440726" lon="14.172354">
        <ele>1597.45678710937</ele>
        <time>2007-08-25T10:44:12Z</time>
      </trkpt>
      <trkpt lat="46.440671" lon="14.172285">
        <ele>1600.50476074219</ele>
        <time>2007-08-25T10:44:32Z</time>
      </trkpt>
      <trkpt lat="46.440619" lon="14.172303">
        <ele>1604.16235351563</ele>
        <time>2007-08-25T10:44:50Z</time>
      </trkpt>
      <trkpt lat="46.440596" lon="14.172448">
        <ele>1605.68640136719</ele>
        <time>2007-08-25T10:45:14Z</time>
      </trkpt>
      <trkpt lat="46.440606" lon="14.172539">
        <ele>1607.21044921875</ele>
        <time>2007-08-25T10:45:28Z</time>
      </trkpt>
      <trkpt lat="46.440656" lon="14.172557">
        <ele>1607.51525878906</ele>
        <time>2007-08-25T10:45:54Z</time>
      </trkpt>
      <trkpt lat="46.440628" lon="14.172632">
        <ele>1610.56323242187</ele>
        <time>2007-08-25T10:46:14Z</time>
      </trkpt>
      <trkpt lat="46.440578" lon="14.172676">
        <ele>1614.22082519531</ele>
        <time>2007-08-25T10:46:28Z</time>
      </trkpt>
      <trkpt lat="46.440519" lon="14.172553">
        <ele>1616.6591796875</ele>
        <time>2007-08-25T10:46:58Z</time>
      </trkpt>
      <trkpt lat="46.440503" lon="14.172541">
        <ele>1617.87841796875</ele>
        <time>2007-08-25T10:47:00Z</time>
      </trkpt>
      <trkpt lat="46.440455" lon="14.172473">
        <ele>1620.62158203125</ele>
        <time>2007-08-25T10:47:48Z</time>
      </trkpt>
      <trkpt lat="46.440435" lon="14.172483">
        <ele>1623.97436523438</ele>
        <time>2007-08-25T10:48:35Z</time>
      </trkpt>
      <trkpt lat="46.440378" lon="14.172556">
        <ele>1625.80322265625</ele>
        <time>2007-08-25T10:49:03Z</time>
      </trkpt>
      <trkpt lat="46.440321" lon="14.172598">
        <ele>1628.85119628906</ele>
        <time>2007-08-25T10:49:41Z</time>
      </trkpt>
      <trkpt lat="46.440293" lon="14.17262">
        <ele>1632.5087890625</ele>
        <time>2007-08-25T10:49:55Z</time>
      </trkpt>
      <trkpt lat="46.440247" lon="14.17268">
        <ele>1635.251953125</ele>
        <time>2007-08-25T10:50:31Z</time>
      </trkpt>
      <trkpt lat="46.440159" lon="14.172649">
        <ele>1635.86157226563</ele>
        <time>2007-08-25T10:50:55Z</time>
      </trkpt>
      <trkpt lat="46.44005" lon="14.172618">
        <ele>1644.70080566406</ele>
        <time>2007-08-25T11:02:42Z</time>
      </trkpt>
      <trkpt lat="46.44005" lon="14.172518">
        <ele>1641.65283203125</ele>
        <time>2007-08-25T11:03:04Z</time>
      </trkpt>
      <trkpt lat="46.440108" lon="14.172315">
        <ele>1638.60485839844</ele>
        <time>2007-08-25T11:03:40Z</time>
      </trkpt>
      <trkpt lat="46.440065" lon="14.172257">
        <ele>1634.94714355469</ele>
        <time>2007-08-25T11:04:25Z</time>
      </trkpt>
      <trkpt lat="46.440277" lon="14.172022">
        <ele>1631.89916992188</ele>
        <time>2007-08-25T11:05:12Z</time>
      </trkpt>
      <trkpt lat="46.440249" lon="14.171996">
        <ele>1630.98474121094</ele>
        <time>2007-08-25T11:05:24Z</time>
      </trkpt>
      <trkpt lat="46.440298" lon="14.171934">
        <ele>1627.93676757813</ele>
        <time>2007-08-25T11:05:51Z</time>
      </trkpt>
      <trkpt lat="46.440267" lon="14.171879">
        <ele>1627.3271484375</ele>
        <time>2007-08-25T11:06:18Z</time>
      </trkpt>
      <trkpt lat="46.440309" lon="14.171857">
        <ele>1624.88879394531</ele>
        <time>2007-08-25T11:06:45Z</time>
      </trkpt>
      <trkpt lat="46.44027" lon="14.171864">
        <ele>1621.53601074219</ele>
        <time>2007-08-25T11:07:12Z</time>
      </trkpt>
      <trkpt lat="46.440267" lon="14.1717">
        <ele>1619.40234375</ele>
        <time>2007-08-25T11:08:07Z</time>
      </trkpt>
      <trkpt lat="46.4403" lon="14.171606">
        <ele>1617.87841796875</ele>
        <time>2007-08-25T11:08:21Z</time>
      </trkpt>
      <trkpt lat="46.440304" lon="14.171581">
        <ele>1617.26879882813</ele>
        <time>2007-08-25T11:08:41Z</time>
      </trkpt>
      <trkpt lat="46.440314" lon="14.171563">
        <ele>1617.26879882813</ele>
        <time>2007-08-25T11:09:04Z</time>
      </trkpt>
      <trkpt lat="46.440309" lon="14.171612">
        <ele>1615.43994140625</ele>
        <time>2007-08-25T11:09:38Z</time>
      </trkpt>
      <trkpt lat="46.440332" lon="14.171625">
        <ele>1612.08715820312</ele>
        <time>2007-08-25T11:09:45Z</time>
      </trkpt>
      <trkpt lat="46.44038" lon="14.171624">
        <ele>1611.78234863281</ele>
        <time>2007-08-25T11:10:07Z</time>
      </trkpt>
      <trkpt lat="46.440401" lon="14.171642">
        <ele>1609.34399414063</ele>
        <time>2007-08-25T11:10:23Z</time>
      </trkpt>
      <trkpt lat="46.440468" lon="14.171593">
        <ele>1607.51525878906</ele>
        <time>2007-08-25T11:10:45Z</time>
      </trkpt>
      <trkpt lat="46.440501" lon="14.171623">
        <ele>1605.07678222656</ele>
        <time>2007-08-25T11:11:05Z</time>
      </trkpt>
      <trkpt lat="46.440523" lon="14.171512">
        <ele>1601.41918945312</ele>
        <time>2007-08-25T11:11:29Z</time>
      </trkpt>
      <trkpt lat="46.440458" lon="14.171457">
        <ele>1599.89514160156</ele>
        <time>2007-08-25T11:11:43Z</time>
      </trkpt>
      <trkpt lat="46.440475" lon="14.171399">
        <ele>1597.76159667969</ele>
        <time>2007-08-25T11:11:55Z</time>
      </trkpt>
      <trkpt lat="46.440461" lon="14.171314">
        <ele>1594.40881347656</ele>
        <time>2007-08-25T11:12:11Z</time>
      </trkpt>
      <trkpt lat="46.440492" lon="14.171221">
        <ele>1591.97045898437</ele>
        <time>2007-08-25T11:12:33Z</time>
      </trkpt>
      <trkpt lat="46.440567" lon="14.171123">
        <ele>1590.1416015625</ele>
        <time>2007-08-25T11:12:52Z</time>
      </trkpt>
      <trkpt lat="46.44044" lon="14.170938">
        <ele>1588.61755371094</ele>
        <time>2007-08-25T11:13:22Z</time>
      </trkpt>
      <trkpt lat="46.440549" lon="14.17084">
        <ele>1585.56958007813</ele>
        <time>2007-08-25T11:13:37Z</time>
      </trkpt>
      <trkpt lat="46.440693" lon="14.170912">
        <ele>1583.43603515625</ele>
        <time>2007-08-25T11:13:58Z</time>
      </trkpt>
      <trkpt lat="46.440735" lon="14.170882">
        <ele>1580.38793945313</ele>
        <time>2007-08-25T11:14:37Z</time>
      </trkpt>
      <trkpt lat="46.440686" lon="14.170893">
        <ele>1577.33996582031</ele>
        <time>2007-08-25T11:14:53Z</time>
      </trkpt>
      <trkpt lat="46.440695" lon="14.170883">
        <ele>1574.2919921875</ele>
        <time>2007-08-25T11:15:04Z</time>
      </trkpt>
      <trkpt lat="46.440782" lon="14.170804">
        <ele>1570.93920898438</ele>
        <time>2007-08-25T11:15:42Z</time>
      </trkpt>
      <trkpt lat="46.440747" lon="14.170714">
        <ele>1567.89123535156</ele>
        <time>2007-08-25T11:16:01Z</time>
      </trkpt>
      <trkpt lat="46.440801" lon="14.170727">
        <ele>1564.23364257812</ele>
        <time>2007-08-25T11:16:28Z</time>
      </trkpt>
      <trkpt lat="46.44078" lon="14.170661">
        <ele>1563.92883300781</ele>
        <time>2007-08-25T11:16:42Z</time>
      </trkpt>
      <trkpt lat="46.44076" lon="14.170621">
        <ele>1561.49035644531</ele>
        <time>2007-08-25T11:16:55Z</time>
      </trkpt>
      <trkpt lat="46.440712" lon="14.170563">
        <ele>1558.13757324219</ele>
        <time>2007-08-25T11:17:11Z</time>
      </trkpt>
      <trkpt lat="46.440709" lon="14.170488">
        <ele>1557.83276367188</ele>
        <time>2007-08-25T11:17:27Z</time>
      </trkpt>
      <trkpt lat="46.440712" lon="14.170463">
        <ele>1556.91845703125</ele>
        <time>2007-08-25T11:17:32Z</time>
      </trkpt>
      <trkpt lat="46.44072" lon="14.170407">
        <ele>1554.47998046875</ele>
        <time>2007-08-25T11:17:50Z</time>
      </trkpt>
      <trkpt lat="46.440713" lon="14.170289">
        <ele>1551.43200683594</ele>
        <time>2007-08-25T11:18:06Z</time>
      </trkpt>
      <trkpt lat="46.440742" lon="14.170231">
        <ele>1549.29833984375</ele>
        <time>2007-08-25T11:18:21Z</time>
      </trkpt>
      <trkpt lat="46.44076" lon="14.170144">
        <ele>1547.16479492188</ele>
        <time>2007-08-25T11:18:38Z</time>
      </trkpt>
      <trkpt lat="46.440777" lon="14.170121">
        <ele>1543.81201171875</ele>
        <time>2007-08-25T11:18:49Z</time>
      </trkpt>
      <trkpt lat="46.440831" lon="14.170081">
        <ele>1541.98315429687</ele>
        <time>2007-08-25T11:19:08Z</time>
      </trkpt>
      <trkpt lat="46.440852" lon="14.170086">
        <ele>1538.63037109375</ele>
        <time>2007-08-25T11:19:24Z</time>
      </trkpt>
      <trkpt lat="46.440816" lon="14.169959">
        <ele>1536.80163574219</ele>
        <time>2007-08-25T11:19:48Z</time>
      </trkpt>
      <trkpt lat="46.440764" lon="14.169909">
        <ele>1534.66796875</ele>
        <time>2007-08-25T11:20:03Z</time>
      </trkpt>
      <trkpt lat="46.440689" lon="14.169864">
        <ele>1534.36315917969</ele>
        <time>2007-08-25T11:20:18Z</time>
      </trkpt>
      <trkpt lat="46.440639" lon="14.169889">
        <ele>1534.66796875</ele>
        <time>2007-08-25T11:20:34Z</time>
      </trkpt>
      <trkpt lat="46.44061" lon="14.169916">
        <ele>1536.19201660156</ele>
        <time>2007-08-25T11:20:51Z</time>
      </trkpt>
      <trkpt lat="46.440595" lon="14.169934">
        <ele>1539.849609375</ele>
        <time>2007-08-25T11:21:04Z</time>
      </trkpt>
      <trkpt lat="46.44058" lon="14.169939">
        <ele>1538.63037109375</ele>
        <time>2007-08-25T11:21:26Z</time>
      </trkpt>
      <trkpt lat="46.440567" lon="14.169956">
        <ele>1538.93518066406</ele>
        <time>2007-08-25T11:21:52Z</time>
      </trkpt>
      <trkpt lat="46.440556" lon="14.169916">
        <ele>1538.63037109375</ele>
        <time>2007-08-25T11:22:25Z</time>
      </trkpt>
      <trkpt lat="46.440609" lon="14.169921">
        <ele>1537.1064453125</ele>
        <time>2007-08-25T11:25:34Z</time>
      </trkpt>
      <trkpt lat="46.440645" lon="14.169886">
        <ele>1540.15441894531</ele>
        <time>2007-08-25T11:30:16Z</time>
      </trkpt>
      <trkpt lat="46.440543" lon="14.169904">
        <ele>1543.50720214844</ele>
        <time>2007-08-25T11:30:26Z</time>
      </trkpt>
      <trkpt lat="46.440478" lon="14.169937">
        <ele>1547.16479492188</ele>
        <time>2007-08-25T11:30:39Z</time>
      </trkpt>
      <trkpt lat="46.44044" lon="14.169915">
        <ele>1548.07922363281</ele>
        <time>2007-08-25T11:30:46Z</time>
      </trkpt>
      <trkpt lat="46.440422" lon="14.169923">
        <ele>1549.29833984375</ele>
        <time>2007-08-25T11:30:48Z</time>
      </trkpt>
      <trkpt lat="46.440337" lon="14.169936">
        <ele>1552.34643554688</ele>
        <time>2007-08-25T11:31:14Z</time>
      </trkpt>
      <trkpt lat="46.440148" lon="14.170002">
        <ele>1580.99755859375</ele>
        <time>2007-08-25T11:35:51Z</time>
      </trkpt>
      <trkpt lat="46.440089" lon="14.170042">
        <ele>1582.216796875</ele>
        <time>2007-08-25T11:36:06Z</time>
      </trkpt>
      <trkpt lat="46.44" lon="14.169997">
        <ele>1585.26477050781</ele>
        <time>2007-08-25T11:36:16Z</time>
      </trkpt>
      <trkpt lat="46.439823" lon="14.170066">
        <ele>1588.31274414062</ele>
        <time>2007-08-25T11:37:12Z</time>
      </trkpt>
      <trkpt lat="46.439878" lon="14.170127">
        <ele>1591.36083984375</ele>
        <time>2007-08-25T11:37:42Z</time>
      </trkpt>
      <trkpt lat="46.439828" lon="14.170201">
        <ele>1594.40881347656</ele>
        <time>2007-08-25T11:38:21Z</time>
      </trkpt>
      <trkpt lat="46.439812" lon="14.170273">
        <ele>1650.79675292969</ele>
        <time>2007-08-25T11:48:48Z</time>
      </trkpt>
      <trkpt lat="46.439771" lon="14.170279">
        <ele>1654.14965820312</ele>
        <time>2007-08-25T11:49:12Z</time>
      </trkpt>
      <trkpt lat="46.43975" lon="14.170319">
        <ele>1657.19763183594</ele>
        <time>2007-08-25T11:49:29Z</time>
      </trkpt>
      <trkpt lat="46.439645" lon="14.170409">
        <ele>1657.80725097656</ele>
        <time>2007-08-25T11:49:51Z</time>
      </trkpt>
      <trkpt lat="46.439661" lon="14.170472">
        <ele>1659.94079589844</ele>
        <time>2007-08-25T11:50:05Z</time>
      </trkpt>
      <trkpt lat="46.439686" lon="14.170491">
        <ele>1662.07434082031</ele>
        <time>2007-08-25T11:50:14Z</time>
      </trkpt>
      <trkpt lat="46.439661" lon="14.170375">
        <ele>1665.12243652344</ele>
        <time>2007-08-25T11:51:12Z</time>
      </trkpt>
      <trkpt lat="46.439615" lon="14.170341">
        <ele>1668.47521972656</ele>
        <time>2007-08-25T11:51:35Z</time>
      </trkpt>
      <trkpt lat="46.439665" lon="14.170353">
        <ele>1671.52319335937</ele>
        <time>2007-08-25T11:51:44Z</time>
      </trkpt>
      <trkpt lat="46.439578" lon="14.170299">
        <ele>1674.8759765625</ele>
        <time>2007-08-25T11:52:48Z</time>
      </trkpt>
      <trkpt lat="46.439567" lon="14.170323">
        <ele>1678.22875976563</ele>
        <time>2007-08-25T11:53:20Z</time>
      </trkpt>
      <trkpt lat="46.439556" lon="14.170294">
        <ele>1680.66723632812</ele>
        <time>2007-08-25T11:53:33Z</time>
      </trkpt>
      <trkpt lat="46.439549" lon="14.170248">
        <ele>1684.02001953125</ele>
        <time>2007-08-25T11:53:47Z</time>
      </trkpt>
      <trkpt lat="46.439466" lon="14.170185">
        <ele>1687.06799316406</ele>
        <time>2007-08-25T11:54:40Z</time>
      </trkpt>
      <trkpt lat="46.439451" lon="14.170232">
        <ele>1690.11596679687</ele>
        <time>2007-08-25T11:55:13Z</time>
      </trkpt>
      <trkpt lat="46.439467" lon="14.170244">
        <ele>1693.46875</ele>
        <time>2007-08-25T11:55:25Z</time>
      </trkpt>
      <trkpt lat="46.439475" lon="14.170262">
        <ele>1698.04077148438</ele>
        <time>2007-08-25T11:55:36Z</time>
      </trkpt>
      <trkpt lat="46.439381" lon="14.170202">
        <ele>1701.08874511719</ele>
        <time>2007-08-25T11:57:19Z</time>
      </trkpt>
      <trkpt lat="46.439367" lon="14.170173">
        <ele>1704.74645996094</ele>
        <time>2007-08-25T11:57:30Z</time>
      </trkpt>
      <trkpt lat="46.4394" lon="14.170164">
        <ele>1704.44165039062</ele>
        <time>2007-08-25T11:57:46Z</time>
      </trkpt>
      <trkpt lat="46.43935" lon="14.17018">
        <ele>1709.318359375</ele>
        <time>2007-08-25T11:58:11Z</time>
      </trkpt>
      <trkpt lat="46.439349" lon="14.170187">
        <ele>1708.40405273437</ele>
        <time>2007-08-25T11:58:18Z</time>
      </trkpt>
      <trkpt lat="46.439267" lon="14.170207">
        <ele>1709.92797851562</ele>
        <time>2007-08-25T11:58:31Z</time>
      </trkpt>
      <trkpt lat="46.4393" lon="14.170231">
        <ele>1713.28076171875</ele>
        <time>2007-08-25T11:58:46Z</time>
      </trkpt>
      <trkpt lat="46.439312" lon="14.170246">
        <ele>1716.02404785156</ele>
        <time>2007-08-25T11:59:49Z</time>
      </trkpt>
      <trkpt lat="46.439271" lon="14.170252">
        <ele>1719.681640625</ele>
        <time>2007-08-25T12:00:03Z</time>
      </trkpt>
      <trkpt lat="46.439292" lon="14.1703">
        <ele>1722.72961425781</ele>
        <time>2007-08-25T12:00:48Z</time>
      </trkpt>
      <trkpt lat="46.439332" lon="14.170355">
        <ele>1725.16796875</ele>
        <time>2007-08-25T12:01:08Z</time>
      </trkpt>
      <trkpt lat="46.439226" lon="14.170281">
        <ele>1728.82556152344</ele>
        <time>2007-08-25T12:01:35Z</time>
      </trkpt>
      <trkpt lat="46.439231" lon="14.170211">
        <ele>1732.48315429687</ele>
        <time>2007-08-25T12:01:56Z</time>
      </trkpt>
      <trkpt lat="46.439166" lon="14.170209">
        <ele>1734.31201171875</ele>
        <time>2007-08-25T12:02:38Z</time>
      </trkpt>
      <trkpt lat="46.439161" lon="14.170207">
        <ele>1737.96960449219</ele>
        <time>2007-08-25T12:02:56Z</time>
      </trkpt>
      <trkpt lat="46.439154" lon="14.170218">
        <ele>1737.66479492188</ele>
        <time>2007-08-25T12:03:02Z</time>
      </trkpt>
      <trkpt lat="46.439147" lon="14.170202">
        <ele>1738.57922363281</ele>
        <time>2007-08-25T12:03:17Z</time>
      </trkpt>
      <trkpt lat="46.439143" lon="14.170205">
        <ele>1737.96960449219</ele>
        <time>2007-08-25T12:04:17Z</time>
      </trkpt>
      <trkpt lat="46.4391" lon="14.1702">
        <ele>1740.40795898437</ele>
        <time>2007-08-25T12:04:47Z</time>
      </trkpt>
      <trkpt lat="46.439097" lon="14.170208">
        <ele>1741.62719726562</ele>
        <time>2007-08-25T12:05:02Z</time>
      </trkpt>
      <trkpt lat="46.439068" lon="14.170195">
        <ele>1742.84643554688</ele>
        <time>2007-08-25T12:05:06Z</time>
      </trkpt>
      <trkpt lat="46.439057" lon="14.170217">
        <ele>1746.19921875</ele>
        <time>2007-08-25T12:05:24Z</time>
      </trkpt>
      <trkpt lat="46.439038" lon="14.170213">
        <ele>1748.33276367188</ele>
        <time>2007-08-25T12:05:38Z</time>
      </trkpt>
      <trkpt lat="46.438995" lon="14.17013">
        <ele>1751.380859375</ele>
        <time>2007-08-25T12:06:11Z</time>
      </trkpt>
      <trkpt lat="46.439011" lon="14.170224">
        <ele>1754.73364257812</ele>
        <time>2007-08-25T12:06:29Z</time>
      </trkpt>
      <trkpt lat="46.439052" lon="14.170281">
        <ele>1757.78161621094</ele>
        <time>2007-08-25T12:06:46Z</time>
      </trkpt>
      <trkpt lat="46.439054" lon="14.170367">
        <ele>1760.82958984375</ele>
        <time>2007-08-25T12:07:09Z</time>
      </trkpt>
      <trkpt lat="46.439002" lon="14.170395">
        <ele>1763.26794433594</ele>
        <time>2007-08-25T12:07:57Z</time>
      </trkpt>
      <trkpt lat="46.438952" lon="14.170382">
        <ele>1766.31604003906</ele>
        <time>2007-08-25T12:08:19Z</time>
      </trkpt>
      <trkpt lat="46.438926" lon="14.170384">
        <ele>1769.66882324219</ele>
        <time>2007-08-25T12:08:38Z</time>
      </trkpt>
      <trkpt lat="46.438889" lon="14.170385">
        <ele>1772.716796875</ele>
        <time>2007-08-25T12:08:53Z</time>
      </trkpt>
      <trkpt lat="46.438882" lon="14.170333">
        <ele>1775.4599609375</ele>
        <time>2007-08-25T12:09:23Z</time>
      </trkpt>
      <trkpt lat="46.438833" lon="14.170322">
        <ele>1778.50805664062</ele>
        <time>2007-08-25T12:09:44Z</time>
      </trkpt>
      <trkpt lat="46.438809" lon="14.170288">
        <ele>1779.42236328125</ele>
        <time>2007-08-25T12:09:57Z</time>
      </trkpt>
      <trkpt lat="46.43878" lon="14.170305">
        <ele>1782.47045898437</ele>
        <time>2007-08-25T12:10:41Z</time>
      </trkpt>
      <trkpt lat="46.438775" lon="14.170324">
        <ele>1785.8232421875</ele>
        <time>2007-08-25T12:10:59Z</time>
      </trkpt>
      <trkpt lat="46.438759" lon="14.170367">
        <ele>1788.87121582031</ele>
        <time>2007-08-25T12:11:20Z</time>
      </trkpt>
      <trkpt lat="46.438724" lon="14.170365">
        <ele>1791.61437988281</ele>
        <time>2007-08-25T12:11:46Z</time>
      </trkpt>
      <trkpt lat="46.438689" lon="14.170386">
        <ele>1794.66235351563</ele>
        <time>2007-08-25T12:12:01Z</time>
      </trkpt>
      <trkpt lat="46.438719" lon="14.170405">
        <ele>1796.4912109375</ele>
        <time>2007-08-25T12:12:28Z</time>
      </trkpt>
      <trkpt lat="46.438648" lon="14.170403">
        <ele>1797.10083007812</ele>
        <time>2007-08-25T12:12:48Z</time>
      </trkpt>
      <trkpt lat="46.438566" lon="14.170368">
        <ele>1799.234375</ele>
        <time>2007-08-25T12:13:11Z</time>
      </trkpt>
      <trkpt lat="46.438513" lon="14.170282">
        <ele>1802.58715820312</ele>
        <time>2007-08-25T12:13:28Z</time>
      </trkpt>
      <trkpt lat="46.438468" lon="14.170329">
        <ele>1805.33044433594</ele>
        <time>2007-08-25T12:13:57Z</time>
      </trkpt>
      <trkpt lat="46.438464" lon="14.170334">
        <ele>1806.24475097656</ele>
        <time>2007-08-25T12:14:01Z</time>
      </trkpt>
      <trkpt lat="46.438467" lon="14.170363">
        <ele>1807.46398925781</ele>
        <time>2007-08-25T12:14:23Z</time>
      </trkpt>
      <trkpt lat="46.438447" lon="14.170412">
        <ele>1810.51196289062</ele>
        <time>2007-08-25T12:15:00Z</time>
      </trkpt>
      <trkpt lat="46.43844" lon="14.170408">
        <ele>1811.42639160156</ele>
        <time>2007-08-25T12:15:02Z</time>
      </trkpt>
      <trkpt lat="46.438422" lon="14.170386">
        <ele>1812.3408203125</ele>
        <time>2007-08-25T12:15:20Z</time>
      </trkpt>
      <trkpt lat="46.438412" lon="14.170421">
        <ele>1815.99841308594</ele>
        <time>2007-08-25T12:15:33Z</time>
      </trkpt>
      <trkpt lat="46.438381" lon="14.170451">
        <ele>1817.5224609375</ele>
        <time>2007-08-25T12:16:10Z</time>
      </trkpt>
      <trkpt lat="46.438352" lon="14.170401">
        <ele>1820.265625</ele>
        <time>2007-08-25T12:16:30Z</time>
      </trkpt>
      <trkpt lat="46.438315" lon="14.170371">
        <ele>1823.61840820312</ele>
        <time>2007-08-25T12:16:41Z</time>
      </trkpt>
      <trkpt lat="46.438294" lon="14.170458">
        <ele>1827.27600097656</ele>
        <time>2007-08-25T12:17:09Z</time>
      </trkpt>
      <trkpt lat="46.438261" lon="14.170446">
        <ele>1828.80004882812</ele>
        <time>2007-08-25T12:17:32Z</time>
      </trkpt>
      <trkpt lat="46.438356" lon="14.170468">
        <ele>1829.71435546875</ele>
        <time>2007-08-25T12:18:18Z</time>
      </trkpt>
      <trkpt lat="46.43829" lon="14.170542">
        <ele>1833.37194824219</ele>
        <time>2007-08-25T12:18:36Z</time>
      </trkpt>
      <trkpt lat="46.43825" lon="14.170526">
        <ele>1836.72485351563</ele>
        <time>2007-08-25T12:18:51Z</time>
      </trkpt>
      <trkpt lat="46.438232" lon="14.170546">
        <ele>1839.77282714844</ele>
        <time>2007-08-25T12:19:08Z</time>
      </trkpt>
      <trkpt lat="46.438214" lon="14.170626">
        <ele>1842.82080078125</ele>
        <time>2007-08-25T12:19:48Z</time>
      </trkpt>
      <trkpt lat="46.438181" lon="14.170675">
        <ele>1846.17358398438</ele>
        <time>2007-08-25T12:20:19Z</time>
      </trkpt>
      <trkpt lat="46.438167" lon="14.170676">
        <ele>1848.61206054687</ele>
        <time>2007-08-25T12:20:41Z</time>
      </trkpt>
      <trkpt lat="46.438172" lon="14.170744">
        <ele>1852.57434082031</ele>
        <time>2007-08-25T12:20:57Z</time>
      </trkpt>
      <trkpt lat="46.438172" lon="14.170748">
        <ele>1852.57434082031</ele>
        <time>2007-08-25T12:20:58Z</time>
      </trkpt>
      <trkpt lat="46.438147" lon="14.170802">
        <ele>1855.62243652344</ele>
        <time>2007-08-25T12:21:20Z</time>
      </trkpt>
      <trkpt lat="46.438102" lon="14.170813">
        <ele>1856.84155273437</ele>
        <time>2007-08-25T12:21:38Z</time>
      </trkpt>
      <trkpt lat="46.437994" lon="14.170854">
        <ele>1858.36560058594</ele>
        <time>2007-08-25T12:21:53Z</time>
      </trkpt>
      <trkpt lat="46.437937" lon="14.170891">
        <ele>1860.49914550781</ele>
        <time>2007-08-25T12:22:12Z</time>
      </trkpt>
      <trkpt lat="46.43796" lon="14.170888">
        <ele>1860.80395507812</ele>
        <time>2007-08-25T12:22:52Z</time>
      </trkpt>
      <trkpt lat="46.437993" lon="14.170888">
        <ele>1859.8896484375</ele>
        <time>2007-08-25T12:27:12Z</time>
      </trkpt>
      <trkpt lat="46.437889" lon="14.170928">
        <ele>1861.71838378906</ele>
        <time>2007-08-25T12:29:25Z</time>
      </trkpt>
      <trkpt lat="46.437841" lon="14.170898">
        <ele>1864.76635742188</ele>
        <time>2007-08-25T12:29:48Z</time>
      </trkpt>
      <trkpt lat="46.437777" lon="14.170889">
        <ele>1865.98559570312</ele>
        <time>2007-08-25T12:30:01Z</time>
      </trkpt>
      <trkpt lat="46.437846" lon="14.170866">
        <ele>1869.03356933594</ele>
        <time>2007-08-25T12:30:33Z</time>
      </trkpt>
      <trkpt lat="46.437811" lon="14.170803">
        <ele>1871.16723632812</ele>
        <time>2007-08-25T12:31:14Z</time>
      </trkpt>
      <trkpt lat="46.437842" lon="14.170794">
        <ele>1874.21520996094</ele>
        <time>2007-08-25T12:31:33Z</time>
      </trkpt>
      <trkpt lat="46.437821" lon="14.170814">
        <ele>1876.95837402344</ele>
        <time>2007-08-25T12:31:49Z</time>
      </trkpt>
      <trkpt lat="46.437835" lon="14.170793">
        <ele>1877.26318359375</ele>
        <time>2007-08-25T12:32:08Z</time>
      </trkpt>
      <trkpt lat="46.437813" lon="14.170772">
        <ele>1878.482421875</ele>
        <time>2007-08-25T12:32:19Z</time>
      </trkpt>
      <trkpt lat="46.437776" lon="14.170834">
        <ele>1876.34875488281</ele>
        <time>2007-08-25T12:33:20Z</time>
      </trkpt>
      <trkpt lat="46.437646" lon="14.170882">
        <ele>1876.0439453125</ele>
        <time>2007-08-25T12:34:05Z</time>
      </trkpt>
      <trkpt lat="46.437619" lon="14.170944">
        <ele>1873.30078125</ele>
        <time>2007-08-25T12:34:41Z</time>
      </trkpt>
      <trkpt lat="46.437583" lon="14.170995">
        <ele>1876.65356445312</ele>
        <time>2007-08-25T12:34:54Z</time>
      </trkpt>
      <trkpt lat="46.4376" lon="14.171011">
        <ele>1880.31115722656</ele>
        <time>2007-08-25T12:35:08Z</time>
      </trkpt>
      <trkpt lat="46.437595" lon="14.171008">
        <ele>1880.61596679687</ele>
        <time>2007-08-25T12:35:09Z</time>
      </trkpt>
      <trkpt lat="46.437454" lon="14.170997">
        <ele>1883.96875</ele>
        <time>2007-08-25T12:36:31Z</time>
      </trkpt>
      <trkpt lat="46.437549" lon="14.170928">
        <ele>1885.79760742187</ele>
        <time>2007-08-25T12:36:54Z</time>
      </trkpt>
      <trkpt lat="46.437538" lon="14.170922">
        <ele>1889.150390625</ele>
        <time>2007-08-25T12:37:01Z</time>
      </trkpt>
      <trkpt lat="46.437476" lon="14.170908">
        <ele>1892.19836425781</ele>
        <time>2007-08-25T12:37:36Z</time>
      </trkpt>
      <trkpt lat="46.43743" lon="14.170927">
        <ele>1891.28405761719</ele>
        <time>2007-08-25T12:38:02Z</time>
      </trkpt>
      <trkpt lat="46.437415" lon="14.170922">
        <ele>1894.63684082031</ele>
        <time>2007-08-25T12:38:19Z</time>
      </trkpt>
      <trkpt lat="46.437414" lon="14.170923">
        <ele>1895.55114746094</ele>
        <time>2007-08-25T12:38:21Z</time>
      </trkpt>
      <trkpt lat="46.437387" lon="14.170987">
        <ele>1898.59924316406</ele>
        <time>2007-08-25T12:38:36Z</time>
      </trkpt>
      <trkpt lat="46.437363" lon="14.170985">
        <ele>1901.64721679688</ele>
        <time>2007-08-25T12:39:10Z</time>
      </trkpt>
      <trkpt lat="46.437306" lon="14.171014">
        <ele>1901.03759765625</ele>
        <time>2007-08-25T12:39:24Z</time>
      </trkpt>
      <trkpt lat="46.437254" lon="14.170953">
        <ele>1904.69519042969</ele>
        <time>2007-08-25T12:39:48Z</time>
      </trkpt>
      <trkpt lat="46.437217" lon="14.170912">
        <ele>1908.04797363281</ele>
        <time>2007-08-25T12:40:13Z</time>
      </trkpt>
      <trkpt lat="46.437223" lon="14.170863">
        <ele>1911.09594726563</ele>
        <time>2007-08-25T12:41:12Z</time>
      </trkpt>
      <trkpt lat="46.437212" lon="14.170806">
        <ele>1914.44885253906</ele>
        <time>2007-08-25T12:41:29Z</time>
      </trkpt>
      <trkpt lat="46.437191" lon="14.170753">
        <ele>1914.44885253906</ele>
        <time>2007-08-25T12:42:25Z</time>
      </trkpt>
      <trkpt lat="46.437148" lon="14.170702">
        <ele>1915.36315917969</ele>
        <time>2007-08-25T12:42:40Z</time>
      </trkpt>
      <trkpt lat="46.437144" lon="14.170683">
        <ele>1915.97277832031</ele>
        <time>2007-08-25T12:42:42Z</time>
      </trkpt>
      <trkpt lat="46.437076" lon="14.170577">
        <ele>1917.80163574219</ele>
        <time>2007-08-25T12:42:58Z</time>
      </trkpt>
      <trkpt lat="46.437022" lon="14.170513">
        <ele>1919.93518066406</ele>
        <time>2007-08-25T12:43:14Z</time>
      </trkpt>
      <trkpt lat="46.437038" lon="14.170583">
        <ele>1922.67834472656</ele>
        <time>2007-08-25T12:43:35Z</time>
      </trkpt>
      <trkpt lat="46.43691" lon="14.170682">
        <ele>1922.98315429687</ele>
        <time>2007-08-25T12:44:22Z</time>
      </trkpt>
      <trkpt lat="46.436873" lon="14.170643">
        <ele>1924.20239257813</ele>
        <time>2007-08-25T12:44:33Z</time>
      </trkpt>
      <trkpt lat="46.436919" lon="14.170559">
        <ele>1927.55517578125</ele>
        <time>2007-08-25T12:44:57Z</time>
      </trkpt>
      <trkpt lat="46.436869" lon="14.170575">
        <ele>1928.7744140625</ele>
        <time>2007-08-25T12:45:14Z</time>
      </trkpt>
      <trkpt lat="46.43685" lon="14.170614">
        <ele>1932.12719726562</ele>
        <time>2007-08-25T12:45:36Z</time>
      </trkpt>
      <trkpt lat="46.436781" lon="14.17063">
        <ele>1932.43200683594</ele>
        <time>2007-08-25T12:46:15Z</time>
      </trkpt>
      <trkpt lat="46.436799" lon="14.170627">
        <ele>1934.2607421875</ele>
        <time>2007-08-25T12:46:47Z</time>
      </trkpt>
      <trkpt lat="46.436764" lon="14.170602">
        <ele>1937.61364746094</ele>
        <time>2007-08-25T12:47:04Z</time>
      </trkpt>
      <trkpt lat="46.436716" lon="14.170578">
        <ele>1940.96643066406</ele>
        <time>2007-08-25T12:47:25Z</time>
      </trkpt>
      <trkpt lat="46.436751" lon="14.170575">
        <ele>1944.01440429688</ele>
        <time>2007-08-25T12:48:26Z</time>
      </trkpt>
      <trkpt lat="46.436727" lon="14.170652">
        <ele>1947.06237792969</ele>
        <time>2007-08-25T12:48:38Z</time>
      </trkpt>
      <trkpt lat="46.436719" lon="14.170633">
        <ele>1949.19604492188</ele>
        <time>2007-08-25T12:48:48Z</time>
      </trkpt>
      <trkpt lat="46.436696" lon="14.170617">
        <ele>1952.24401855469</ele>
        <time>2007-08-25T12:49:00Z</time>
      </trkpt>
      <trkpt lat="46.43666" lon="14.170645">
        <ele>1954.07275390625</ele>
        <time>2007-08-25T12:49:27Z</time>
      </trkpt>
      <trkpt lat="46.436632" lon="14.170637">
        <ele>1956.51123046875</ele>
        <time>2007-08-25T12:50:06Z</time>
      </trkpt>
      <trkpt lat="46.436581" lon="14.170683">
        <ele>1956.51123046875</ele>
        <time>2007-08-25T12:50:21Z</time>
      </trkpt>
      <trkpt lat="46.43653" lon="14.170751">
        <ele>1954.07275390625</ele>
        <time>2007-08-25T12:50:36Z</time>
      </trkpt>
      <trkpt lat="46.436531" lon="14.170725">
        <ele>1957.42565917969</ele>
        <time>2007-08-25T12:51:34Z</time>
      </trkpt>
      <trkpt lat="46.436257" lon="14.170937">
        <ele>1954.07275390625</ele>
        <time>2007-08-25T12:52:36Z</time>
      </trkpt>
      <trkpt lat="46.436152" lon="14.170929">
        <ele>1956.20642089844</ele>
        <time>2007-08-25T12:52:57Z</time>
      </trkpt>
      <trkpt lat="46.436005" lon="14.170931">
        <ele>1957.42565917969</ele>
        <time>2007-08-25T12:53:19Z</time>
      </trkpt>
      <trkpt lat="46.43597" lon="14.170894">
        <ele>1960.4736328125</ele>
        <time>2007-08-25T12:53:33Z</time>
      </trkpt>
      <trkpt lat="46.43597" lon="14.170798">
        <ele>1960.4736328125</ele>
        <time>2007-08-25T12:53:45Z</time>
      </trkpt>
      <trkpt lat="46.435952" lon="14.170792">
        <ele>1960.4736328125</ele>
        <time>2007-08-25T12:54:54Z</time>
      </trkpt>
      <trkpt lat="46.435909" lon="14.170746">
        <ele>1962.30236816406</ele>
        <time>2007-08-25T12:55:11Z</time>
      </trkpt>
      <trkpt lat="46.43589" lon="14.170641">
        <ele>1965.04565429687</ele>
        <time>2007-08-25T12:55:26Z</time>
      </trkpt>
      <trkpt lat="46.43583" lon="14.17068">
        <ele>1965.65515136719</ele>
        <time>2007-08-25T12:55:40Z</time>
      </trkpt>
      <trkpt lat="46.435799" lon="14.170705">
        <ele>1968.70324707031</ele>
        <time>2007-08-25T12:55:52Z</time>
      </trkpt>
      <trkpt lat="46.435774" lon="14.170644">
        <ele>1971.75122070313</ele>
        <time>2007-08-25T12:56:12Z</time>
      </trkpt>
      <trkpt lat="46.435781" lon="14.170573">
        <ele>1971.75122070313</ele>
        <time>2007-08-25T12:56:15Z</time>
      </trkpt>
      <trkpt lat="46.435801" lon="14.170526">
        <ele>1971.1416015625</ele>
        <time>2007-08-25T12:56:28Z</time>
      </trkpt>
      <trkpt lat="46.435823" lon="14.170477">
        <ele>1974.18957519531</ele>
        <time>2007-08-25T12:56:46Z</time>
      </trkpt>
      <trkpt lat="46.435808" lon="14.170469">
        <ele>1974.49438476562</ele>
        <time>2007-08-25T12:56:48Z</time>
      </trkpt>
      <trkpt lat="46.435678" lon="14.170777">
        <ele>1976.3232421875</ele>
        <time>2007-08-25T12:56:55Z</time>
      </trkpt>
      <trkpt lat="46.435675" lon="14.170798">
        <ele>1978.45678710937</ele>
        <time>2007-08-25T12:57:08Z</time>
      </trkpt>
      <trkpt lat="46.435622" lon="14.170859">
        <ele>1981.50476074219</ele>
        <time>2007-08-25T12:57:40Z</time>
      </trkpt>
      <trkpt lat="46.435622" lon="14.170791">
        <ele>1984.55285644531</ele>
        <time>2007-08-25T12:58:32Z</time>
      </trkpt>
      <trkpt lat="46.435588" lon="14.170757">
        <ele>1987.90563964844</ele>
        <time>2007-08-25T12:58:57Z</time>
      </trkpt>
      <trkpt lat="46.435532" lon="14.170792">
        <ele>1990.95361328125</ele>
        <time>2007-08-25T12:59:20Z</time>
      </trkpt>
      <trkpt lat="46.435496" lon="14.17075">
        <ele>1993.39196777344</ele>
        <time>2007-08-25T12:59:37Z</time>
      </trkpt>
      <trkpt lat="46.435464" lon="14.170696">
        <ele>1996.43994140625</ele>
        <time>2007-08-25T13:00:03Z</time>
      </trkpt>
      <trkpt lat="46.435423" lon="14.170724">
        <ele>1996.13525390625</ele>
        <time>2007-08-25T13:00:30Z</time>
      </trkpt>
      <trkpt lat="46.435319" lon="14.170813">
        <ele>1996.43994140625</ele>
        <time>2007-08-25T13:00:43Z</time>
      </trkpt>
      <trkpt lat="46.435375" lon="14.170681">
        <ele>1999.79284667969</ele>
        <time>2007-08-25T13:01:05Z</time>
      </trkpt>
      <trkpt lat="46.435358" lon="14.170641">
        <ele>2002.8408203125</ele>
        <time>2007-08-25T13:01:19Z</time>
      </trkpt>
      <trkpt lat="46.43539" lon="14.170556">
        <ele>2005.88879394531</ele>
        <time>2007-08-25T13:01:30Z</time>
      </trkpt>
      <trkpt lat="46.435299" lon="14.170472">
        <ele>2013.5087890625</ele>
        <time>2007-08-25T13:07:10Z</time>
      </trkpt>
      <trkpt lat="46.4353" lon="14.170458">
        <ele>2015.94714355469</ele>
        <time>2007-08-25T13:07:22Z</time>
      </trkpt>
      <trkpt lat="46.435279" lon="14.170366">
        <ele>2016.55676269531</ele>
        <time>2007-08-25T13:07:49Z</time>
      </trkpt>
      <trkpt lat="46.435131072998" lon="14.1703977584839">
        <ele>2019.90954589844</ele>
        <time>2007-08-25T13:08:07Z</time>
      </trkpt>
      <trkpt lat="46.435208" lon="14.170223">
        <ele>2022.95764160156</ele>
        <time>2007-08-25T13:08:28Z</time>
      </trkpt>
      <trkpt lat="46.435171" lon="14.170107">
        <ele>2022.95764160156</ele>
        <time>2007-08-25T13:08:43Z</time>
      </trkpt>
      <trkpt lat="46.435115" lon="14.170055">
        <ele>2024.78637695312</ele>
        <time>2007-08-25T13:09:00Z</time>
      </trkpt>
      <trkpt lat="46.435063" lon="14.16999">
        <ele>2027.52954101563</ele>
        <time>2007-08-25T13:09:20Z</time>
      </trkpt>
      <trkpt lat="46.435055" lon="14.169985">
        <ele>2027.83435058594</ele>
        <time>2007-08-25T13:09:22Z</time>
      </trkpt>
      <trkpt lat="46.434997" lon="14.169998">
        <ele>2032.40637207031</ele>
        <time>2007-08-25T13:09:34Z</time>
      </trkpt>
      <trkpt lat="46.434986" lon="14.17001">
        <ele>2032.71118164063</ele>
        <time>2007-08-25T13:09:35Z</time>
      </trkpt>
      <trkpt lat="46.434924" lon="14.169984">
        <ele>2035.14965820312</ele>
        <time>2007-08-25T13:10:14Z</time>
      </trkpt>
      <trkpt lat="46.434935" lon="14.170033">
        <ele>2036.36877441406</ele>
        <time>2007-08-25T13:10:45Z</time>
      </trkpt>
      <trkpt lat="46.434986" lon="14.170101">
        <ele>2037.89282226562</ele>
        <time>2007-08-25T13:11:14Z</time>
      </trkpt>
      <trkpt lat="46.434972" lon="14.170139">
        <ele>2039.72155761719</ele>
        <time>2007-08-25T13:11:20Z</time>
      </trkpt>
      <trkpt lat="46.434964" lon="14.170168">
        <ele>2042.46484375</ele>
        <time>2007-08-25T13:11:27Z</time>
      </trkpt>
      <trkpt lat="46.434931" lon="14.170206">
        <ele>2045.51281738281</ele>
        <time>2007-08-25T13:11:45Z</time>
      </trkpt>
      <trkpt lat="46.434913" lon="14.170263">
        <ele>2045.51281738281</ele>
        <time>2007-08-25T13:11:49Z</time>
      </trkpt>
      <trkpt lat="46.434806" lon="14.170345">
        <ele>2061.0576171875</ele>
        <time>2007-08-25T13:14:59Z</time>
      </trkpt>
      <trkpt lat="46.43472" lon="14.170487">
        <ele>2064.10571289063</ele>
        <time>2007-08-25T13:15:24Z</time>
      </trkpt>
      <trkpt lat="46.434707" lon="14.170584">
        <ele>2066.84887695312</ele>
        <time>2007-08-25T13:15:45Z</time>
      </trkpt>
      <trkpt lat="46.43468" lon="14.170514">
        <ele>2069.287109375</ele>
        <time>2007-08-25T13:16:02Z</time>
      </trkpt>
      <trkpt lat="46.434635" lon="14.170635">
        <ele>2072.33520507813</ele>
        <time>2007-08-25T13:16:24Z</time>
      </trkpt>
      <trkpt lat="46.434648" lon="14.170716">
        <ele>2075.07836914062</ele>
        <time>2007-08-25T13:16:38Z</time>
      </trkpt>
      <trkpt lat="46.434615" lon="14.170798">
        <ele>2077.82153320313</ele>
        <time>2007-08-25T13:17:05Z</time>
      </trkpt>
      <trkpt lat="46.434599" lon="14.170829">
        <ele>2081.17431640625</ele>
        <time>2007-08-25T13:17:25Z</time>
      </trkpt>
      <trkpt lat="46.434544" lon="14.170769">
        <ele>2084.22241210938</ele>
        <time>2007-08-25T13:17:41Z</time>
      </trkpt>
      <trkpt lat="46.434483" lon="14.170689">
        <ele>2085.13671875</ele>
        <time>2007-08-25T13:17:57Z</time>
      </trkpt>
      <trkpt lat="46.43443" lon="14.170633">
        <ele>2088.48950195312</ele>
        <time>2007-08-25T13:18:13Z</time>
      </trkpt>
      <trkpt lat="46.434375" lon="14.170586">
        <ele>2090.92797851562</ele>
        <time>2007-08-25T13:18:27Z</time>
      </trkpt>
      <trkpt lat="46.434314" lon="14.170551">
        <ele>2092.7568359375</ele>
        <time>2007-08-25T13:18:43Z</time>
      </trkpt>
      <trkpt lat="46.434262" lon="14.170495">
        <ele>2095.8046875</ele>
        <time>2007-08-25T13:19:06Z</time>
      </trkpt>
      <trkpt lat="46.434262" lon="14.170639">
        <ele>2099.15771484375</ele>
        <time>2007-08-25T13:19:54Z</time>
      </trkpt>
      <trkpt lat="46.434249" lon="14.170749">
        <ele>2101.29125976563</ele>
        <time>2007-08-25T13:20:08Z</time>
      </trkpt>
      <trkpt lat="46.434226" lon="14.170809">
        <ele>2104.33911132812</ele>
        <time>2007-08-25T13:20:24Z</time>
      </trkpt>
      <trkpt lat="46.434179" lon="14.170812">
        <ele>2106.16796875</ele>
        <time>2007-08-25T13:20:38Z</time>
      </trkpt>
      <trkpt lat="46.434157" lon="14.170851">
        <ele>2105.86328125</ele>
        <time>2007-08-25T13:20:53Z</time>
      </trkpt>
      <trkpt lat="46.434125" lon="14.170821">
        <ele>2107.38720703125</ele>
        <time>2007-08-25T13:21:07Z</time>
      </trkpt>
      <trkpt lat="46.434122" lon="14.170855">
        <ele>2110.73999023438</ele>
        <time>2007-08-25T13:21:23Z</time>
      </trkpt>
      <trkpt lat="46.434121" lon="14.170938">
        <ele>2112.56884765625</ele>
        <time>2007-08-25T13:21:40Z</time>
      </trkpt>
      <trkpt lat="46.434113" lon="14.171052">
        <ele>2115.31201171875</ele>
        <time>2007-08-25T13:21:59Z</time>
      </trkpt>
      <trkpt lat="46.434104" lon="14.171047">
        <ele>2118.36010742187</ele>
        <time>2007-08-25T13:22:47Z</time>
      </trkpt>
      <trkpt lat="46.434029" lon="14.170988">
        <ele>2120.49365234375</ele>
        <time>2007-08-25T13:23:02Z</time>
      </trkpt>
      <trkpt lat="46.433945" lon="14.170989">
        <ele>2122.93188476562</ele>
        <time>2007-08-25T13:23:20Z</time>
      </trkpt>
      <trkpt lat="46.433948" lon="14.171047">
        <ele>2124.7607421875</ele>
        <time>2007-08-25T13:23:34Z</time>
      </trkpt>
      <trkpt lat="46.43396" lon="14.1711">
        <ele>2126.58959960937</ele>
        <time>2007-08-25T13:23:48Z</time>
      </trkpt>
      <trkpt lat="46.433934" lon="14.171136">
        <ele>2128.11352539063</ele>
        <time>2007-08-25T13:24:01Z</time>
      </trkpt>
      <trkpt lat="46.433939" lon="14.171161">
        <ele>2128.11352539063</ele>
        <time>2007-08-25T13:24:24Z</time>
      </trkpt>
      <trkpt lat="46.43393" lon="14.171177">
        <ele>2129.6376953125</ele>
        <time>2007-08-25T13:24:53Z</time>
      </trkpt>
      <trkpt lat="46.433939" lon="14.171177">
        <ele>2132.380859375</ele>
        <time>2007-08-25T13:25:43Z</time>
      </trkpt>
      <trkpt lat="46.433963" lon="14.171269">
        <ele>2134.81909179688</ele>
        <time>2007-08-25T13:26:00Z</time>
      </trkpt>
      <trkpt lat="46.433982" lon="14.171295">
        <ele>2135.73364257812</ele>
        <time>2007-08-25T13:26:06Z</time>
      </trkpt>
      <trkpt lat="46.433982" lon="14.171347">
        <ele>2137.5625</ele>
        <time>2007-08-25T13:26:22Z</time>
      </trkpt>
      <trkpt lat="46.433959" lon="14.17134">
        <ele>2139.08642578125</ele>
        <time>2007-08-25T13:26:36Z</time>
      </trkpt>
      <trkpt lat="46.433901" lon="14.171351">
        <ele>2142.13452148437</ele>
        <time>2007-08-25T13:27:02Z</time>
      </trkpt>
      <trkpt lat="46.43388" lon="14.171395">
        <ele>2144.57275390625</ele>
        <time>2007-08-25T13:27:23Z</time>
      </trkpt>
      <trkpt lat="46.433892" lon="14.171427">
        <ele>2147.31591796875</ele>
        <time>2007-08-25T13:27:32Z</time>
      </trkpt>
      <trkpt lat="46.433888" lon="14.171482">
        <ele>2148.53515625</ele>
        <time>2007-08-25T13:27:52Z</time>
      </trkpt>
      <trkpt lat="46.433897" lon="14.171468">
        <ele>2151.88793945313</ele>
        <time>2007-08-25T13:28:18Z</time>
      </trkpt>
      <trkpt lat="46.433849" lon="14.17151">
        <ele>2153.412109375</ele>
        <time>2007-08-25T13:28:34Z</time>
      </trkpt>
      <trkpt lat="46.43386" lon="14.171566">
        <ele>2156.4599609375</ele>
        <time>2007-08-25T13:28:48Z</time>
      </trkpt>
      <trkpt lat="46.433847" lon="14.171611">
        <ele>2157.06958007813</ele>
        <time>2007-08-25T13:29:20Z</time>
      </trkpt>
      <trkpt lat="46.433839" lon="14.171647">
        <ele>2159.203125</ele>
        <time>2007-08-25T13:29:40Z</time>
      </trkpt>
      <trkpt lat="46.433831" lon="14.171696">
        <ele>2162.25122070313</ele>
        <time>2007-08-25T13:29:59Z</time>
      </trkpt>
      <trkpt lat="46.43383" lon="14.171776">
        <ele>2164.384765625</ele>
        <time>2007-08-25T13:30:24Z</time>
      </trkpt>
      <trkpt lat="46.433792" lon="14.171849">
        <ele>2167.1279296875</ele>
        <time>2007-08-25T13:30:39Z</time>
      </trkpt>
      <trkpt lat="46.43376" lon="14.171888">
        <ele>2166.8232421875</ele>
        <time>2007-08-25T13:30:56Z</time>
      </trkpt>
      <trkpt lat="46.433753" lon="14.171914">
        <ele>2168.34716796875</ele>
        <time>2007-08-25T13:33:28Z</time>
      </trkpt>
      <trkpt lat="46.433754" lon="14.171916">
        <ele>2168.65209960937</ele>
        <time>2007-08-25T13:33:45Z</time>
      </trkpt>
      <trkpt lat="46.433754" lon="14.171899">
        <ele>2167.43286132813</ele>
        <time>2007-08-25T13:35:09Z</time>
      </trkpt>
      <trkpt lat="46.433771" lon="14.171924">
        <ele>2169.56640625</ele>
        <time>2007-08-25T13:35:16Z</time>
      </trkpt>
      <trkpt lat="46.433765" lon="14.172014">
        <ele>2173.22412109375</ele>
        <time>2007-08-25T13:35:32Z</time>
      </trkpt>
      <trkpt lat="46.433739" lon="14.172091">
        <ele>2173.83349609375</ele>
        <time>2007-08-25T13:35:48Z</time>
      </trkpt>
      <trkpt lat="46.433778" lon="14.172114">
        <ele>2175.66235351563</ele>
        <time>2007-08-25T13:36:05Z</time>
      </trkpt>
      <trkpt lat="46.433826" lon="14.172157">
        <ele>2178.10083007812</ele>
        <time>2007-08-25T13:36:23Z</time>
      </trkpt>
      <trkpt lat="46.433841" lon="14.172212">
        <ele>2179.32006835937</ele>
        <time>2007-08-25T13:36:36Z</time>
      </trkpt>
      <trkpt lat="46.433843" lon="14.172278">
        <ele>2180.84399414063</ele>
        <time>2007-08-25T13:36:50Z</time>
      </trkpt>
      <trkpt lat="46.433843" lon="14.172305">
        <ele>2181.75830078125</ele>
        <time>2007-08-25T13:37:05Z</time>
      </trkpt>
      <trkpt lat="46.433826" lon="14.172356">
        <ele>2184.50170898438</ele>
        <time>2007-08-25T13:37:20Z</time>
      </trkpt>
      <trkpt lat="46.433817" lon="14.172407">
        <ele>2186.63525390625</ele>
        <time>2007-08-25T13:37:34Z</time>
      </trkpt>
      <trkpt lat="46.433861" lon="14.172432">
        <ele>2189.07348632813</ele>
        <time>2007-08-25T13:37:50Z</time>
      </trkpt>
      <trkpt lat="46.433882" lon="14.172482">
        <ele>2191.20727539062</ele>
        <time>2007-08-25T13:38:04Z</time>
      </trkpt>
      <trkpt lat="46.43393" lon="14.172523">
        <ele>2193.95043945313</ele>
        <time>2007-08-25T13:38:19Z</time>
      </trkpt>
      <trkpt lat="46.433954" lon="14.172604">
        <ele>2197.30322265625</ele>
        <time>2007-08-25T13:38:37Z</time>
      </trkpt>
      <trkpt lat="46.433951" lon="14.172649">
        <ele>2198.8271484375</ele>
        <time>2007-08-25T13:38:52Z</time>
      </trkpt>
      <trkpt lat="46.433929" lon="14.172725">
        <ele>2200.96069335937</ele>
        <time>2007-08-25T13:39:05Z</time>
      </trkpt>
      <trkpt lat="46.433878" lon="14.172834">
        <ele>2202.78955078125</ele>
        <time>2007-08-25T13:39:23Z</time>
      </trkpt>
      <trkpt lat="46.433861" lon="14.172921">
        <ele>2205.53271484375</ele>
        <time>2007-08-25T13:39:40Z</time>
      </trkpt>
      <trkpt lat="46.433875" lon="14.17294">
        <ele>2208.58081054688</ele>
        <time>2007-08-25T13:39:56Z</time>
      </trkpt>
      <trkpt lat="46.433908" lon="14.173065">
        <ele>2211.62890625</ele>
        <time>2007-08-25T13:40:21Z</time>
      </trkpt>
      <trkpt lat="46.433959" lon="14.17307">
        <ele>2214.06713867188</ele>
        <time>2007-08-25T13:40:36Z</time>
      </trkpt>
      <trkpt lat="46.433966" lon="14.173119">
        <ele>2215.28637695312</ele>
        <time>2007-08-25T13:40:42Z</time>
      </trkpt>
      <trkpt lat="46.433943" lon="14.173236">
        <ele>2216.81030273438</ele>
        <time>2007-08-25T13:40:59Z</time>
      </trkpt>
      <trkpt lat="46.433944" lon="14.173339">
        <ele>2219.5537109375</ele>
        <time>2007-08-25T13:41:13Z</time>
      </trkpt>
      <trkpt lat="46.433934" lon="14.173372">
        <ele>2220.46801757812</ele>
        <time>2007-08-25T13:41:39Z</time>
      </trkpt>
      <trkpt lat="46.433919" lon="14.173478">
        <ele>2220.77270507812</ele>
        <time>2007-08-25T13:42:06Z</time>
      </trkpt>
      <trkpt lat="46.433923" lon="14.173574">
        <ele>2223.82080078125</ele>
        <time>2007-08-25T13:42:21Z</time>
      </trkpt>
      <trkpt lat="46.433909" lon="14.173677">
        <ele>2225.95434570313</ele>
        <time>2007-08-25T13:42:34Z</time>
      </trkpt>
      <trkpt lat="46.433926" lon="14.173904">
        <ele>2229.91674804687</ele>
        <time>2007-08-25T13:50:28Z</time>
      </trkpt>
      <trkpt lat="46.433876" lon="14.174054">
        <ele>2228.087890625</ele>
        <time>2007-08-25T13:50:45Z</time>
      </trkpt>
      <trkpt lat="46.433845" lon="14.174185">
        <ele>2225.95434570313</ele>
        <time>2007-08-25T13:51:01Z</time>
      </trkpt>
      <trkpt lat="46.433796" lon="14.174283">
        <ele>2224.12548828125</ele>
        <time>2007-08-25T13:51:16Z</time>
      </trkpt>
      <trkpt lat="46.433772" lon="14.174391">
        <ele>2221.99194335938</ele>
        <time>2007-08-25T13:51:31Z</time>
      </trkpt>
      <trkpt lat="46.43373" lon="14.174434">
        <ele>2219.24877929687</ele>
        <time>2007-08-25T13:51:45Z</time>
      </trkpt>
      <trkpt lat="46.433704" lon="14.174517">
        <ele>2216.81030273438</ele>
        <time>2007-08-25T13:52:02Z</time>
      </trkpt>
      <trkpt lat="46.433687" lon="14.174531">
        <ele>2215.28637695312</ele>
        <time>2007-08-25T13:52:16Z</time>
      </trkpt>
      <trkpt lat="46.43365" lon="14.174532">
        <ele>2214.06713867188</ele>
        <time>2007-08-25T13:52:35Z</time>
      </trkpt>
      <trkpt lat="46.43359" lon="14.174595">
        <ele>2211.62890625</ele>
        <time>2007-08-25T13:52:53Z</time>
      </trkpt>
      <trkpt lat="46.433553" lon="14.174531">
        <ele>2209.1904296875</ele>
        <time>2007-08-25T13:53:07Z</time>
      </trkpt>
      <trkpt lat="46.433517" lon="14.174435">
        <ele>2207.36157226563</ele>
        <time>2007-08-25T13:53:23Z</time>
      </trkpt>
      <trkpt lat="46.43348" lon="14.174463">
        <ele>2204.0087890625</ele>
        <time>2007-08-25T13:53:38Z</time>
      </trkpt>
      <trkpt lat="46.433454" lon="14.174544">
        <ele>2202.17993164063</ele>
        <time>2007-08-25T13:53:55Z</time>
      </trkpt>
      <trkpt lat="46.433424" lon="14.174644">
        <ele>2199.13208007813</ele>
        <time>2007-08-25T13:54:08Z</time>
      </trkpt>
      <trkpt lat="46.433421" lon="14.174691">
        <ele>2197.60791015625</ele>
        <time>2007-08-25T13:54:30Z</time>
      </trkpt>
      <trkpt lat="46.433396" lon="14.174741">
        <ele>2196.083984375</ele>
        <time>2007-08-25T13:55:05Z</time>
      </trkpt>
      <trkpt lat="46.433326" lon="14.174852">
        <ele>2193.95043945313</ele>
        <time>2007-08-25T13:55:22Z</time>
      </trkpt>
      <trkpt lat="46.433273" lon="14.174941">
        <ele>2191.51196289062</ele>
        <time>2007-08-25T13:55:37Z</time>
      </trkpt>
      <trkpt lat="46.433301" lon="14.17507">
        <ele>2188.1591796875</ele>
        <time>2007-08-25T13:55:49Z</time>
      </trkpt>
      <trkpt lat="46.433295" lon="14.175103">
        <ele>2187.24487304687</ele>
        <time>2007-08-25T13:55:53Z</time>
      </trkpt>
      <trkpt lat="46.433251" lon="14.175158">
        <ele>2183.89208984375</ele>
        <time>2007-08-25T13:56:04Z</time>
      </trkpt>
      <trkpt lat="46.433244" lon="14.175166">
        <ele>2183.89208984375</ele>
        <time>2007-08-25T13:56:05Z</time>
      </trkpt>
      <trkpt lat="46.433194" lon="14.175267">
        <ele>2181.45361328125</ele>
        <time>2007-08-25T13:56:18Z</time>
      </trkpt>
      <trkpt lat="46.433167" lon="14.175346">
        <ele>2180.53930664063</ele>
        <time>2007-08-25T13:56:29Z</time>
      </trkpt>
      <trkpt lat="46.433117" lon="14.175437">
        <ele>2177.4912109375</ele>
        <time>2007-08-25T13:56:41Z</time>
      </trkpt>
      <trkpt lat="46.433067" lon="14.175514">
        <ele>2175.96728515625</ele>
        <time>2007-08-25T13:56:52Z</time>
      </trkpt>
      <trkpt lat="46.432973" lon="14.175647">
        <ele>2173.83349609375</ele>
        <time>2007-08-25T13:57:12Z</time>
      </trkpt>
      <trkpt lat="46.432936" lon="14.175789">
        <ele>2170.78564453125</ele>
        <time>2007-08-25T13:57:27Z</time>
      </trkpt>
      <trkpt lat="46.432909" lon="14.175906">
        <ele>2168.34716796875</ele>
        <time>2007-08-25T13:57:40Z</time>
      </trkpt>
      <trkpt lat="46.432873" lon="14.176002">
        <ele>2165.29931640625</ele>
        <time>2007-08-25T13:57:53Z</time>
      </trkpt>
      <trkpt lat="46.432868" lon="14.176096">
        <ele>2163.77514648437</ele>
        <time>2007-08-25T13:58:03Z</time>
      </trkpt>
      <trkpt lat="46.43274" lon="14.176171">
        <ele>2163.77514648437</ele>
        <time>2007-08-25T13:58:19Z</time>
      </trkpt>
      <trkpt lat="46.432677" lon="14.176115">
        <ele>2165.60400390625</ele>
        <time>2007-08-25T13:58:29Z</time>
      </trkpt>
      <trkpt lat="46.432657" lon="14.176124">
        <ele>2167.1279296875</ele>
        <time>2007-08-25T13:58:36Z</time>
      </trkpt>
      <trkpt lat="46.432583" lon="14.176094">
        <ele>2169.56640625</ele>
        <time>2007-08-25T13:58:50Z</time>
      </trkpt>
      <trkpt lat="46.432483" lon="14.176152">
        <ele>2171.09033203125</ele>
        <time>2007-08-25T13:59:09Z</time>
      </trkpt>
      <trkpt lat="46.43242" lon="14.176117">
        <ele>2174.748046875</ele>
        <time>2007-08-25T13:59:24Z</time>
      </trkpt>
      <trkpt lat="46.432322" lon="14.176062">
        <ele>2176.57690429688</ele>
        <time>2007-08-25T13:59:38Z</time>
      </trkpt>
      <trkpt lat="46.432259" lon="14.176054">
        <ele>2178.40551757812</ele>
        <time>2007-08-25T13:59:54Z</time>
      </trkpt>
      <trkpt lat="46.432223" lon="14.176077">
        <ele>2181.45361328125</ele>
        <time>2007-08-25T14:00:06Z</time>
      </trkpt>
      <trkpt lat="46.432153" lon="14.17598">
        <ele>2182.6728515625</ele>
        <time>2007-08-25T14:00:22Z</time>
      </trkpt>
      <trkpt lat="46.432089" lon="14.175875">
        <ele>2185.11108398438</ele>
        <time>2007-08-25T14:00:38Z</time>
      </trkpt>
      <trkpt lat="46.432007" lon="14.175781">
        <ele>2186.63525390625</ele>
        <time>2007-08-25T14:00:54Z</time>
      </trkpt>
      <trkpt lat="46.431957" lon="14.175741">
        <ele>2186.93994140625</ele>
        <time>2007-08-25T14:01:08Z</time>
      </trkpt>
      <trkpt lat="46.431894" lon="14.175647">
        <ele>2187.54956054687</ele>
        <time>2007-08-25T14:01:22Z</time>
      </trkpt>
      <trkpt lat="46.431853" lon="14.175542">
        <ele>2188.76879882813</ele>
        <time>2007-08-25T14:01:36Z</time>
      </trkpt>
      <trkpt lat="46.431827" lon="14.175499">
        <ele>2188.1591796875</ele>
        <time>2007-08-25T14:01:41Z</time>
      </trkpt>
      <trkpt lat="46.431735" lon="14.175343">
        <ele>2188.76879882813</ele>
        <time>2007-08-25T14:01:57Z</time>
      </trkpt>
      <trkpt lat="46.431662" lon="14.175206">
        <ele>2189.98803710938</ele>
        <time>2007-08-25T14:02:11Z</time>
      </trkpt>
      <trkpt lat="46.431599" lon="14.175236">
        <ele>2187.24487304687</ele>
        <time>2007-08-25T14:02:21Z</time>
      </trkpt>
      <trkpt lat="46.431552" lon="14.175257">
        <ele>2184.19677734375</ele>
        <time>2007-08-25T14:02:32Z</time>
      </trkpt>
      <trkpt lat="46.4315" lon="14.17522">
        <ele>2182.36791992187</ele>
        <time>2007-08-25T14:02:45Z</time>
      </trkpt>
      <trkpt lat="46.431427" lon="14.175105">
        <ele>2180.53930664063</ele>
        <time>2007-08-25T14:03:01Z</time>
      </trkpt>
      <trkpt lat="46.431365" lon="14.175015">
        <ele>2178.40551757812</ele>
        <time>2007-08-25T14:03:17Z</time>
      </trkpt>
      <trkpt lat="46.431325" lon="14.174843">
        <ele>2179.32006835937</ele>
        <time>2007-08-25T14:03:36Z</time>
      </trkpt>
      <trkpt lat="46.43135" lon="14.174818">
        <ele>2179.32006835937</ele>
        <time>2007-08-25T14:04:21Z</time>
      </trkpt>
    </trkseg>
  </trk>
</gpx>
